<?xml version="1.0" encoding="UTF-8" standalone="no" ?>
<gpx xmlns="http://www.topografix.com/GPX/1/1" xmlns:xsi="http://www.w3.org/2001/XMLSchema-instance" xsi:schemaLocation="http://www.topografix.com/GPX/1/1 http://www.topografix.com/GPX/1/1/gpx.xsd" version="1.1" creator="VisuGPX - https://www.visugpx.com">
  <metadata>
    <name>Randonnée du 28/05/26 depuis col de la Charbonnière vers Chaume des Vaux</name>
  </metadata>
  <trk>
    <name><![CDATA[Parcours du 28/05/2026 17h20]]></name>
    <trkseg>
      <trkpt lat="48.38344" lon="7.25785">
        <ele>961.325</ele>
        <time>2026-05-28T12:34:30Z</time>
      </trkpt>
      <trkpt lat="48.38344" lon="7.25785">
        <ele>961.2008</ele>
        <time>2026-05-28T12:34:31Z</time>
      </trkpt>
      <trkpt lat="48.38348" lon="7.2578">
        <ele>961.2008</ele>
        <time>2026-05-28T12:36:05Z</time>
      </trkpt>
      <trkpt lat="48.38354" lon="7.25782">
        <ele>961.2008</ele>
        <time>2026-05-28T12:36:09Z</time>
      </trkpt>
      <trkpt lat="48.38358" lon="7.25783">
        <ele>961.22565</ele>
        <time>2026-05-28T12:36:13Z</time>
      </trkpt>
      <trkpt lat="48.38364" lon="7.25786">
        <ele>961.2008</ele>
        <time>2026-05-28T12:36:18Z</time>
      </trkpt>
      <trkpt lat="48.38365" lon="7.25793">
        <ele>961.2008</ele>
        <time>2026-05-28T12:36:22Z</time>
      </trkpt>
      <trkpt lat="48.38368" lon="7.258">
        <ele>961.2008</ele>
        <time>2026-05-28T12:36:28Z</time>
      </trkpt>
      <trkpt lat="48.38369" lon="7.25807">
        <ele>961.2008</ele>
        <time>2026-05-28T12:36:33Z</time>
      </trkpt>
      <trkpt lat="48.38371" lon="7.25813">
        <ele>961.2008</ele>
        <time>2026-05-28T12:36:41Z</time>
      </trkpt>
      <trkpt lat="48.38371" lon="7.2582">
        <ele>961.2008</ele>
        <time>2026-05-28T12:36:48Z</time>
      </trkpt>
      <trkpt lat="48.38371" lon="7.25827">
        <ele>961.2008</ele>
        <time>2026-05-28T12:36:53Z</time>
      </trkpt>
      <trkpt lat="48.38371" lon="7.25834">
        <ele>961.2008</ele>
        <time>2026-05-28T12:36:57Z</time>
      </trkpt>
      <trkpt lat="48.38371" lon="7.25843">
        <ele>961.2008</ele>
        <time>2026-05-28T12:37:07Z</time>
      </trkpt>
      <trkpt lat="48.38371" lon="7.2585">
        <ele>961.2008</ele>
        <time>2026-05-28T12:37:12Z</time>
      </trkpt>
      <trkpt lat="48.38371" lon="7.25858">
        <ele>963.2611</ele>
        <time>2026-05-28T12:37:18Z</time>
      </trkpt>
      <trkpt lat="48.38372" lon="7.25865">
        <ele>965.3214</ele>
        <time>2026-05-28T12:37:24Z</time>
      </trkpt>
      <trkpt lat="48.38374" lon="7.25873">
        <ele>967.38165</ele>
        <time>2026-05-28T12:37:29Z</time>
      </trkpt>
      <trkpt lat="48.38375" lon="7.25879">
        <ele>969.44196</ele>
        <time>2026-05-28T12:37:33Z</time>
      </trkpt>
      <trkpt lat="48.38377" lon="7.25886">
        <ele>971.50226</ele>
        <time>2026-05-28T12:37:38Z</time>
      </trkpt>
      <trkpt lat="48.38379" lon="7.25893">
        <ele>971.50226</ele>
        <time>2026-05-28T12:37:42Z</time>
      </trkpt>
      <trkpt lat="48.38381" lon="7.259">
        <ele>971.50226</ele>
        <time>2026-05-28T12:37:47Z</time>
      </trkpt>
      <trkpt lat="48.38384" lon="7.25907">
        <ele>971.50226</ele>
        <time>2026-05-28T12:37:52Z</time>
      </trkpt>
      <trkpt lat="48.38387" lon="7.25913">
        <ele>971.50226</ele>
        <time>2026-05-28T12:37:57Z</time>
      </trkpt>
      <trkpt lat="48.3839" lon="7.25919">
        <ele>971.50226</ele>
        <time>2026-05-28T12:38:02Z</time>
      </trkpt>
      <trkpt lat="48.38393" lon="7.25925">
        <ele>971.50226</ele>
        <time>2026-05-28T12:38:07Z</time>
      </trkpt>
      <trkpt lat="48.38397" lon="7.25931">
        <ele>971.50226</ele>
        <time>2026-05-28T12:38:12Z</time>
      </trkpt>
      <trkpt lat="48.384" lon="7.25937">
        <ele>971.50226</ele>
        <time>2026-05-28T12:38:17Z</time>
      </trkpt>
      <trkpt lat="48.38404" lon="7.25942">
        <ele>971.50226</ele>
        <time>2026-05-28T12:38:23Z</time>
      </trkpt>
      <trkpt lat="48.38406" lon="7.25947">
        <ele>971.50226</ele>
        <time>2026-05-28T12:38:28Z</time>
      </trkpt>
      <trkpt lat="48.3841" lon="7.25953">
        <ele>971.50226</ele>
        <time>2026-05-28T12:38:33Z</time>
      </trkpt>
      <trkpt lat="48.38413" lon="7.25959">
        <ele>971.50226</ele>
        <time>2026-05-28T12:38:38Z</time>
      </trkpt>
      <trkpt lat="48.38417" lon="7.25963">
        <ele>971.50226</ele>
        <time>2026-05-28T12:38:43Z</time>
      </trkpt>
      <trkpt lat="48.38421" lon="7.25968">
        <ele>971.50226</ele>
        <time>2026-05-28T12:38:48Z</time>
      </trkpt>
      <trkpt lat="48.38424" lon="7.25973">
        <ele>971.50226</ele>
        <time>2026-05-28T12:38:53Z</time>
      </trkpt>
      <trkpt lat="48.38428" lon="7.25978">
        <ele>971.50226</ele>
        <time>2026-05-28T12:39:00Z</time>
      </trkpt>
      <trkpt lat="48.38432" lon="7.25983">
        <ele>971.50226</ele>
        <time>2026-05-28T12:39:05Z</time>
      </trkpt>
      <trkpt lat="48.38436" lon="7.25987">
        <ele>971.50226</ele>
        <time>2026-05-28T12:39:10Z</time>
      </trkpt>
      <trkpt lat="48.3844" lon="7.25991">
        <ele>971.50226</ele>
        <time>2026-05-28T12:39:14Z</time>
      </trkpt>
      <trkpt lat="48.38445" lon="7.25995">
        <ele>971.50226</ele>
        <time>2026-05-28T12:39:19Z</time>
      </trkpt>
      <trkpt lat="48.38449" lon="7.26">
        <ele>971.50226</ele>
        <time>2026-05-28T12:39:24Z</time>
      </trkpt>
      <trkpt lat="48.38453" lon="7.26004">
        <ele>971.50226</ele>
        <time>2026-05-28T12:39:30Z</time>
      </trkpt>
      <trkpt lat="48.38458" lon="7.26008">
        <ele>971.50226</ele>
        <time>2026-05-28T12:39:35Z</time>
      </trkpt>
      <trkpt lat="48.38462" lon="7.26012">
        <ele>971.50226</ele>
        <time>2026-05-28T12:39:39Z</time>
      </trkpt>
      <trkpt lat="48.38467" lon="7.26015">
        <ele>971.50226</ele>
        <time>2026-05-28T12:39:44Z</time>
      </trkpt>
      <trkpt lat="48.38471" lon="7.26019">
        <ele>971.50226</ele>
        <time>2026-05-28T12:39:48Z</time>
      </trkpt>
      <trkpt lat="48.38476" lon="7.26023">
        <ele>973.5831</ele>
        <time>2026-05-28T12:39:53Z</time>
      </trkpt>
      <trkpt lat="48.3848" lon="7.26027">
        <ele>975.66406</ele>
        <time>2026-05-28T12:39:59Z</time>
      </trkpt>
      <trkpt lat="48.38485" lon="7.2603">
        <ele>977.74493</ele>
        <time>2026-05-28T12:40:04Z</time>
      </trkpt>
      <trkpt lat="48.3849" lon="7.26034">
        <ele>979.82587</ele>
        <time>2026-05-28T12:40:09Z</time>
      </trkpt>
      <trkpt lat="48.38494" lon="7.26038">
        <ele>981.90674</ele>
        <time>2026-05-28T12:40:15Z</time>
      </trkpt>
      <trkpt lat="48.38498" lon="7.26041">
        <ele>981.90674</ele>
        <time>2026-05-28T12:40:19Z</time>
      </trkpt>
      <trkpt lat="48.38503" lon="7.26044">
        <ele>981.90674</ele>
        <time>2026-05-28T12:40:24Z</time>
      </trkpt>
      <trkpt lat="48.38507" lon="7.26047">
        <ele>981.90674</ele>
        <time>2026-05-28T12:40:29Z</time>
      </trkpt>
      <trkpt lat="48.38512" lon="7.2605">
        <ele>981.90674</ele>
        <time>2026-05-28T12:40:34Z</time>
      </trkpt>
      <trkpt lat="48.38516" lon="7.26052">
        <ele>981.90674</ele>
        <time>2026-05-28T12:40:39Z</time>
      </trkpt>
      <trkpt lat="48.38522" lon="7.26055">
        <ele>981.90674</ele>
        <time>2026-05-28T12:40:44Z</time>
      </trkpt>
      <trkpt lat="48.38528" lon="7.26057">
        <ele>981.90674</ele>
        <time>2026-05-28T12:40:50Z</time>
      </trkpt>
      <trkpt lat="48.38533" lon="7.2606">
        <ele>981.90674</ele>
        <time>2026-05-28T12:40:54Z</time>
      </trkpt>
      <trkpt lat="48.38537" lon="7.26062">
        <ele>981.90674</ele>
        <time>2026-05-28T12:40:57Z</time>
      </trkpt>
      <trkpt lat="48.38543" lon="7.26065">
        <ele>981.90674</ele>
        <time>2026-05-28T12:41:02Z</time>
      </trkpt>
      <trkpt lat="48.38548" lon="7.26067">
        <ele>981.90674</ele>
        <time>2026-05-28T12:41:08Z</time>
      </trkpt>
      <trkpt lat="48.38553" lon="7.26069">
        <ele>981.90674</ele>
        <time>2026-05-28T12:41:13Z</time>
      </trkpt>
      <trkpt lat="48.38558" lon="7.26071">
        <ele>981.90674</ele>
        <time>2026-05-28T12:41:17Z</time>
      </trkpt>
      <trkpt lat="48.38562" lon="7.26075">
        <ele>981.90674</ele>
        <time>2026-05-28T12:41:22Z</time>
      </trkpt>
      <trkpt lat="48.38567" lon="7.26078">
        <ele>981.90674</ele>
        <time>2026-05-28T12:41:27Z</time>
      </trkpt>
      <trkpt lat="48.38572" lon="7.26081">
        <ele>981.90674</ele>
        <time>2026-05-28T12:41:31Z</time>
      </trkpt>
      <trkpt lat="48.38577" lon="7.26085">
        <ele>981.90674</ele>
        <time>2026-05-28T12:41:38Z</time>
      </trkpt>
      <trkpt lat="48.38582" lon="7.26089">
        <ele>981.90674</ele>
        <time>2026-05-28T12:41:43Z</time>
      </trkpt>
      <trkpt lat="48.38586" lon="7.26093">
        <ele>981.90674</ele>
        <time>2026-05-28T12:41:48Z</time>
      </trkpt>
      <trkpt lat="48.38591" lon="7.26096">
        <ele>981.90674</ele>
        <time>2026-05-28T12:41:52Z</time>
      </trkpt>
      <trkpt lat="48.38595" lon="7.261">
        <ele>981.90674</ele>
        <time>2026-05-28T12:41:56Z</time>
      </trkpt>
      <trkpt lat="48.38599" lon="7.26104">
        <ele>981.90674</ele>
        <time>2026-05-28T12:42:01Z</time>
      </trkpt>
      <trkpt lat="48.38603" lon="7.26108">
        <ele>981.90674</ele>
        <time>2026-05-28T12:42:05Z</time>
      </trkpt>
      <trkpt lat="48.38607" lon="7.26113">
        <ele>981.90674</ele>
        <time>2026-05-28T12:42:09Z</time>
      </trkpt>
      <trkpt lat="48.38611" lon="7.26119">
        <ele>981.90674</ele>
        <time>2026-05-28T12:42:14Z</time>
      </trkpt>
      <trkpt lat="48.38615" lon="7.26123">
        <ele>981.90674</ele>
        <time>2026-05-28T12:42:18Z</time>
      </trkpt>
      <trkpt lat="48.38618" lon="7.26129">
        <ele>981.90674</ele>
        <time>2026-05-28T12:42:23Z</time>
      </trkpt>
      <trkpt lat="48.38622" lon="7.26134">
        <ele>981.90674</ele>
        <time>2026-05-28T12:42:27Z</time>
      </trkpt>
      <trkpt lat="48.38625" lon="7.26139">
        <ele>981.90674</ele>
        <time>2026-05-28T12:42:31Z</time>
      </trkpt>
      <trkpt lat="48.38629" lon="7.26145">
        <ele>981.90674</ele>
        <time>2026-05-28T12:42:38Z</time>
      </trkpt>
      <trkpt lat="48.38633" lon="7.26151">
        <ele>981.90674</ele>
        <time>2026-05-28T12:42:42Z</time>
      </trkpt>
      <trkpt lat="48.38636" lon="7.26156">
        <ele>981.90674</ele>
        <time>2026-05-28T12:42:46Z</time>
      </trkpt>
      <trkpt lat="48.38639" lon="7.26161">
        <ele>981.90674</ele>
        <time>2026-05-28T12:42:52Z</time>
      </trkpt>
      <trkpt lat="48.38641" lon="7.26167">
        <ele>981.90674</ele>
        <time>2026-05-28T12:42:56Z</time>
      </trkpt>
      <trkpt lat="48.38644" lon="7.26173">
        <ele>981.90674</ele>
        <time>2026-05-28T12:43:01Z</time>
      </trkpt>
      <trkpt lat="48.38647" lon="7.26179">
        <ele>981.90674</ele>
        <time>2026-05-28T12:43:05Z</time>
      </trkpt>
      <trkpt lat="48.3865" lon="7.26186">
        <ele>981.90674</ele>
        <time>2026-05-28T12:43:10Z</time>
      </trkpt>
      <trkpt lat="48.38653" lon="7.26192">
        <ele>981.90674</ele>
        <time>2026-05-28T12:43:15Z</time>
      </trkpt>
      <trkpt lat="48.38656" lon="7.26198">
        <ele>981.90674</ele>
        <time>2026-05-28T12:43:19Z</time>
      </trkpt>
      <trkpt lat="48.38659" lon="7.26203">
        <ele>981.90674</ele>
        <time>2026-05-28T12:43:24Z</time>
      </trkpt>
      <trkpt lat="48.38662" lon="7.2621">
        <ele>981.90674</ele>
        <time>2026-05-28T12:43:30Z</time>
      </trkpt>
      <trkpt lat="48.38664" lon="7.26217">
        <ele>981.90674</ele>
        <time>2026-05-28T12:43:34Z</time>
      </trkpt>
      <trkpt lat="48.38667" lon="7.26223">
        <ele>984.0605</ele>
        <time>2026-05-28T12:43:39Z</time>
      </trkpt>
      <trkpt lat="48.38668" lon="7.2623">
        <ele>986.21423</ele>
        <time>2026-05-28T12:43:44Z</time>
      </trkpt>
      <trkpt lat="48.3867" lon="7.26236">
        <ele>988.36804</ele>
        <time>2026-05-28T12:43:48Z</time>
      </trkpt>
      <trkpt lat="48.38673" lon="7.26243">
        <ele>990.5218</ele>
        <time>2026-05-28T12:43:52Z</time>
      </trkpt>
      <trkpt lat="48.38675" lon="7.2625">
        <ele>992.67554</ele>
        <time>2026-05-28T12:43:57Z</time>
      </trkpt>
      <trkpt lat="48.38677" lon="7.26257">
        <ele>992.67554</ele>
        <time>2026-05-28T12:44:02Z</time>
      </trkpt>
      <trkpt lat="48.38679" lon="7.26264">
        <ele>992.67554</ele>
        <time>2026-05-28T12:44:07Z</time>
      </trkpt>
      <trkpt lat="48.38681" lon="7.26271">
        <ele>992.67554</ele>
        <time>2026-05-28T12:44:13Z</time>
      </trkpt>
      <trkpt lat="48.38683" lon="7.26278">
        <ele>992.67554</ele>
        <time>2026-05-28T12:44:19Z</time>
      </trkpt>
      <trkpt lat="48.38685" lon="7.26285">
        <ele>992.67554</ele>
        <time>2026-05-28T12:44:23Z</time>
      </trkpt>
      <trkpt lat="48.38687" lon="7.26292">
        <ele>992.67554</ele>
        <time>2026-05-28T12:44:27Z</time>
      </trkpt>
      <trkpt lat="48.38688" lon="7.26299">
        <ele>992.67554</ele>
        <time>2026-05-28T12:44:31Z</time>
      </trkpt>
      <trkpt lat="48.3869" lon="7.26305">
        <ele>992.67554</ele>
        <time>2026-05-28T12:44:35Z</time>
      </trkpt>
      <trkpt lat="48.38691" lon="7.26312">
        <ele>992.67554</ele>
        <time>2026-05-28T12:44:39Z</time>
      </trkpt>
      <trkpt lat="48.38693" lon="7.2632">
        <ele>992.67554</ele>
        <time>2026-05-28T12:44:44Z</time>
      </trkpt>
      <trkpt lat="48.38695" lon="7.26328">
        <ele>992.67554</ele>
        <time>2026-05-28T12:44:50Z</time>
      </trkpt>
      <trkpt lat="48.38697" lon="7.26335">
        <ele>992.67554</ele>
        <time>2026-05-28T12:44:54Z</time>
      </trkpt>
      <trkpt lat="48.38698" lon="7.26343">
        <ele>992.67554</ele>
        <time>2026-05-28T12:44:59Z</time>
      </trkpt>
      <trkpt lat="48.38699" lon="7.2635">
        <ele>992.67554</ele>
        <time>2026-05-28T12:45:05Z</time>
      </trkpt>
      <trkpt lat="48.387" lon="7.26358">
        <ele>992.67554</ele>
        <time>2026-05-28T12:45:09Z</time>
      </trkpt>
      <trkpt lat="48.38701" lon="7.26366">
        <ele>992.67554</ele>
        <time>2026-05-28T12:45:14Z</time>
      </trkpt>
      <trkpt lat="48.38702" lon="7.26373">
        <ele>992.67554</ele>
        <time>2026-05-28T12:45:19Z</time>
      </trkpt>
      <trkpt lat="48.38702" lon="7.2638">
        <ele>992.67554</ele>
        <time>2026-05-28T12:45:23Z</time>
      </trkpt>
      <trkpt lat="48.38703" lon="7.26387">
        <ele>992.67554</ele>
        <time>2026-05-28T12:45:28Z</time>
      </trkpt>
      <trkpt lat="48.38703" lon="7.26395">
        <ele>992.67554</ele>
        <time>2026-05-28T12:45:32Z</time>
      </trkpt>
      <trkpt lat="48.38704" lon="7.26402">
        <ele>992.67554</ele>
        <time>2026-05-28T12:45:36Z</time>
      </trkpt>
      <trkpt lat="48.38704" lon="7.2641">
        <ele>992.67554</ele>
        <time>2026-05-28T12:45:40Z</time>
      </trkpt>
      <trkpt lat="48.38704" lon="7.26418">
        <ele>992.67554</ele>
        <time>2026-05-28T12:45:44Z</time>
      </trkpt>
      <trkpt lat="48.38704" lon="7.26426">
        <ele>992.67554</ele>
        <time>2026-05-28T12:45:48Z</time>
      </trkpt>
      <trkpt lat="48.38704" lon="7.26434">
        <ele>992.67554</ele>
        <time>2026-05-28T12:45:53Z</time>
      </trkpt>
      <trkpt lat="48.38704" lon="7.26442">
        <ele>992.67554</ele>
        <time>2026-05-28T12:45:59Z</time>
      </trkpt>
      <trkpt lat="48.38704" lon="7.26449">
        <ele>992.67554</ele>
        <time>2026-05-28T12:46:04Z</time>
      </trkpt>
      <trkpt lat="48.38703" lon="7.26457">
        <ele>992.67554</ele>
        <time>2026-05-28T12:46:08Z</time>
      </trkpt>
      <trkpt lat="48.38703" lon="7.26465">
        <ele>992.67554</ele>
        <time>2026-05-28T12:46:12Z</time>
      </trkpt>
      <trkpt lat="48.38702" lon="7.26473">
        <ele>992.67554</ele>
        <time>2026-05-28T12:46:17Z</time>
      </trkpt>
      <trkpt lat="48.38701" lon="7.2648">
        <ele>992.67554</ele>
        <time>2026-05-28T12:46:21Z</time>
      </trkpt>
      <trkpt lat="48.38701" lon="7.26489">
        <ele>992.67554</ele>
        <time>2026-05-28T12:46:26Z</time>
      </trkpt>
      <trkpt lat="48.387" lon="7.26497">
        <ele>992.67554</ele>
        <time>2026-05-28T12:46:31Z</time>
      </trkpt>
      <trkpt lat="48.387" lon="7.26504">
        <ele>992.67554</ele>
        <time>2026-05-28T12:46:35Z</time>
      </trkpt>
      <trkpt lat="48.38699" lon="7.26511">
        <ele>992.67554</ele>
        <time>2026-05-28T12:46:40Z</time>
      </trkpt>
      <trkpt lat="48.38697" lon="7.26518">
        <ele>992.67554</ele>
        <time>2026-05-28T12:46:47Z</time>
      </trkpt>
      <trkpt lat="48.38697" lon="7.26525">
        <ele>992.67554</ele>
        <time>2026-05-28T12:46:53Z</time>
      </trkpt>
      <trkpt lat="48.38696" lon="7.26533">
        <ele>992.67554</ele>
        <time>2026-05-28T12:46:58Z</time>
      </trkpt>
      <trkpt lat="48.38696" lon="7.2654">
        <ele>992.67554</ele>
        <time>2026-05-28T12:47:02Z</time>
      </trkpt>
      <trkpt lat="48.38694" lon="7.26548">
        <ele>992.67554</ele>
        <time>2026-05-28T12:47:07Z</time>
      </trkpt>
      <trkpt lat="48.38693" lon="7.26556">
        <ele>992.67554</ele>
        <time>2026-05-28T12:47:11Z</time>
      </trkpt>
      <trkpt lat="48.38692" lon="7.26563">
        <ele>992.67554</ele>
        <time>2026-05-28T12:47:16Z</time>
      </trkpt>
      <trkpt lat="48.38691" lon="7.26571">
        <ele>992.67554</ele>
        <time>2026-05-28T12:47:20Z</time>
      </trkpt>
      <trkpt lat="48.3869" lon="7.26577">
        <ele>992.67554</ele>
        <time>2026-05-28T12:47:24Z</time>
      </trkpt>
      <trkpt lat="48.38689" lon="7.26586">
        <ele>992.67554</ele>
        <time>2026-05-28T12:47:29Z</time>
      </trkpt>
      <trkpt lat="48.38687" lon="7.26593">
        <ele>992.67554</ele>
        <time>2026-05-28T12:47:34Z</time>
      </trkpt>
      <trkpt lat="48.38685" lon="7.266">
        <ele>992.67554</ele>
        <time>2026-05-28T12:47:39Z</time>
      </trkpt>
      <trkpt lat="48.38682" lon="7.26607">
        <ele>992.67554</ele>
        <time>2026-05-28T12:47:45Z</time>
      </trkpt>
      <trkpt lat="48.3868" lon="7.26613">
        <ele>992.67554</ele>
        <time>2026-05-28T12:47:51Z</time>
      </trkpt>
      <trkpt lat="48.38679" lon="7.2662">
        <ele>992.67554</ele>
        <time>2026-05-28T12:47:58Z</time>
      </trkpt>
      <trkpt lat="48.38677" lon="7.26627">
        <ele>992.67554</ele>
        <time>2026-05-28T12:48:05Z</time>
      </trkpt>
      <trkpt lat="48.38675" lon="7.26633">
        <ele>992.67554</ele>
        <time>2026-05-28T12:48:10Z</time>
      </trkpt>
      <trkpt lat="48.3867" lon="7.26637">
        <ele>992.67554</ele>
        <time>2026-05-28T12:48:14Z</time>
      </trkpt>
      <trkpt lat="48.38665" lon="7.26639">
        <ele>992.67554</ele>
        <time>2026-05-28T12:48:18Z</time>
      </trkpt>
      <trkpt lat="48.3866" lon="7.26643">
        <ele>992.67554</ele>
        <time>2026-05-28T12:48:22Z</time>
      </trkpt>
      <trkpt lat="48.38657" lon="7.26649">
        <ele>992.67554</ele>
        <time>2026-05-28T12:48:28Z</time>
      </trkpt>
      <trkpt lat="48.38654" lon="7.26656">
        <ele>992.67554</ele>
        <time>2026-05-28T12:48:34Z</time>
      </trkpt>
      <trkpt lat="48.3865" lon="7.26662">
        <ele>992.67554</ele>
        <time>2026-05-28T12:48:39Z</time>
      </trkpt>
      <trkpt lat="48.38647" lon="7.26668">
        <ele>992.67554</ele>
        <time>2026-05-28T12:48:45Z</time>
      </trkpt>
      <trkpt lat="48.38644" lon="7.26674">
        <ele>992.67554</ele>
        <time>2026-05-28T12:48:50Z</time>
      </trkpt>
      <trkpt lat="48.38641" lon="7.26679">
        <ele>992.67554</ele>
        <time>2026-05-28T12:48:55Z</time>
      </trkpt>
      <trkpt lat="48.38638" lon="7.26685">
        <ele>992.67554</ele>
        <time>2026-05-28T12:49:00Z</time>
      </trkpt>
      <trkpt lat="48.38635" lon="7.2669">
        <ele>992.67554</ele>
        <time>2026-05-28T12:49:04Z</time>
      </trkpt>
      <trkpt lat="48.38632" lon="7.26698">
        <ele>992.67554</ele>
        <time>2026-05-28T12:49:10Z</time>
      </trkpt>
      <trkpt lat="48.38628" lon="7.26703">
        <ele>992.67554</ele>
        <time>2026-05-28T12:49:15Z</time>
      </trkpt>
      <trkpt lat="48.38625" lon="7.26709">
        <ele>992.67554</ele>
        <time>2026-05-28T12:49:20Z</time>
      </trkpt>
      <trkpt lat="48.38622" lon="7.26714">
        <ele>992.67554</ele>
        <time>2026-05-28T12:49:25Z</time>
      </trkpt>
      <trkpt lat="48.38619" lon="7.26721">
        <ele>992.67554</ele>
        <time>2026-05-28T12:49:30Z</time>
      </trkpt>
      <trkpt lat="48.38615" lon="7.26727">
        <ele>992.67554</ele>
        <time>2026-05-28T12:49:35Z</time>
      </trkpt>
      <trkpt lat="48.38612" lon="7.26733">
        <ele>992.67554</ele>
        <time>2026-05-28T12:49:40Z</time>
      </trkpt>
      <trkpt lat="48.38609" lon="7.26739">
        <ele>992.67554</ele>
        <time>2026-05-28T12:49:44Z</time>
      </trkpt>
      <trkpt lat="48.38606" lon="7.26744">
        <ele>992.67554</ele>
        <time>2026-05-28T12:49:49Z</time>
      </trkpt>
      <trkpt lat="48.38603" lon="7.2675">
        <ele>992.67554</ele>
        <time>2026-05-28T12:49:54Z</time>
      </trkpt>
      <trkpt lat="48.386" lon="7.26755">
        <ele>992.67554</ele>
        <time>2026-05-28T12:50:00Z</time>
      </trkpt>
      <trkpt lat="48.38597" lon="7.26761">
        <ele>992.67554</ele>
        <time>2026-05-28T12:50:04Z</time>
      </trkpt>
      <trkpt lat="48.38594" lon="7.26766">
        <ele>992.67554</ele>
        <time>2026-05-28T12:50:08Z</time>
      </trkpt>
      <trkpt lat="48.3859" lon="7.26773">
        <ele>992.67554</ele>
        <time>2026-05-28T12:50:13Z</time>
      </trkpt>
      <trkpt lat="48.38586" lon="7.26779">
        <ele>990.6667</ele>
        <time>2026-05-28T12:50:18Z</time>
      </trkpt>
      <trkpt lat="48.38583" lon="7.26786">
        <ele>988.6578</ele>
        <time>2026-05-28T12:50:24Z</time>
      </trkpt>
      <trkpt lat="48.3858" lon="7.26791">
        <ele>986.6489</ele>
        <time>2026-05-28T12:50:29Z</time>
      </trkpt>
      <trkpt lat="48.38577" lon="7.26797">
        <ele>984.64</ele>
        <time>2026-05-28T12:50:34Z</time>
      </trkpt>
      <trkpt lat="48.38574" lon="7.26804">
        <ele>982.63116</ele>
        <time>2026-05-28T12:50:38Z</time>
      </trkpt>
      <trkpt lat="48.38572" lon="7.26812">
        <ele>982.63116</ele>
        <time>2026-05-28T12:50:44Z</time>
      </trkpt>
      <trkpt lat="48.38569" lon="7.26819">
        <ele>982.63116</ele>
        <time>2026-05-28T12:50:51Z</time>
      </trkpt>
      <trkpt lat="48.38568" lon="7.26826">
        <ele>982.63116</ele>
        <time>2026-05-28T12:50:55Z</time>
      </trkpt>
      <trkpt lat="48.38565" lon="7.26832">
        <ele>982.63116</ele>
        <time>2026-05-28T12:51:01Z</time>
      </trkpt>
      <trkpt lat="48.38563" lon="7.26839">
        <ele>982.63116</ele>
        <time>2026-05-28T12:51:05Z</time>
      </trkpt>
      <trkpt lat="48.3856" lon="7.26847">
        <ele>982.63116</ele>
        <time>2026-05-28T12:51:11Z</time>
      </trkpt>
      <trkpt lat="48.38558" lon="7.26854">
        <ele>982.63116</ele>
        <time>2026-05-28T12:51:19Z</time>
      </trkpt>
      <trkpt lat="48.38557" lon="7.26861">
        <ele>982.63116</ele>
        <time>2026-05-28T12:51:22Z</time>
      </trkpt>
      <trkpt lat="48.38554" lon="7.26867">
        <ele>982.63116</ele>
        <time>2026-05-28T12:51:27Z</time>
      </trkpt>
      <trkpt lat="48.38553" lon="7.26873">
        <ele>982.63116</ele>
        <time>2026-05-28T12:51:32Z</time>
      </trkpt>
      <trkpt lat="48.3855" lon="7.26881">
        <ele>982.63116</ele>
        <time>2026-05-28T12:51:36Z</time>
      </trkpt>
      <trkpt lat="48.38548" lon="7.26888">
        <ele>982.63116</ele>
        <time>2026-05-28T12:51:40Z</time>
      </trkpt>
      <trkpt lat="48.38546" lon="7.26896">
        <ele>982.63116</ele>
        <time>2026-05-28T12:51:45Z</time>
      </trkpt>
      <trkpt lat="48.38545" lon="7.26903">
        <ele>982.63116</ele>
        <time>2026-05-28T12:51:52Z</time>
      </trkpt>
      <trkpt lat="48.38544" lon="7.26911">
        <ele>982.63116</ele>
        <time>2026-05-28T12:51:57Z</time>
      </trkpt>
      <trkpt lat="48.38542" lon="7.26917">
        <ele>982.63116</ele>
        <time>2026-05-28T12:52:01Z</time>
      </trkpt>
      <trkpt lat="48.38541" lon="7.26925">
        <ele>982.63116</ele>
        <time>2026-05-28T12:52:06Z</time>
      </trkpt>
      <trkpt lat="48.38541" lon="7.26932">
        <ele>982.63116</ele>
        <time>2026-05-28T12:52:11Z</time>
      </trkpt>
      <trkpt lat="48.38541" lon="7.26939">
        <ele>980.4295</ele>
        <time>2026-05-28T12:52:15Z</time>
      </trkpt>
      <trkpt lat="48.38541" lon="7.26947">
        <ele>978.22784</ele>
        <time>2026-05-28T12:52:20Z</time>
      </trkpt>
      <trkpt lat="48.38541" lon="7.26957">
        <ele>976.02625</ele>
        <time>2026-05-28T12:52:26Z</time>
      </trkpt>
      <trkpt lat="48.38541" lon="7.26965">
        <ele>973.8246</ele>
        <time>2026-05-28T12:52:33Z</time>
      </trkpt>
      <trkpt lat="48.38542" lon="7.26973">
        <ele>971.6229</ele>
        <time>2026-05-28T12:52:39Z</time>
      </trkpt>
      <trkpt lat="48.38543" lon="7.26981">
        <ele>971.6229</ele>
        <time>2026-05-28T12:52:45Z</time>
      </trkpt>
      <trkpt lat="48.38543" lon="7.26989">
        <ele>971.6229</ele>
        <time>2026-05-28T12:52:51Z</time>
      </trkpt>
      <trkpt lat="48.38544" lon="7.26996">
        <ele>971.6229</ele>
        <time>2026-05-28T12:52:56Z</time>
      </trkpt>
      <trkpt lat="48.38545" lon="7.27004">
        <ele>971.6229</ele>
        <time>2026-05-28T12:53:01Z</time>
      </trkpt>
      <trkpt lat="48.38546" lon="7.27011">
        <ele>971.6229</ele>
        <time>2026-05-28T12:53:06Z</time>
      </trkpt>
      <trkpt lat="48.38547" lon="7.27019">
        <ele>971.6229</ele>
        <time>2026-05-28T12:53:10Z</time>
      </trkpt>
      <trkpt lat="48.38548" lon="7.27026">
        <ele>971.6229</ele>
        <time>2026-05-28T12:53:16Z</time>
      </trkpt>
      <trkpt lat="48.38549" lon="7.27033">
        <ele>971.6229</ele>
        <time>2026-05-28T12:53:20Z</time>
      </trkpt>
      <trkpt lat="48.38549" lon="7.27041">
        <ele>971.6229</ele>
        <time>2026-05-28T12:53:25Z</time>
      </trkpt>
      <trkpt lat="48.38551" lon="7.27049">
        <ele>971.6229</ele>
        <time>2026-05-28T12:53:31Z</time>
      </trkpt>
      <trkpt lat="48.38551" lon="7.27056">
        <ele>971.6229</ele>
        <time>2026-05-28T12:53:37Z</time>
      </trkpt>
      <trkpt lat="48.38552" lon="7.27063">
        <ele>971.6229</ele>
        <time>2026-05-28T12:53:44Z</time>
      </trkpt>
      <trkpt lat="48.38551" lon="7.27071">
        <ele>971.6229</ele>
        <time>2026-05-28T12:53:57Z</time>
      </trkpt>
      <trkpt lat="48.38552" lon="7.27078">
        <ele>971.6229</ele>
        <time>2026-05-28T12:54:06Z</time>
      </trkpt>
      <trkpt lat="48.38553" lon="7.27085">
        <ele>971.6229</ele>
        <time>2026-05-28T12:54:13Z</time>
      </trkpt>
      <trkpt lat="48.38553" lon="7.27093">
        <ele>971.6229</ele>
        <time>2026-05-28T12:54:18Z</time>
      </trkpt>
      <trkpt lat="48.38553" lon="7.27101">
        <ele>971.6229</ele>
        <time>2026-05-28T12:54:23Z</time>
      </trkpt>
      <trkpt lat="48.38553" lon="7.27108">
        <ele>971.6229</ele>
        <time>2026-05-28T12:54:27Z</time>
      </trkpt>
      <trkpt lat="48.38552" lon="7.27115">
        <ele>971.6229</ele>
        <time>2026-05-28T12:54:33Z</time>
      </trkpt>
      <trkpt lat="48.38551" lon="7.27123">
        <ele>971.6229</ele>
        <time>2026-05-28T12:54:37Z</time>
      </trkpt>
      <trkpt lat="48.38551" lon="7.2713">
        <ele>971.6229</ele>
        <time>2026-05-28T12:54:44Z</time>
      </trkpt>
      <trkpt lat="48.3855" lon="7.27137">
        <ele>971.6229</ele>
        <time>2026-05-28T12:54:50Z</time>
      </trkpt>
      <trkpt lat="48.38548" lon="7.27143">
        <ele>971.6229</ele>
        <time>2026-05-28T12:54:55Z</time>
      </trkpt>
      <trkpt lat="48.38547" lon="7.27152">
        <ele>971.6229</ele>
        <time>2026-05-28T12:55:03Z</time>
      </trkpt>
      <trkpt lat="48.38546" lon="7.2716">
        <ele>969.4506</ele>
        <time>2026-05-28T12:55:09Z</time>
      </trkpt>
      <trkpt lat="48.38545" lon="7.27167">
        <ele>967.2783</ele>
        <time>2026-05-28T12:55:14Z</time>
      </trkpt>
      <trkpt lat="48.38543" lon="7.27175">
        <ele>965.10596</ele>
        <time>2026-05-28T12:55:20Z</time>
      </trkpt>
      <trkpt lat="48.38541" lon="7.27183">
        <ele>962.93365</ele>
        <time>2026-05-28T12:55:26Z</time>
      </trkpt>
      <trkpt lat="48.3854" lon="7.2719">
        <ele>960.76135</ele>
        <time>2026-05-28T12:55:32Z</time>
      </trkpt>
      <trkpt lat="48.38538" lon="7.27197">
        <ele>960.76135</ele>
        <time>2026-05-28T12:55:36Z</time>
      </trkpt>
      <trkpt lat="48.38537" lon="7.27205">
        <ele>960.76135</ele>
        <time>2026-05-28T12:55:41Z</time>
      </trkpt>
      <trkpt lat="48.38535" lon="7.27213">
        <ele>960.76135</ele>
        <time>2026-05-28T12:55:45Z</time>
      </trkpt>
      <trkpt lat="48.38533" lon="7.2722">
        <ele>960.76135</ele>
        <time>2026-05-28T12:55:50Z</time>
      </trkpt>
      <trkpt lat="48.38532" lon="7.27227">
        <ele>960.76135</ele>
        <time>2026-05-28T12:55:55Z</time>
      </trkpt>
      <trkpt lat="48.3853" lon="7.27235">
        <ele>960.76135</ele>
        <time>2026-05-28T12:56:01Z</time>
      </trkpt>
      <trkpt lat="48.38529" lon="7.27242">
        <ele>960.76135</ele>
        <time>2026-05-28T12:56:06Z</time>
      </trkpt>
      <trkpt lat="48.38528" lon="7.27251">
        <ele>960.76135</ele>
        <time>2026-05-28T12:56:12Z</time>
      </trkpt>
      <trkpt lat="48.38527" lon="7.27258">
        <ele>960.76135</ele>
        <time>2026-05-28T12:56:16Z</time>
      </trkpt>
      <trkpt lat="48.38527" lon="7.27265">
        <ele>960.76135</ele>
        <time>2026-05-28T12:56:20Z</time>
      </trkpt>
      <trkpt lat="48.38525" lon="7.27272">
        <ele>960.76135</ele>
        <time>2026-05-28T12:56:24Z</time>
      </trkpt>
      <trkpt lat="48.38524" lon="7.27279">
        <ele>960.76135</ele>
        <time>2026-05-28T12:56:30Z</time>
      </trkpt>
      <trkpt lat="48.38523" lon="7.27286">
        <ele>960.76135</ele>
        <time>2026-05-28T12:56:34Z</time>
      </trkpt>
      <trkpt lat="48.38521" lon="7.27294">
        <ele>960.76135</ele>
        <time>2026-05-28T12:56:40Z</time>
      </trkpt>
      <trkpt lat="48.3852" lon="7.27303">
        <ele>960.76135</ele>
        <time>2026-05-28T12:56:45Z</time>
      </trkpt>
      <trkpt lat="48.38519" lon="7.2731">
        <ele>960.76135</ele>
        <time>2026-05-28T12:56:51Z</time>
      </trkpt>
      <trkpt lat="48.38517" lon="7.27318">
        <ele>960.76135</ele>
        <time>2026-05-28T12:56:55Z</time>
      </trkpt>
      <trkpt lat="48.38514" lon="7.27324">
        <ele>960.76135</ele>
        <time>2026-05-28T12:57:00Z</time>
      </trkpt>
      <trkpt lat="48.38515" lon="7.27332">
        <ele>958.551</ele>
        <time>2026-05-28T12:57:05Z</time>
      </trkpt>
      <trkpt lat="48.3851" lon="7.27338">
        <ele>956.3407</ele>
        <time>2026-05-28T12:57:09Z</time>
      </trkpt>
      <trkpt lat="48.38509" lon="7.27346">
        <ele>954.1303</ele>
        <time>2026-05-28T12:57:14Z</time>
      </trkpt>
      <trkpt lat="48.38508" lon="7.27354">
        <ele>951.92</ele>
        <time>2026-05-28T12:57:19Z</time>
      </trkpt>
      <trkpt lat="48.38504" lon="7.2736">
        <ele>949.70966</ele>
        <time>2026-05-28T12:57:27Z</time>
      </trkpt>
      <trkpt lat="48.385" lon="7.27368">
        <ele>949.70966</ele>
        <time>2026-05-28T12:57:33Z</time>
      </trkpt>
      <trkpt lat="48.38497" lon="7.27375">
        <ele>949.70966</ele>
        <time>2026-05-28T12:57:38Z</time>
      </trkpt>
      <trkpt lat="48.38493" lon="7.2738">
        <ele>949.70966</ele>
        <time>2026-05-28T12:57:43Z</time>
      </trkpt>
      <trkpt lat="48.3849" lon="7.27385">
        <ele>949.70966</ele>
        <time>2026-05-28T12:57:48Z</time>
      </trkpt>
      <trkpt lat="48.38486" lon="7.27391">
        <ele>949.70966</ele>
        <time>2026-05-28T12:57:53Z</time>
      </trkpt>
      <trkpt lat="48.38483" lon="7.27396">
        <ele>949.70966</ele>
        <time>2026-05-28T12:57:58Z</time>
      </trkpt>
      <trkpt lat="48.38479" lon="7.27399">
        <ele>949.70966</ele>
        <time>2026-05-28T12:58:02Z</time>
      </trkpt>
      <trkpt lat="48.38474" lon="7.27404">
        <ele>949.70966</ele>
        <time>2026-05-28T12:58:08Z</time>
      </trkpt>
      <trkpt lat="48.3847" lon="7.27407">
        <ele>949.70966</ele>
        <time>2026-05-28T12:58:12Z</time>
      </trkpt>
      <trkpt lat="48.38466" lon="7.27412">
        <ele>949.70966</ele>
        <time>2026-05-28T12:58:17Z</time>
      </trkpt>
      <trkpt lat="48.38462" lon="7.27416">
        <ele>949.70966</ele>
        <time>2026-05-28T12:58:20Z</time>
      </trkpt>
      <trkpt lat="48.38458" lon="7.2742">
        <ele>949.70966</ele>
        <time>2026-05-28T12:58:26Z</time>
      </trkpt>
      <trkpt lat="48.38453" lon="7.27424">
        <ele>949.70966</ele>
        <time>2026-05-28T12:58:30Z</time>
      </trkpt>
      <trkpt lat="48.38449" lon="7.27428">
        <ele>949.70966</ele>
        <time>2026-05-28T12:58:34Z</time>
      </trkpt>
      <trkpt lat="48.38445" lon="7.27432">
        <ele>949.70966</ele>
        <time>2026-05-28T12:58:40Z</time>
      </trkpt>
      <trkpt lat="48.38441" lon="7.27437">
        <ele>949.70966</ele>
        <time>2026-05-28T12:58:46Z</time>
      </trkpt>
      <trkpt lat="48.38437" lon="7.27441">
        <ele>949.70966</ele>
        <time>2026-05-28T12:58:50Z</time>
      </trkpt>
      <trkpt lat="48.38432" lon="7.27444">
        <ele>949.70966</ele>
        <time>2026-05-28T12:58:54Z</time>
      </trkpt>
      <trkpt lat="48.38427" lon="7.27449">
        <ele>949.70966</ele>
        <time>2026-05-28T12:59:00Z</time>
      </trkpt>
      <trkpt lat="48.38423" lon="7.27454">
        <ele>949.70966</ele>
        <time>2026-05-28T12:59:08Z</time>
      </trkpt>
      <trkpt lat="48.38419" lon="7.27458">
        <ele>949.70966</ele>
        <time>2026-05-28T12:59:12Z</time>
      </trkpt>
      <trkpt lat="48.38415" lon="7.27461">
        <ele>947.5233</ele>
        <time>2026-05-28T12:59:15Z</time>
      </trkpt>
      <trkpt lat="48.38411" lon="7.27467">
        <ele>945.337</ele>
        <time>2026-05-28T12:59:21Z</time>
      </trkpt>
      <trkpt lat="48.38406" lon="7.27472">
        <ele>943.15063</ele>
        <time>2026-05-28T12:59:26Z</time>
      </trkpt>
      <trkpt lat="48.38402" lon="7.27477">
        <ele>940.9643</ele>
        <time>2026-05-28T12:59:32Z</time>
      </trkpt>
      <trkpt lat="48.38399" lon="7.27482">
        <ele>938.77795</ele>
        <time>2026-05-28T12:59:37Z</time>
      </trkpt>
      <trkpt lat="48.38396" lon="7.27487">
        <ele>938.77795</ele>
        <time>2026-05-28T12:59:41Z</time>
      </trkpt>
      <trkpt lat="48.38392" lon="7.27494">
        <ele>938.77795</ele>
        <time>2026-05-28T12:59:47Z</time>
      </trkpt>
      <trkpt lat="48.38389" lon="7.27501">
        <ele>938.77795</ele>
        <time>2026-05-28T12:59:53Z</time>
      </trkpt>
      <trkpt lat="48.38386" lon="7.27507">
        <ele>938.77795</ele>
        <time>2026-05-28T12:59:59Z</time>
      </trkpt>
      <trkpt lat="48.38385" lon="7.27514">
        <ele>938.77795</ele>
        <time>2026-05-28T13:00:04Z</time>
      </trkpt>
      <trkpt lat="48.38383" lon="7.2752">
        <ele>938.77795</ele>
        <time>2026-05-28T13:00:08Z</time>
      </trkpt>
      <trkpt lat="48.38381" lon="7.27527">
        <ele>938.77795</ele>
        <time>2026-05-28T13:00:12Z</time>
      </trkpt>
      <trkpt lat="48.3838" lon="7.27534">
        <ele>938.77795</ele>
        <time>2026-05-28T13:00:17Z</time>
      </trkpt>
      <trkpt lat="48.38379" lon="7.27541">
        <ele>938.77795</ele>
        <time>2026-05-28T13:00:22Z</time>
      </trkpt>
      <trkpt lat="48.38378" lon="7.27549">
        <ele>938.77795</ele>
        <time>2026-05-28T13:00:28Z</time>
      </trkpt>
      <trkpt lat="48.38378" lon="7.27555">
        <ele>938.77795</ele>
        <time>2026-05-28T13:00:32Z</time>
      </trkpt>
      <trkpt lat="48.38378" lon="7.27564">
        <ele>938.77795</ele>
        <time>2026-05-28T13:00:37Z</time>
      </trkpt>
      <trkpt lat="48.38377" lon="7.27572">
        <ele>938.77795</ele>
        <time>2026-05-28T13:00:42Z</time>
      </trkpt>
      <trkpt lat="48.38377" lon="7.2758">
        <ele>936.68024</ele>
        <time>2026-05-28T13:00:47Z</time>
      </trkpt>
      <trkpt lat="48.38377" lon="7.27588">
        <ele>934.5825</ele>
        <time>2026-05-28T13:00:52Z</time>
      </trkpt>
      <trkpt lat="48.38377" lon="7.27597">
        <ele>932.48486</ele>
        <time>2026-05-28T13:00:58Z</time>
      </trkpt>
      <trkpt lat="48.38378" lon="7.27605">
        <ele>930.38715</ele>
        <time>2026-05-28T13:01:02Z</time>
      </trkpt>
      <trkpt lat="48.38379" lon="7.27612">
        <ele>928.2894</ele>
        <time>2026-05-28T13:01:07Z</time>
      </trkpt>
      <trkpt lat="48.38379" lon="7.27619">
        <ele>928.2894</ele>
        <time>2026-05-28T13:01:13Z</time>
      </trkpt>
      <trkpt lat="48.3838" lon="7.27626">
        <ele>928.2894</ele>
        <time>2026-05-28T13:01:18Z</time>
      </trkpt>
      <trkpt lat="48.3838" lon="7.27634">
        <ele>928.2894</ele>
        <time>2026-05-28T13:01:23Z</time>
      </trkpt>
      <trkpt lat="48.38384" lon="7.27639">
        <ele>928.2894</ele>
        <time>2026-05-28T13:01:27Z</time>
      </trkpt>
      <trkpt lat="48.38387" lon="7.27648">
        <ele>928.2894</ele>
        <time>2026-05-28T13:01:32Z</time>
      </trkpt>
      <trkpt lat="48.38386" lon="7.27655">
        <ele>928.2894</ele>
        <time>2026-05-28T13:01:35Z</time>
      </trkpt>
      <trkpt lat="48.38385" lon="7.27662">
        <ele>928.2894</ele>
        <time>2026-05-28T13:01:40Z</time>
      </trkpt>
      <trkpt lat="48.38386" lon="7.2767">
        <ele>928.2894</ele>
        <time>2026-05-28T13:01:46Z</time>
      </trkpt>
      <trkpt lat="48.38387" lon="7.27677">
        <ele>928.2894</ele>
        <time>2026-05-28T13:01:51Z</time>
      </trkpt>
      <trkpt lat="48.38388" lon="7.27685">
        <ele>928.2894</ele>
        <time>2026-05-28T13:01:55Z</time>
      </trkpt>
      <trkpt lat="48.38389" lon="7.27693">
        <ele>928.2894</ele>
        <time>2026-05-28T13:02:00Z</time>
      </trkpt>
      <trkpt lat="48.38389" lon="7.277">
        <ele>928.2894</ele>
        <time>2026-05-28T13:02:05Z</time>
      </trkpt>
      <trkpt lat="48.38389" lon="7.27708">
        <ele>928.2894</ele>
        <time>2026-05-28T13:02:10Z</time>
      </trkpt>
      <trkpt lat="48.38388" lon="7.27715">
        <ele>928.2894</ele>
        <time>2026-05-28T13:02:14Z</time>
      </trkpt>
      <trkpt lat="48.38388" lon="7.27722">
        <ele>928.2894</ele>
        <time>2026-05-28T13:02:18Z</time>
      </trkpt>
      <trkpt lat="48.38388" lon="7.2773">
        <ele>928.2894</ele>
        <time>2026-05-28T13:02:23Z</time>
      </trkpt>
      <trkpt lat="48.38388" lon="7.27737">
        <ele>928.2894</ele>
        <time>2026-05-28T13:02:28Z</time>
      </trkpt>
      <trkpt lat="48.38387" lon="7.27745">
        <ele>928.2894</ele>
        <time>2026-05-28T13:02:32Z</time>
      </trkpt>
      <trkpt lat="48.38387" lon="7.27753">
        <ele>928.2894</ele>
        <time>2026-05-28T13:02:37Z</time>
      </trkpt>
      <trkpt lat="48.38387" lon="7.2776">
        <ele>928.2894</ele>
        <time>2026-05-28T13:02:42Z</time>
      </trkpt>
      <trkpt lat="48.38387" lon="7.27767">
        <ele>928.2894</ele>
        <time>2026-05-28T13:02:46Z</time>
      </trkpt>
      <trkpt lat="48.38387" lon="7.27774">
        <ele>928.2894</ele>
        <time>2026-05-28T13:02:50Z</time>
      </trkpt>
      <trkpt lat="48.38388" lon="7.27781">
        <ele>928.2894</ele>
        <time>2026-05-28T13:02:55Z</time>
      </trkpt>
      <trkpt lat="48.38388" lon="7.27788">
        <ele>928.2894</ele>
        <time>2026-05-28T13:02:59Z</time>
      </trkpt>
      <trkpt lat="48.38388" lon="7.27796">
        <ele>928.2894</ele>
        <time>2026-05-28T13:03:07Z</time>
      </trkpt>
      <trkpt lat="48.38388" lon="7.27804">
        <ele>928.2894</ele>
        <time>2026-05-28T13:03:12Z</time>
      </trkpt>
      <trkpt lat="48.38389" lon="7.27812">
        <ele>928.2894</ele>
        <time>2026-05-28T13:03:17Z</time>
      </trkpt>
      <trkpt lat="48.38389" lon="7.27818">
        <ele>928.2894</ele>
        <time>2026-05-28T13:03:24Z</time>
      </trkpt>
      <trkpt lat="48.38387" lon="7.27825">
        <ele>928.2894</ele>
        <time>2026-05-28T13:03:31Z</time>
      </trkpt>
      <trkpt lat="48.38385" lon="7.27832">
        <ele>928.2894</ele>
        <time>2026-05-28T13:03:55Z</time>
      </trkpt>
      <trkpt lat="48.38388" lon="7.27838">
        <ele>928.2894</ele>
        <time>2026-05-28T13:04:01Z</time>
      </trkpt>
      <trkpt lat="48.38382" lon="7.27836">
        <ele>928.2894</ele>
        <time>2026-05-28T13:04:16Z</time>
      </trkpt>
      <trkpt lat="48.38386" lon="7.27842">
        <ele>928.2894</ele>
        <time>2026-05-28T13:04:21Z</time>
      </trkpt>
      <trkpt lat="48.38388" lon="7.27849">
        <ele>928.2894</ele>
        <time>2026-05-28T13:04:26Z</time>
      </trkpt>
      <trkpt lat="48.38391" lon="7.27856">
        <ele>928.2894</ele>
        <time>2026-05-28T13:04:33Z</time>
      </trkpt>
      <trkpt lat="48.3839" lon="7.27864">
        <ele>928.2894</ele>
        <time>2026-05-28T13:04:39Z</time>
      </trkpt>
      <trkpt lat="48.38392" lon="7.27871">
        <ele>928.2894</ele>
        <time>2026-05-28T13:04:46Z</time>
      </trkpt>
      <trkpt lat="48.38393" lon="7.27878">
        <ele>928.2894</ele>
        <time>2026-05-28T13:04:51Z</time>
      </trkpt>
      <trkpt lat="48.38393" lon="7.27887">
        <ele>928.2894</ele>
        <time>2026-05-28T13:04:56Z</time>
      </trkpt>
      <trkpt lat="48.38393" lon="7.27893">
        <ele>928.2894</ele>
        <time>2026-05-28T13:05:03Z</time>
      </trkpt>
      <trkpt lat="48.38395" lon="7.27902">
        <ele>928.2894</ele>
        <time>2026-05-28T13:05:09Z</time>
      </trkpt>
      <trkpt lat="48.38395" lon="7.27909">
        <ele>928.2894</ele>
        <time>2026-05-28T13:05:14Z</time>
      </trkpt>
      <trkpt lat="48.38395" lon="7.27917">
        <ele>928.2894</ele>
        <time>2026-05-28T13:05:20Z</time>
      </trkpt>
      <trkpt lat="48.38395" lon="7.27925">
        <ele>928.2894</ele>
        <time>2026-05-28T13:05:26Z</time>
      </trkpt>
      <trkpt lat="48.38395" lon="7.27932">
        <ele>928.2894</ele>
        <time>2026-05-28T13:05:32Z</time>
      </trkpt>
      <trkpt lat="48.38395" lon="7.2794">
        <ele>928.2894</ele>
        <time>2026-05-28T13:05:39Z</time>
      </trkpt>
      <trkpt lat="48.38394" lon="7.27947">
        <ele>928.2894</ele>
        <time>2026-05-28T13:05:45Z</time>
      </trkpt>
      <trkpt lat="48.38392" lon="7.27954">
        <ele>928.2894</ele>
        <time>2026-05-28T13:05:51Z</time>
      </trkpt>
      <trkpt lat="48.38392" lon="7.27961">
        <ele>928.2894</ele>
        <time>2026-05-28T13:05:57Z</time>
      </trkpt>
      <trkpt lat="48.38389" lon="7.27967">
        <ele>928.2894</ele>
        <time>2026-05-28T13:06:04Z</time>
      </trkpt>
      <trkpt lat="48.38385" lon="7.27974">
        <ele>928.2894</ele>
        <time>2026-05-28T13:06:09Z</time>
      </trkpt>
      <trkpt lat="48.38382" lon="7.27979">
        <ele>928.2894</ele>
        <time>2026-05-28T13:06:15Z</time>
      </trkpt>
      <trkpt lat="48.38378" lon="7.27984">
        <ele>928.2894</ele>
        <time>2026-05-28T13:06:19Z</time>
      </trkpt>
      <trkpt lat="48.38374" lon="7.27988">
        <ele>928.2894</ele>
        <time>2026-05-28T13:06:23Z</time>
      </trkpt>
      <trkpt lat="48.38371" lon="7.27993">
        <ele>928.2894</ele>
        <time>2026-05-28T13:06:28Z</time>
      </trkpt>
      <trkpt lat="48.38368" lon="7.27998">
        <ele>928.2894</ele>
        <time>2026-05-28T13:06:32Z</time>
      </trkpt>
      <trkpt lat="48.38364" lon="7.28002">
        <ele>930.3792</ele>
        <time>2026-05-28T13:06:36Z</time>
      </trkpt>
      <trkpt lat="48.3836" lon="7.28007">
        <ele>932.469</ele>
        <time>2026-05-28T13:06:42Z</time>
      </trkpt>
      <trkpt lat="48.38356" lon="7.28011">
        <ele>934.5588</ele>
        <time>2026-05-28T13:06:47Z</time>
      </trkpt>
      <trkpt lat="48.38352" lon="7.28016">
        <ele>936.64856</ele>
        <time>2026-05-28T13:06:50Z</time>
      </trkpt>
      <trkpt lat="48.38349" lon="7.28021">
        <ele>938.73834</ele>
        <time>2026-05-28T13:06:57Z</time>
      </trkpt>
      <trkpt lat="48.38345" lon="7.28027">
        <ele>938.73834</ele>
        <time>2026-05-28T13:07:02Z</time>
      </trkpt>
      <trkpt lat="48.38341" lon="7.28032">
        <ele>938.73834</ele>
        <time>2026-05-28T13:07:08Z</time>
      </trkpt>
      <trkpt lat="48.38337" lon="7.28036">
        <ele>938.73834</ele>
        <time>2026-05-28T13:07:17Z</time>
      </trkpt>
      <trkpt lat="48.38332" lon="7.28042">
        <ele>938.73834</ele>
        <time>2026-05-28T13:07:31Z</time>
      </trkpt>
      <trkpt lat="48.38336" lon="7.28047">
        <ele>938.73834</ele>
        <time>2026-05-28T13:08:44Z</time>
      </trkpt>
      <trkpt lat="48.38337" lon="7.28055">
        <ele>938.73834</ele>
        <time>2026-05-28T13:08:51Z</time>
      </trkpt>
      <trkpt lat="48.38339" lon="7.28061">
        <ele>938.73834</ele>
        <time>2026-05-28T13:08:56Z</time>
      </trkpt>
      <trkpt lat="48.38342" lon="7.28067">
        <ele>938.73834</ele>
        <time>2026-05-28T13:09:05Z</time>
      </trkpt>
      <trkpt lat="48.38342" lon="7.28074">
        <ele>938.73834</ele>
        <time>2026-05-28T13:09:16Z</time>
      </trkpt>
      <trkpt lat="48.38347" lon="7.2808">
        <ele>940.816</ele>
        <time>2026-05-28T13:09:21Z</time>
      </trkpt>
      <trkpt lat="48.38351" lon="7.28082">
        <ele>942.8936</ele>
        <time>2026-05-28T13:09:24Z</time>
      </trkpt>
      <trkpt lat="48.38351" lon="7.28089">
        <ele>944.9713</ele>
        <time>2026-05-28T13:09:30Z</time>
      </trkpt>
      <trkpt lat="48.38351" lon="7.28097">
        <ele>947.04895</ele>
        <time>2026-05-28T13:09:35Z</time>
      </trkpt>
      <trkpt lat="48.38355" lon="7.28103">
        <ele>949.1266</ele>
        <time>2026-05-28T13:09:40Z</time>
      </trkpt>
      <trkpt lat="48.3836" lon="7.28107">
        <ele>949.1266</ele>
        <time>2026-05-28T13:09:46Z</time>
      </trkpt>
      <trkpt lat="48.38364" lon="7.28111">
        <ele>949.1266</ele>
        <time>2026-05-28T13:09:52Z</time>
      </trkpt>
      <trkpt lat="48.38366" lon="7.28119">
        <ele>949.1266</ele>
        <time>2026-05-28T13:09:58Z</time>
      </trkpt>
      <trkpt lat="48.38361" lon="7.2812">
        <ele>949.1266</ele>
        <time>2026-05-28T13:10:03Z</time>
      </trkpt>
      <trkpt lat="48.38362" lon="7.28127">
        <ele>949.1266</ele>
        <time>2026-05-28T13:10:14Z</time>
      </trkpt>
      <trkpt lat="48.38365" lon="7.28135">
        <ele>949.1266</ele>
        <time>2026-05-28T13:10:20Z</time>
      </trkpt>
      <trkpt lat="48.38368" lon="7.28141">
        <ele>949.1266</ele>
        <time>2026-05-28T13:10:25Z</time>
      </trkpt>
      <trkpt lat="48.38371" lon="7.28146">
        <ele>949.1266</ele>
        <time>2026-05-28T13:10:29Z</time>
      </trkpt>
      <trkpt lat="48.38372" lon="7.28152">
        <ele>949.1266</ele>
        <time>2026-05-28T13:10:35Z</time>
      </trkpt>
      <trkpt lat="48.38371" lon="7.2816">
        <ele>949.1266</ele>
        <time>2026-05-28T13:10:39Z</time>
      </trkpt>
      <trkpt lat="48.3837" lon="7.28167">
        <ele>949.1266</ele>
        <time>2026-05-28T13:10:45Z</time>
      </trkpt>
      <trkpt lat="48.38371" lon="7.28174">
        <ele>949.1266</ele>
        <time>2026-05-28T13:10:49Z</time>
      </trkpt>
      <trkpt lat="48.38371" lon="7.28181">
        <ele>949.1266</ele>
        <time>2026-05-28T13:10:53Z</time>
      </trkpt>
      <trkpt lat="48.38368" lon="7.28189">
        <ele>949.1266</ele>
        <time>2026-05-28T13:10:58Z</time>
      </trkpt>
      <trkpt lat="48.38369" lon="7.28197">
        <ele>949.1266</ele>
        <time>2026-05-28T13:11:01Z</time>
      </trkpt>
      <trkpt lat="48.38369" lon="7.28205">
        <ele>949.1266</ele>
        <time>2026-05-28T13:11:07Z</time>
      </trkpt>
      <trkpt lat="48.3837" lon="7.28214">
        <ele>949.1266</ele>
        <time>2026-05-28T13:11:12Z</time>
      </trkpt>
      <trkpt lat="48.38371" lon="7.2822">
        <ele>949.1266</ele>
        <time>2026-05-28T13:11:16Z</time>
      </trkpt>
      <trkpt lat="48.38371" lon="7.28228">
        <ele>949.1266</ele>
        <time>2026-05-28T13:11:20Z</time>
      </trkpt>
      <trkpt lat="48.38372" lon="7.28235">
        <ele>949.1266</ele>
        <time>2026-05-28T13:11:26Z</time>
      </trkpt>
      <trkpt lat="48.38377" lon="7.28238">
        <ele>949.1266</ele>
        <time>2026-05-28T13:18:51Z</time>
      </trkpt>
      <trkpt lat="48.38372" lon="7.28238">
        <ele>949.1266</ele>
        <time>2026-05-28T13:19:25Z</time>
      </trkpt>
      <trkpt lat="48.38369" lon="7.28232">
        <ele>949.1266</ele>
        <time>2026-05-28T13:20:37Z</time>
      </trkpt>
      <trkpt lat="48.3837" lon="7.28225">
        <ele>949.1266</ele>
        <time>2026-05-28T13:21:22Z</time>
      </trkpt>
      <trkpt lat="48.38369" lon="7.28219">
        <ele>949.1266</ele>
        <time>2026-05-28T13:21:28Z</time>
      </trkpt>
      <trkpt lat="48.38368" lon="7.28212">
        <ele>949.1266</ele>
        <time>2026-05-28T13:21:35Z</time>
      </trkpt>
      <trkpt lat="48.38369" lon="7.28204">
        <ele>949.1266</ele>
        <time>2026-05-28T13:21:47Z</time>
      </trkpt>
      <trkpt lat="48.3837" lon="7.28197">
        <ele>949.1266</ele>
        <time>2026-05-28T13:21:53Z</time>
      </trkpt>
      <trkpt lat="48.38371" lon="7.2819">
        <ele>949.1266</ele>
        <time>2026-05-28T13:21:58Z</time>
      </trkpt>
      <trkpt lat="48.38371" lon="7.28182">
        <ele>949.1266</ele>
        <time>2026-05-28T13:22:05Z</time>
      </trkpt>
      <trkpt lat="48.38374" lon="7.28176">
        <ele>949.1266</ele>
        <time>2026-05-28T13:22:11Z</time>
      </trkpt>
      <trkpt lat="48.38371" lon="7.2817">
        <ele>949.1266</ele>
        <time>2026-05-28T13:22:34Z</time>
      </trkpt>
      <trkpt lat="48.38372" lon="7.28176">
        <ele>949.1266</ele>
        <time>2026-05-28T13:22:38Z</time>
      </trkpt>
      <trkpt lat="48.38372" lon="7.28167">
        <ele>949.1266</ele>
        <time>2026-05-28T13:22:45Z</time>
      </trkpt>
      <trkpt lat="48.38371" lon="7.28159">
        <ele>949.1266</ele>
        <time>2026-05-28T13:22:49Z</time>
      </trkpt>
      <trkpt lat="48.38373" lon="7.28153">
        <ele>949.1266</ele>
        <time>2026-05-28T13:22:55Z</time>
      </trkpt>
      <trkpt lat="48.38371" lon="7.28143">
        <ele>949.1266</ele>
        <time>2026-05-28T13:23:01Z</time>
      </trkpt>
      <trkpt lat="48.38367" lon="7.2814">
        <ele>949.1266</ele>
        <time>2026-05-28T13:23:06Z</time>
      </trkpt>
      <trkpt lat="48.38365" lon="7.28134">
        <ele>949.1266</ele>
        <time>2026-05-28T13:23:10Z</time>
      </trkpt>
      <trkpt lat="48.38366" lon="7.28125">
        <ele>949.1266</ele>
        <time>2026-05-28T13:23:18Z</time>
      </trkpt>
      <trkpt lat="48.38363" lon="7.28119">
        <ele>949.1266</ele>
        <time>2026-05-28T13:23:23Z</time>
      </trkpt>
      <trkpt lat="48.3836" lon="7.28112">
        <ele>949.1266</ele>
        <time>2026-05-28T13:23:30Z</time>
      </trkpt>
      <trkpt lat="48.38358" lon="7.28106">
        <ele>949.1266</ele>
        <time>2026-05-28T13:23:36Z</time>
      </trkpt>
      <trkpt lat="48.38354" lon="7.28101">
        <ele>949.1266</ele>
        <time>2026-05-28T13:23:43Z</time>
      </trkpt>
      <trkpt lat="48.38353" lon="7.28093">
        <ele>949.1266</ele>
        <time>2026-05-28T13:23:49Z</time>
      </trkpt>
      <trkpt lat="48.38352" lon="7.28087">
        <ele>949.1266</ele>
        <time>2026-05-28T13:23:53Z</time>
      </trkpt>
      <trkpt lat="48.38351" lon="7.28079">
        <ele>949.1266</ele>
        <time>2026-05-28T13:23:57Z</time>
      </trkpt>
      <trkpt lat="48.38348" lon="7.28073">
        <ele>949.1266</ele>
        <time>2026-05-28T13:24:03Z</time>
      </trkpt>
      <trkpt lat="48.38344" lon="7.28067">
        <ele>949.1266</ele>
        <time>2026-05-28T13:24:09Z</time>
      </trkpt>
      <trkpt lat="48.3834" lon="7.28062">
        <ele>949.1266</ele>
        <time>2026-05-28T13:24:15Z</time>
      </trkpt>
      <trkpt lat="48.38336" lon="7.28065">
        <ele>949.1266</ele>
        <time>2026-05-28T13:24:18Z</time>
      </trkpt>
      <trkpt lat="48.38334" lon="7.28058">
        <ele>949.1266</ele>
        <time>2026-05-28T13:25:49Z</time>
      </trkpt>
      <trkpt lat="48.38336" lon="7.28051">
        <ele>949.1266</ele>
        <time>2026-05-28T13:26:18Z</time>
      </trkpt>
      <trkpt lat="48.38333" lon="7.28045">
        <ele>949.1266</ele>
        <time>2026-05-28T13:26:29Z</time>
      </trkpt>
      <trkpt lat="48.38329" lon="7.28049">
        <ele>949.1266</ele>
        <time>2026-05-28T13:26:33Z</time>
      </trkpt>
      <trkpt lat="48.38329" lon="7.28056">
        <ele>949.1266</ele>
        <time>2026-05-28T13:26:37Z</time>
      </trkpt>
      <trkpt lat="48.38324" lon="7.28057">
        <ele>949.1266</ele>
        <time>2026-05-28T13:26:43Z</time>
      </trkpt>
      <trkpt lat="48.38321" lon="7.28062">
        <ele>949.1266</ele>
        <time>2026-05-28T13:26:57Z</time>
      </trkpt>
      <trkpt lat="48.38318" lon="7.28069">
        <ele>949.1266</ele>
        <time>2026-05-28T13:27:06Z</time>
      </trkpt>
      <trkpt lat="48.38316" lon="7.28076">
        <ele>949.1266</ele>
        <time>2026-05-28T13:27:12Z</time>
      </trkpt>
      <trkpt lat="48.38316" lon="7.28083">
        <ele>949.1266</ele>
        <time>2026-05-28T13:27:17Z</time>
      </trkpt>
      <trkpt lat="48.38313" lon="7.2809">
        <ele>949.1266</ele>
        <time>2026-05-28T13:27:22Z</time>
      </trkpt>
      <trkpt lat="48.38313" lon="7.28098">
        <ele>949.1266</ele>
        <time>2026-05-28T13:27:27Z</time>
      </trkpt>
      <trkpt lat="48.38312" lon="7.28105">
        <ele>949.1266</ele>
        <time>2026-05-28T13:27:31Z</time>
      </trkpt>
      <trkpt lat="48.38312" lon="7.28112">
        <ele>949.1266</ele>
        <time>2026-05-28T13:27:35Z</time>
      </trkpt>
      <trkpt lat="48.38312" lon="7.28119">
        <ele>949.1266</ele>
        <time>2026-05-28T13:27:39Z</time>
      </trkpt>
      <trkpt lat="48.38312" lon="7.28127">
        <ele>947.04736</ele>
        <time>2026-05-28T13:27:44Z</time>
      </trkpt>
      <trkpt lat="48.38312" lon="7.28135">
        <ele>944.9681</ele>
        <time>2026-05-28T13:27:49Z</time>
      </trkpt>
      <trkpt lat="48.38311" lon="7.28142">
        <ele>942.88885</ele>
        <time>2026-05-28T13:27:55Z</time>
      </trkpt>
      <trkpt lat="48.38311" lon="7.2815">
        <ele>940.8096</ele>
        <time>2026-05-28T13:27:59Z</time>
      </trkpt>
      <trkpt lat="48.3831" lon="7.28157">
        <ele>938.73035</ele>
        <time>2026-05-28T13:28:04Z</time>
      </trkpt>
      <trkpt lat="48.38308" lon="7.28163">
        <ele>938.73035</ele>
        <time>2026-05-28T13:28:08Z</time>
      </trkpt>
      <trkpt lat="48.38307" lon="7.28171">
        <ele>938.73035</ele>
        <time>2026-05-28T13:28:13Z</time>
      </trkpt>
      <trkpt lat="48.38309" lon="7.2818">
        <ele>938.73035</ele>
        <time>2026-05-28T13:28:17Z</time>
      </trkpt>
      <trkpt lat="48.38308" lon="7.28188">
        <ele>938.73035</ele>
        <time>2026-05-28T13:28:22Z</time>
      </trkpt>
      <trkpt lat="48.38311" lon="7.28195">
        <ele>938.73035</ele>
        <time>2026-05-28T13:28:26Z</time>
      </trkpt>
      <trkpt lat="48.3831" lon="7.28203">
        <ele>938.73035</ele>
        <time>2026-05-28T13:28:31Z</time>
      </trkpt>
      <trkpt lat="48.3831" lon="7.2821">
        <ele>938.73035</ele>
        <time>2026-05-28T13:28:35Z</time>
      </trkpt>
      <trkpt lat="48.3831" lon="7.28217">
        <ele>938.73035</ele>
        <time>2026-05-28T13:28:39Z</time>
      </trkpt>
      <trkpt lat="48.3831" lon="7.28225">
        <ele>938.73035</ele>
        <time>2026-05-28T13:28:43Z</time>
      </trkpt>
      <trkpt lat="48.38311" lon="7.28232">
        <ele>938.73035</ele>
        <time>2026-05-28T13:28:49Z</time>
      </trkpt>
      <trkpt lat="48.38311" lon="7.2824">
        <ele>936.5239</ele>
        <time>2026-05-28T13:28:54Z</time>
      </trkpt>
      <trkpt lat="48.38312" lon="7.28247">
        <ele>934.31757</ele>
        <time>2026-05-28T13:28:58Z</time>
      </trkpt>
      <trkpt lat="48.38313" lon="7.28255">
        <ele>932.11115</ele>
        <time>2026-05-28T13:29:03Z</time>
      </trkpt>
      <trkpt lat="48.38311" lon="7.28262">
        <ele>929.9048</ele>
        <time>2026-05-28T13:30:01Z</time>
      </trkpt>
      <trkpt lat="48.38315" lon="7.28263">
        <ele>927.69836</ele>
        <time>2026-05-28T13:31:49Z</time>
      </trkpt>
      <trkpt lat="48.38313" lon="7.28258">
        <ele>927.69836</ele>
        <time>2026-05-28T13:32:03Z</time>
      </trkpt>
      <trkpt lat="48.38311" lon="7.2825">
        <ele>927.69836</ele>
        <time>2026-05-28T13:32:23Z</time>
      </trkpt>
      <trkpt lat="48.38311" lon="7.28243">
        <ele>927.69836</ele>
        <time>2026-05-28T13:32:43Z</time>
      </trkpt>
      <trkpt lat="48.3831" lon="7.28236">
        <ele>927.69836</ele>
        <time>2026-05-28T13:32:49Z</time>
      </trkpt>
      <trkpt lat="48.38309" lon="7.28228">
        <ele>927.69836</ele>
        <time>2026-05-28T13:32:55Z</time>
      </trkpt>
      <trkpt lat="48.38308" lon="7.28221">
        <ele>927.69836</ele>
        <time>2026-05-28T13:33:00Z</time>
      </trkpt>
      <trkpt lat="48.38308" lon="7.28213">
        <ele>927.69836</ele>
        <time>2026-05-28T13:33:07Z</time>
      </trkpt>
      <trkpt lat="48.38306" lon="7.28205">
        <ele>927.69836</ele>
        <time>2026-05-28T13:33:13Z</time>
      </trkpt>
      <trkpt lat="48.38306" lon="7.28199">
        <ele>927.69836</ele>
        <time>2026-05-28T13:33:18Z</time>
      </trkpt>
      <trkpt lat="48.38307" lon="7.28192">
        <ele>927.69836</ele>
        <time>2026-05-28T13:33:22Z</time>
      </trkpt>
      <trkpt lat="48.38305" lon="7.28185">
        <ele>927.69836</ele>
        <time>2026-05-28T13:33:27Z</time>
      </trkpt>
      <trkpt lat="48.38306" lon="7.28177">
        <ele>927.69836</ele>
        <time>2026-05-28T13:33:32Z</time>
      </trkpt>
      <trkpt lat="48.38306" lon="7.28169">
        <ele>927.69836</ele>
        <time>2026-05-28T13:33:37Z</time>
      </trkpt>
      <trkpt lat="48.38307" lon="7.28161">
        <ele>929.79315</ele>
        <time>2026-05-28T13:33:42Z</time>
      </trkpt>
      <trkpt lat="48.38308" lon="7.28154">
        <ele>931.888</ele>
        <time>2026-05-28T13:33:47Z</time>
      </trkpt>
      <trkpt lat="48.38309" lon="7.28146">
        <ele>933.9828</ele>
        <time>2026-05-28T13:33:52Z</time>
      </trkpt>
      <trkpt lat="48.3831" lon="7.2814">
        <ele>936.07764</ele>
        <time>2026-05-28T13:33:57Z</time>
      </trkpt>
      <trkpt lat="48.3831" lon="7.28132">
        <ele>938.1724</ele>
        <time>2026-05-28T13:34:01Z</time>
      </trkpt>
      <trkpt lat="48.38311" lon="7.28125">
        <ele>938.1724</ele>
        <time>2026-05-28T13:34:06Z</time>
      </trkpt>
      <trkpt lat="48.38311" lon="7.28118">
        <ele>938.1724</ele>
        <time>2026-05-28T13:34:11Z</time>
      </trkpt>
      <trkpt lat="48.38311" lon="7.28111">
        <ele>938.1724</ele>
        <time>2026-05-28T13:34:16Z</time>
      </trkpt>
      <trkpt lat="48.38311" lon="7.28104">
        <ele>938.1724</ele>
        <time>2026-05-28T13:34:20Z</time>
      </trkpt>
      <trkpt lat="48.38313" lon="7.28095">
        <ele>938.1724</ele>
        <time>2026-05-28T13:34:25Z</time>
      </trkpt>
      <trkpt lat="48.38313" lon="7.28087">
        <ele>938.1724</ele>
        <time>2026-05-28T13:34:30Z</time>
      </trkpt>
      <trkpt lat="48.38314" lon="7.28081">
        <ele>938.1724</ele>
        <time>2026-05-28T13:34:34Z</time>
      </trkpt>
      <trkpt lat="48.38315" lon="7.28072">
        <ele>938.1724</ele>
        <time>2026-05-28T13:34:38Z</time>
      </trkpt>
      <trkpt lat="48.38317" lon="7.28065">
        <ele>938.1724</ele>
        <time>2026-05-28T13:34:44Z</time>
      </trkpt>
      <trkpt lat="48.3832" lon="7.28058">
        <ele>938.1724</ele>
        <time>2026-05-28T13:34:49Z</time>
      </trkpt>
      <trkpt lat="48.38323" lon="7.28053">
        <ele>938.1724</ele>
        <time>2026-05-28T13:34:58Z</time>
      </trkpt>
      <trkpt lat="48.38325" lon="7.2806">
        <ele>938.1724</ele>
        <time>2026-05-28T13:39:34Z</time>
      </trkpt>
      <trkpt lat="48.38322" lon="7.28055">
        <ele>938.1724</ele>
        <time>2026-05-28T13:41:06Z</time>
      </trkpt>
      <trkpt lat="48.38326" lon="7.28051">
        <ele>938.1724</ele>
        <time>2026-05-28T13:42:17Z</time>
      </trkpt>
      <trkpt lat="48.38329" lon="7.28046">
        <ele>938.1724</ele>
        <time>2026-05-28T13:42:52Z</time>
      </trkpt>
      <trkpt lat="48.38333" lon="7.28042">
        <ele>938.1724</ele>
        <time>2026-05-28T13:43:06Z</time>
      </trkpt>
      <trkpt lat="48.38337" lon="7.28038">
        <ele>938.1724</ele>
        <time>2026-05-28T13:43:11Z</time>
      </trkpt>
      <trkpt lat="48.38341" lon="7.28034">
        <ele>938.1724</ele>
        <time>2026-05-28T13:43:18Z</time>
      </trkpt>
      <trkpt lat="48.38344" lon="7.28029">
        <ele>938.1724</ele>
        <time>2026-05-28T13:43:27Z</time>
      </trkpt>
      <trkpt lat="48.38348" lon="7.28025">
        <ele>938.1724</ele>
        <time>2026-05-28T13:43:47Z</time>
      </trkpt>
      <trkpt lat="48.38353" lon="7.28021">
        <ele>938.1724</ele>
        <time>2026-05-28T13:43:53Z</time>
      </trkpt>
      <trkpt lat="48.38356" lon="7.28017">
        <ele>938.1724</ele>
        <time>2026-05-28T13:43:59Z</time>
      </trkpt>
      <trkpt lat="48.38361" lon="7.28014">
        <ele>938.1724</ele>
        <time>2026-05-28T13:44:04Z</time>
      </trkpt>
      <trkpt lat="48.38365" lon="7.28011">
        <ele>938.1724</ele>
        <time>2026-05-28T13:44:09Z</time>
      </trkpt>
      <trkpt lat="48.38369" lon="7.28007">
        <ele>938.1724</ele>
        <time>2026-05-28T13:44:13Z</time>
      </trkpt>
      <trkpt lat="48.38374" lon="7.28005">
        <ele>938.1724</ele>
        <time>2026-05-28T13:44:18Z</time>
      </trkpt>
      <trkpt lat="48.38379" lon="7.28005">
        <ele>938.1724</ele>
        <time>2026-05-28T13:44:22Z</time>
      </trkpt>
      <trkpt lat="48.38384" lon="7.28003">
        <ele>938.1724</ele>
        <time>2026-05-28T13:44:26Z</time>
      </trkpt>
      <trkpt lat="48.38389" lon="7.28">
        <ele>938.1724</ele>
        <time>2026-05-28T13:44:31Z</time>
      </trkpt>
      <trkpt lat="48.38393" lon="7.27998">
        <ele>938.1724</ele>
        <time>2026-05-28T13:44:35Z</time>
      </trkpt>
      <trkpt lat="48.38399" lon="7.27996">
        <ele>938.1724</ele>
        <time>2026-05-28T13:44:41Z</time>
      </trkpt>
      <trkpt lat="48.38404" lon="7.27995">
        <ele>938.1724</ele>
        <time>2026-05-28T13:44:46Z</time>
      </trkpt>
      <trkpt lat="48.38408" lon="7.27994">
        <ele>938.1724</ele>
        <time>2026-05-28T13:44:49Z</time>
      </trkpt>
      <trkpt lat="48.38413" lon="7.27993">
        <ele>938.1724</ele>
        <time>2026-05-28T13:44:55Z</time>
      </trkpt>
      <trkpt lat="48.38418" lon="7.27994">
        <ele>938.1724</ele>
        <time>2026-05-28T13:44:59Z</time>
      </trkpt>
      <trkpt lat="48.38423" lon="7.27993">
        <ele>938.1724</ele>
        <time>2026-05-28T13:45:05Z</time>
      </trkpt>
      <trkpt lat="48.38428" lon="7.27991">
        <ele>938.1724</ele>
        <time>2026-05-28T13:45:09Z</time>
      </trkpt>
      <trkpt lat="48.38434" lon="7.27989">
        <ele>938.1724</ele>
        <time>2026-05-28T13:45:15Z</time>
      </trkpt>
      <trkpt lat="48.38437" lon="7.27993">
        <ele>938.1724</ele>
        <time>2026-05-28T13:45:35Z</time>
      </trkpt>
      <trkpt lat="48.38442" lon="7.27992">
        <ele>938.1724</ele>
        <time>2026-05-28T13:45:39Z</time>
      </trkpt>
      <trkpt lat="48.38447" lon="7.27993">
        <ele>938.1724</ele>
        <time>2026-05-28T13:45:44Z</time>
      </trkpt>
      <trkpt lat="48.38452" lon="7.27994">
        <ele>938.1724</ele>
        <time>2026-05-28T13:45:49Z</time>
      </trkpt>
      <trkpt lat="48.38457" lon="7.27996">
        <ele>938.1724</ele>
        <time>2026-05-28T13:45:59Z</time>
      </trkpt>
      <trkpt lat="48.38459" lon="7.2799">
        <ele>938.1724</ele>
        <time>2026-05-28T13:46:28Z</time>
      </trkpt>
      <trkpt lat="48.38459" lon="7.27983">
        <ele>938.1724</ele>
        <time>2026-05-28T13:46:33Z</time>
      </trkpt>
      <trkpt lat="48.38464" lon="7.2798">
        <ele>938.1724</ele>
        <time>2026-05-28T13:46:40Z</time>
      </trkpt>
      <trkpt lat="48.38469" lon="7.27981">
        <ele>938.1724</ele>
        <time>2026-05-28T13:46:45Z</time>
      </trkpt>
      <trkpt lat="48.38474" lon="7.27984">
        <ele>938.1724</ele>
        <time>2026-05-28T13:46:50Z</time>
      </trkpt>
      <trkpt lat="48.38479" lon="7.27986">
        <ele>938.1724</ele>
        <time>2026-05-28T13:46:55Z</time>
      </trkpt>
      <trkpt lat="48.38484" lon="7.27988">
        <ele>938.1724</ele>
        <time>2026-05-28T13:47:00Z</time>
      </trkpt>
      <trkpt lat="48.38489" lon="7.27991">
        <ele>938.1724</ele>
        <time>2026-05-28T13:47:06Z</time>
      </trkpt>
      <trkpt lat="48.38493" lon="7.27992">
        <ele>938.1724</ele>
        <time>2026-05-28T13:47:11Z</time>
      </trkpt>
      <trkpt lat="48.38498" lon="7.27994">
        <ele>938.1724</ele>
        <time>2026-05-28T13:47:17Z</time>
      </trkpt>
      <trkpt lat="48.38503" lon="7.27996">
        <ele>938.1724</ele>
        <time>2026-05-28T13:47:21Z</time>
      </trkpt>
      <trkpt lat="48.38508" lon="7.27999">
        <ele>938.1724</ele>
        <time>2026-05-28T13:47:25Z</time>
      </trkpt>
      <trkpt lat="48.38512" lon="7.28002">
        <ele>938.1724</ele>
        <time>2026-05-28T13:47:30Z</time>
      </trkpt>
      <trkpt lat="48.38517" lon="7.28004">
        <ele>938.1724</ele>
        <time>2026-05-28T13:47:35Z</time>
      </trkpt>
      <trkpt lat="48.38522" lon="7.28007">
        <ele>938.1724</ele>
        <time>2026-05-28T13:47:40Z</time>
      </trkpt>
      <trkpt lat="48.38526" lon="7.28009">
        <ele>938.1724</ele>
        <time>2026-05-28T13:47:45Z</time>
      </trkpt>
      <trkpt lat="48.3853" lon="7.28013">
        <ele>938.1724</ele>
        <time>2026-05-28T13:47:49Z</time>
      </trkpt>
      <trkpt lat="48.38534" lon="7.28016">
        <ele>938.1724</ele>
        <time>2026-05-28T13:47:54Z</time>
      </trkpt>
      <trkpt lat="48.38539" lon="7.28018">
        <ele>938.1724</ele>
        <time>2026-05-28T13:48:01Z</time>
      </trkpt>
      <trkpt lat="48.38543" lon="7.28022">
        <ele>938.1724</ele>
        <time>2026-05-28T13:48:07Z</time>
      </trkpt>
      <trkpt lat="48.38548" lon="7.28025">
        <ele>938.1724</ele>
        <time>2026-05-28T13:48:12Z</time>
      </trkpt>
      <trkpt lat="48.38553" lon="7.28028">
        <ele>938.1724</ele>
        <time>2026-05-28T13:48:17Z</time>
      </trkpt>
      <trkpt lat="48.38557" lon="7.2803">
        <ele>938.1724</ele>
        <time>2026-05-28T13:48:22Z</time>
      </trkpt>
      <trkpt lat="48.38561" lon="7.28033">
        <ele>938.1724</ele>
        <time>2026-05-28T13:48:28Z</time>
      </trkpt>
      <trkpt lat="48.38565" lon="7.28036">
        <ele>938.1724</ele>
        <time>2026-05-28T13:48:35Z</time>
      </trkpt>
      <trkpt lat="48.38571" lon="7.28037">
        <ele>938.1724</ele>
        <time>2026-05-28T13:48:41Z</time>
      </trkpt>
      <trkpt lat="48.38577" lon="7.28035">
        <ele>938.1724</ele>
        <time>2026-05-28T13:48:48Z</time>
      </trkpt>
      <trkpt lat="48.38582" lon="7.28031">
        <ele>938.1724</ele>
        <time>2026-05-28T13:48:54Z</time>
      </trkpt>
      <trkpt lat="48.38585" lon="7.28026">
        <ele>938.1724</ele>
        <time>2026-05-28T13:49:00Z</time>
      </trkpt>
      <trkpt lat="48.3859" lon="7.28022">
        <ele>938.1724</ele>
        <time>2026-05-28T13:49:05Z</time>
      </trkpt>
      <trkpt lat="48.38593" lon="7.28017">
        <ele>935.85455</ele>
        <time>2026-05-28T13:49:11Z</time>
      </trkpt>
      <trkpt lat="48.38596" lon="7.28012">
        <ele>933.5367</ele>
        <time>2026-05-28T13:49:16Z</time>
      </trkpt>
      <trkpt lat="48.386" lon="7.28007">
        <ele>931.2188</ele>
        <time>2026-05-28T13:49:21Z</time>
      </trkpt>
      <trkpt lat="48.38603" lon="7.28002">
        <ele>928.90094</ele>
        <time>2026-05-28T13:49:25Z</time>
      </trkpt>
      <trkpt lat="48.38607" lon="7.27997">
        <ele>926.58307</ele>
        <time>2026-05-28T13:49:30Z</time>
      </trkpt>
      <trkpt lat="48.38611" lon="7.27992">
        <ele>926.58307</ele>
        <time>2026-05-28T13:49:35Z</time>
      </trkpt>
      <trkpt lat="48.38615" lon="7.27986">
        <ele>926.58307</ele>
        <time>2026-05-28T13:49:40Z</time>
      </trkpt>
      <trkpt lat="48.38619" lon="7.27981">
        <ele>926.58307</ele>
        <time>2026-05-28T13:49:45Z</time>
      </trkpt>
      <trkpt lat="48.38623" lon="7.27977">
        <ele>926.58307</ele>
        <time>2026-05-28T13:49:49Z</time>
      </trkpt>
      <trkpt lat="48.38627" lon="7.2797">
        <ele>926.58307</ele>
        <time>2026-05-28T13:49:54Z</time>
      </trkpt>
      <trkpt lat="48.3863" lon="7.27965">
        <ele>926.58307</ele>
        <time>2026-05-28T13:49:59Z</time>
      </trkpt>
      <trkpt lat="48.38634" lon="7.2796">
        <ele>926.58307</ele>
        <time>2026-05-28T13:50:04Z</time>
      </trkpt>
      <trkpt lat="48.38637" lon="7.27955">
        <ele>926.58307</ele>
        <time>2026-05-28T13:50:38Z</time>
      </trkpt>
      <trkpt lat="48.38636" lon="7.27947">
        <ele>926.58307</ele>
        <time>2026-05-28T13:51:01Z</time>
      </trkpt>
      <trkpt lat="48.38633" lon="7.27941">
        <ele>926.58307</ele>
        <time>2026-05-28T13:51:07Z</time>
      </trkpt>
      <trkpt lat="48.38629" lon="7.27935">
        <ele>926.58307</ele>
        <time>2026-05-28T13:51:12Z</time>
      </trkpt>
      <trkpt lat="48.38625" lon="7.27929">
        <ele>926.58307</ele>
        <time>2026-05-28T13:51:17Z</time>
      </trkpt>
      <trkpt lat="48.38623" lon="7.27923">
        <ele>926.58307</ele>
        <time>2026-05-28T13:51:22Z</time>
      </trkpt>
      <trkpt lat="48.38622" lon="7.27916">
        <ele>926.58307</ele>
        <time>2026-05-28T13:51:27Z</time>
      </trkpt>
      <trkpt lat="48.38622" lon="7.27908">
        <ele>926.58307</ele>
        <time>2026-05-28T13:51:32Z</time>
      </trkpt>
      <trkpt lat="48.38622" lon="7.27901">
        <ele>926.58307</ele>
        <time>2026-05-28T13:51:37Z</time>
      </trkpt>
      <trkpt lat="48.38627" lon="7.27897">
        <ele>926.58307</ele>
        <time>2026-05-28T13:51:46Z</time>
      </trkpt>
      <trkpt lat="48.38634" lon="7.27895">
        <ele>926.58307</ele>
        <time>2026-05-28T13:51:48Z</time>
      </trkpt>
      <trkpt lat="48.38638" lon="7.27892">
        <ele>926.58307</ele>
        <time>2026-05-28T13:51:53Z</time>
      </trkpt>
      <trkpt lat="48.38644" lon="7.27891">
        <ele>926.58307</ele>
        <time>2026-05-28T13:52:11Z</time>
      </trkpt>
      <trkpt lat="48.38649" lon="7.27888">
        <ele>926.58307</ele>
        <time>2026-05-28T13:52:16Z</time>
      </trkpt>
      <trkpt lat="48.38654" lon="7.27885">
        <ele>926.58307</ele>
        <time>2026-05-28T13:52:21Z</time>
      </trkpt>
      <trkpt lat="48.38658" lon="7.27883">
        <ele>926.58307</ele>
        <time>2026-05-28T13:52:26Z</time>
      </trkpt>
      <trkpt lat="48.38663" lon="7.27881">
        <ele>926.58307</ele>
        <time>2026-05-28T13:52:30Z</time>
      </trkpt>
      <trkpt lat="48.38667" lon="7.27877">
        <ele>926.58307</ele>
        <time>2026-05-28T13:52:35Z</time>
      </trkpt>
      <trkpt lat="48.38672" lon="7.27874">
        <ele>926.58307</ele>
        <time>2026-05-28T13:52:40Z</time>
      </trkpt>
      <trkpt lat="48.38678" lon="7.27872">
        <ele>926.58307</ele>
        <time>2026-05-28T13:52:45Z</time>
      </trkpt>
      <trkpt lat="48.38682" lon="7.2787">
        <ele>926.58307</ele>
        <time>2026-05-28T13:52:49Z</time>
      </trkpt>
      <trkpt lat="48.38686" lon="7.27868">
        <ele>926.58307</ele>
        <time>2026-05-28T13:52:53Z</time>
      </trkpt>
      <trkpt lat="48.38691" lon="7.27867">
        <ele>926.58307</ele>
        <time>2026-05-28T13:52:58Z</time>
      </trkpt>
      <trkpt lat="48.38696" lon="7.27865">
        <ele>926.58307</ele>
        <time>2026-05-28T13:53:02Z</time>
      </trkpt>
      <trkpt lat="48.38702" lon="7.27863">
        <ele>926.58307</ele>
        <time>2026-05-28T13:53:08Z</time>
      </trkpt>
      <trkpt lat="48.38705" lon="7.27859">
        <ele>926.58307</ele>
        <time>2026-05-28T13:53:12Z</time>
      </trkpt>
      <trkpt lat="48.38711" lon="7.27857">
        <ele>926.58307</ele>
        <time>2026-05-28T13:53:17Z</time>
      </trkpt>
      <trkpt lat="48.38715" lon="7.27854">
        <ele>926.58307</ele>
        <time>2026-05-28T13:53:21Z</time>
      </trkpt>
      <trkpt lat="48.3872" lon="7.27852">
        <ele>926.58307</ele>
        <time>2026-05-28T13:53:27Z</time>
      </trkpt>
      <trkpt lat="48.38725" lon="7.27849">
        <ele>926.58307</ele>
        <time>2026-05-28T13:53:31Z</time>
      </trkpt>
      <trkpt lat="48.3873" lon="7.27848">
        <ele>926.58307</ele>
        <time>2026-05-28T13:53:36Z</time>
      </trkpt>
      <trkpt lat="48.38735" lon="7.27848">
        <ele>926.58307</ele>
        <time>2026-05-28T13:53:41Z</time>
      </trkpt>
      <trkpt lat="48.3874" lon="7.27848">
        <ele>926.58307</ele>
        <time>2026-05-28T13:53:46Z</time>
      </trkpt>
      <trkpt lat="48.38745" lon="7.27846">
        <ele>926.58307</ele>
        <time>2026-05-28T13:53:52Z</time>
      </trkpt>
      <trkpt lat="48.3875" lon="7.27847">
        <ele>926.58307</ele>
        <time>2026-05-28T13:53:57Z</time>
      </trkpt>
      <trkpt lat="48.38755" lon="7.2785">
        <ele>926.58307</ele>
        <time>2026-05-28T13:54:02Z</time>
      </trkpt>
      <trkpt lat="48.3876" lon="7.27853">
        <ele>926.58307</ele>
        <time>2026-05-28T13:54:06Z</time>
      </trkpt>
      <trkpt lat="48.38765" lon="7.27855">
        <ele>926.58307</ele>
        <time>2026-05-28T13:54:12Z</time>
      </trkpt>
      <trkpt lat="48.38769" lon="7.27859">
        <ele>926.58307</ele>
        <time>2026-05-28T13:54:16Z</time>
      </trkpt>
      <trkpt lat="48.38773" lon="7.27863">
        <ele>926.58307</ele>
        <time>2026-05-28T13:54:23Z</time>
      </trkpt>
      <trkpt lat="48.38778" lon="7.27866">
        <ele>926.58307</ele>
        <time>2026-05-28T13:54:29Z</time>
      </trkpt>
      <trkpt lat="48.38783" lon="7.27868">
        <ele>926.58307</ele>
        <time>2026-05-28T13:55:24Z</time>
      </trkpt>
      <trkpt lat="48.38787" lon="7.2787">
        <ele>926.58307</ele>
        <time>2026-05-28T13:55:29Z</time>
      </trkpt>
      <trkpt lat="48.38791" lon="7.27873">
        <ele>926.58307</ele>
        <time>2026-05-28T13:55:34Z</time>
      </trkpt>
      <trkpt lat="48.38796" lon="7.27873">
        <ele>926.58307</ele>
        <time>2026-05-28T13:55:39Z</time>
      </trkpt>
      <trkpt lat="48.38801" lon="7.27872">
        <ele>926.58307</ele>
        <time>2026-05-28T13:55:53Z</time>
      </trkpt>
      <trkpt lat="48.38799" lon="7.27879">
        <ele>926.58307</ele>
        <time>2026-05-28T13:55:58Z</time>
      </trkpt>
      <trkpt lat="48.38793" lon="7.27878">
        <ele>926.58307</ele>
        <time>2026-05-28T13:56:06Z</time>
      </trkpt>
      <trkpt lat="48.3879" lon="7.27874">
        <ele>926.58307</ele>
        <time>2026-05-28T13:56:15Z</time>
      </trkpt>
      <trkpt lat="48.38785" lon="7.27872">
        <ele>926.58307</ele>
        <time>2026-05-28T14:01:56Z</time>
      </trkpt>
      <trkpt lat="48.38791" lon="7.27872">
        <ele>926.58307</ele>
        <time>2026-05-28T14:03:13Z</time>
      </trkpt>
      <trkpt lat="48.38796" lon="7.27873">
        <ele>926.58307</ele>
        <time>2026-05-28T14:03:16Z</time>
      </trkpt>
      <trkpt lat="48.38801" lon="7.27874">
        <ele>926.58307</ele>
        <time>2026-05-28T14:03:19Z</time>
      </trkpt>
      <trkpt lat="48.38806" lon="7.27868">
        <ele>926.58307</ele>
        <time>2026-05-28T14:03:23Z</time>
      </trkpt>
      <trkpt lat="48.3881" lon="7.27861">
        <ele>926.58307</ele>
        <time>2026-05-28T14:03:27Z</time>
      </trkpt>
      <trkpt lat="48.38815" lon="7.27856">
        <ele>926.58307</ele>
        <time>2026-05-28T14:03:31Z</time>
      </trkpt>
      <trkpt lat="48.38819" lon="7.27853">
        <ele>926.58307</ele>
        <time>2026-05-28T14:03:34Z</time>
      </trkpt>
      <trkpt lat="48.38823" lon="7.27851">
        <ele>926.58307</ele>
        <time>2026-05-28T14:03:37Z</time>
      </trkpt>
      <trkpt lat="48.38828" lon="7.27851">
        <ele>926.58307</ele>
        <time>2026-05-28T14:03:40Z</time>
      </trkpt>
      <trkpt lat="48.38833" lon="7.27851">
        <ele>926.58307</ele>
        <time>2026-05-28T14:03:43Z</time>
      </trkpt>
      <trkpt lat="48.38839" lon="7.27851">
        <ele>926.58307</ele>
        <time>2026-05-28T14:03:47Z</time>
      </trkpt>
      <trkpt lat="48.38844" lon="7.27852">
        <ele>926.58307</ele>
        <time>2026-05-28T14:03:50Z</time>
      </trkpt>
      <trkpt lat="48.38848" lon="7.27852">
        <ele>926.58307</ele>
        <time>2026-05-28T14:03:53Z</time>
      </trkpt>
      <trkpt lat="48.38853" lon="7.27851">
        <ele>926.58307</ele>
        <time>2026-05-28T14:03:56Z</time>
      </trkpt>
      <trkpt lat="48.38856" lon="7.27843">
        <ele>926.58307</ele>
        <time>2026-05-28T14:04:00Z</time>
      </trkpt>
      <trkpt lat="48.38859" lon="7.27836">
        <ele>926.58307</ele>
        <time>2026-05-28T14:04:04Z</time>
      </trkpt>
      <trkpt lat="48.38862" lon="7.27829">
        <ele>926.58307</ele>
        <time>2026-05-28T14:04:08Z</time>
      </trkpt>
      <trkpt lat="48.38865" lon="7.27824">
        <ele>926.58307</ele>
        <time>2026-05-28T14:04:11Z</time>
      </trkpt>
      <trkpt lat="48.38868" lon="7.27818">
        <ele>926.58307</ele>
        <time>2026-05-28T14:04:14Z</time>
      </trkpt>
      <trkpt lat="48.38871" lon="7.27813">
        <ele>926.58307</ele>
        <time>2026-05-28T14:04:17Z</time>
      </trkpt>
      <trkpt lat="48.38873" lon="7.27805">
        <ele>926.58307</ele>
        <time>2026-05-28T14:04:21Z</time>
      </trkpt>
      <trkpt lat="48.38876" lon="7.27798">
        <ele>926.58307</ele>
        <time>2026-05-28T14:04:25Z</time>
      </trkpt>
      <trkpt lat="48.3888" lon="7.27791">
        <ele>926.58307</ele>
        <time>2026-05-28T14:04:29Z</time>
      </trkpt>
      <trkpt lat="48.38882" lon="7.27783">
        <ele>926.58307</ele>
        <time>2026-05-28T14:04:33Z</time>
      </trkpt>
      <trkpt lat="48.38885" lon="7.27776">
        <ele>928.65265</ele>
        <time>2026-05-28T14:04:37Z</time>
      </trkpt>
      <trkpt lat="48.38887" lon="7.27769">
        <ele>930.7222</ele>
        <time>2026-05-28T14:04:41Z</time>
      </trkpt>
      <trkpt lat="48.38891" lon="7.27763">
        <ele>932.7918</ele>
        <time>2026-05-28T14:04:45Z</time>
      </trkpt>
      <trkpt lat="48.38893" lon="7.27755">
        <ele>934.8614</ele>
        <time>2026-05-28T14:04:49Z</time>
      </trkpt>
      <trkpt lat="48.38896" lon="7.27748">
        <ele>936.93097</ele>
        <time>2026-05-28T14:04:53Z</time>
      </trkpt>
      <trkpt lat="48.389" lon="7.27742">
        <ele>936.93097</ele>
        <time>2026-05-28T14:05:02Z</time>
      </trkpt>
      <trkpt lat="48.38904" lon="7.27737">
        <ele>936.93097</ele>
        <time>2026-05-28T14:05:07Z</time>
      </trkpt>
      <trkpt lat="48.38908" lon="7.27732">
        <ele>936.93097</ele>
        <time>2026-05-28T14:05:12Z</time>
      </trkpt>
      <trkpt lat="48.38911" lon="7.27726">
        <ele>936.93097</ele>
        <time>2026-05-28T14:05:16Z</time>
      </trkpt>
      <trkpt lat="48.38913" lon="7.27719">
        <ele>936.93097</ele>
        <time>2026-05-28T14:05:20Z</time>
      </trkpt>
      <trkpt lat="48.38916" lon="7.27714">
        <ele>936.93097</ele>
        <time>2026-05-28T14:05:24Z</time>
      </trkpt>
      <trkpt lat="48.38918" lon="7.27707">
        <ele>936.93097</ele>
        <time>2026-05-28T14:05:28Z</time>
      </trkpt>
      <trkpt lat="48.38921" lon="7.27701">
        <ele>936.93097</ele>
        <time>2026-05-28T14:05:32Z</time>
      </trkpt>
      <trkpt lat="48.38924" lon="7.27695">
        <ele>936.93097</ele>
        <time>2026-05-28T14:05:36Z</time>
      </trkpt>
      <trkpt lat="48.38929" lon="7.27691">
        <ele>936.93097</ele>
        <time>2026-05-28T14:05:40Z</time>
      </trkpt>
      <trkpt lat="48.38934" lon="7.27688">
        <ele>936.93097</ele>
        <time>2026-05-28T14:05:44Z</time>
      </trkpt>
      <trkpt lat="48.38937" lon="7.27694">
        <ele>936.93097</ele>
        <time>2026-05-28T14:06:09Z</time>
      </trkpt>
      <trkpt lat="48.38942" lon="7.27694">
        <ele>936.93097</ele>
        <time>2026-05-28T14:06:19Z</time>
      </trkpt>
      <trkpt lat="48.38947" lon="7.27696">
        <ele>936.93097</ele>
        <time>2026-05-28T14:06:27Z</time>
      </trkpt>
      <trkpt lat="48.38951" lon="7.27701">
        <ele>936.93097</ele>
        <time>2026-05-28T14:06:32Z</time>
      </trkpt>
      <trkpt lat="48.38954" lon="7.27706">
        <ele>936.93097</ele>
        <time>2026-05-28T14:06:37Z</time>
      </trkpt>
      <trkpt lat="48.38958" lon="7.27712">
        <ele>936.93097</ele>
        <time>2026-05-28T14:06:42Z</time>
      </trkpt>
      <trkpt lat="48.38961" lon="7.27718">
        <ele>936.93097</ele>
        <time>2026-05-28T14:06:47Z</time>
      </trkpt>
      <trkpt lat="48.38964" lon="7.27723">
        <ele>936.93097</ele>
        <time>2026-05-28T14:06:51Z</time>
      </trkpt>
      <trkpt lat="48.38968" lon="7.27728">
        <ele>936.93097</ele>
        <time>2026-05-28T14:06:55Z</time>
      </trkpt>
      <trkpt lat="48.38971" lon="7.27733">
        <ele>936.93097</ele>
        <time>2026-05-28T14:06:59Z</time>
      </trkpt>
      <trkpt lat="48.38974" lon="7.27739">
        <ele>936.93097</ele>
        <time>2026-05-28T14:07:04Z</time>
      </trkpt>
      <trkpt lat="48.38977" lon="7.27744">
        <ele>936.93097</ele>
        <time>2026-05-28T14:07:08Z</time>
      </trkpt>
      <trkpt lat="48.38981" lon="7.27751">
        <ele>936.93097</ele>
        <time>2026-05-28T14:07:14Z</time>
      </trkpt>
      <trkpt lat="48.38984" lon="7.27757">
        <ele>936.93097</ele>
        <time>2026-05-28T14:07:18Z</time>
      </trkpt>
      <trkpt lat="48.38988" lon="7.27761">
        <ele>936.93097</ele>
        <time>2026-05-28T14:07:23Z</time>
      </trkpt>
      <trkpt lat="48.38992" lon="7.27766">
        <ele>936.93097</ele>
        <time>2026-05-28T14:07:28Z</time>
      </trkpt>
      <trkpt lat="48.38996" lon="7.27771">
        <ele>936.93097</ele>
        <time>2026-05-28T14:07:51Z</time>
      </trkpt>
      <trkpt lat="48.39001" lon="7.27776">
        <ele>936.93097</ele>
        <time>2026-05-28T14:07:57Z</time>
      </trkpt>
      <trkpt lat="48.39005" lon="7.27781">
        <ele>936.93097</ele>
        <time>2026-05-28T14:08:03Z</time>
      </trkpt>
      <trkpt lat="48.3901" lon="7.27783">
        <ele>936.93097</ele>
        <time>2026-05-28T14:08:08Z</time>
      </trkpt>
      <trkpt lat="48.39014" lon="7.27787">
        <ele>938.96606</ele>
        <time>2026-05-28T14:08:12Z</time>
      </trkpt>
      <trkpt lat="48.39016" lon="7.27794">
        <ele>941.00116</ele>
        <time>2026-05-28T14:08:17Z</time>
      </trkpt>
      <trkpt lat="48.39018" lon="7.278">
        <ele>943.03625</ele>
        <time>2026-05-28T14:08:23Z</time>
      </trkpt>
      <trkpt lat="48.39014" lon="7.27806">
        <ele>945.07135</ele>
        <time>2026-05-28T14:09:06Z</time>
      </trkpt>
      <trkpt lat="48.39014" lon="7.27817">
        <ele>947.10645</ele>
        <time>2026-05-28T14:09:09Z</time>
      </trkpt>
      <trkpt lat="48.39013" lon="7.27824">
        <ele>947.10645</ele>
        <time>2026-05-28T14:09:13Z</time>
      </trkpt>
      <trkpt lat="48.39013" lon="7.27832">
        <ele>947.10645</ele>
        <time>2026-05-28T14:09:18Z</time>
      </trkpt>
      <trkpt lat="48.39013" lon="7.2784">
        <ele>947.10645</ele>
        <time>2026-05-28T14:09:25Z</time>
      </trkpt>
      <trkpt lat="48.39014" lon="7.27848">
        <ele>947.10645</ele>
        <time>2026-05-28T14:09:29Z</time>
      </trkpt>
      <trkpt lat="48.39016" lon="7.27856">
        <ele>947.10645</ele>
        <time>2026-05-28T14:09:34Z</time>
      </trkpt>
      <trkpt lat="48.39018" lon="7.27863">
        <ele>947.10645</ele>
        <time>2026-05-28T14:09:38Z</time>
      </trkpt>
      <trkpt lat="48.39019" lon="7.2787">
        <ele>947.10645</ele>
        <time>2026-05-28T14:09:43Z</time>
      </trkpt>
      <trkpt lat="48.3902" lon="7.27877">
        <ele>947.10645</ele>
        <time>2026-05-28T14:09:47Z</time>
      </trkpt>
      <trkpt lat="48.39022" lon="7.27883">
        <ele>947.10645</ele>
        <time>2026-05-28T14:09:52Z</time>
      </trkpt>
      <trkpt lat="48.39024" lon="7.27891">
        <ele>947.10645</ele>
        <time>2026-05-28T14:09:57Z</time>
      </trkpt>
      <trkpt lat="48.39027" lon="7.27899">
        <ele>947.10645</ele>
        <time>2026-05-28T14:10:02Z</time>
      </trkpt>
      <trkpt lat="48.39029" lon="7.27906">
        <ele>947.10645</ele>
        <time>2026-05-28T14:10:07Z</time>
      </trkpt>
      <trkpt lat="48.39031" lon="7.27914">
        <ele>947.10645</ele>
        <time>2026-05-28T14:10:12Z</time>
      </trkpt>
      <trkpt lat="48.39033" lon="7.27921">
        <ele>947.10645</ele>
        <time>2026-05-28T14:10:17Z</time>
      </trkpt>
      <trkpt lat="48.39034" lon="7.27928">
        <ele>947.10645</ele>
        <time>2026-05-28T14:10:21Z</time>
      </trkpt>
      <trkpt lat="48.39036" lon="7.27936">
        <ele>947.10645</ele>
        <time>2026-05-28T14:10:26Z</time>
      </trkpt>
      <trkpt lat="48.39038" lon="7.27943">
        <ele>947.10645</ele>
        <time>2026-05-28T14:10:31Z</time>
      </trkpt>
      <trkpt lat="48.3904" lon="7.27951">
        <ele>947.10645</ele>
        <time>2026-05-28T14:10:36Z</time>
      </trkpt>
      <trkpt lat="48.39042" lon="7.27957">
        <ele>947.10645</ele>
        <time>2026-05-28T14:10:40Z</time>
      </trkpt>
      <trkpt lat="48.39044" lon="7.27965">
        <ele>947.10645</ele>
        <time>2026-05-28T14:10:45Z</time>
      </trkpt>
      <trkpt lat="48.39046" lon="7.27971">
        <ele>947.10645</ele>
        <time>2026-05-28T14:10:49Z</time>
      </trkpt>
      <trkpt lat="48.39048" lon="7.27978">
        <ele>947.10645</ele>
        <time>2026-05-28T14:10:54Z</time>
      </trkpt>
      <trkpt lat="48.3905" lon="7.27986">
        <ele>947.10645</ele>
        <time>2026-05-28T14:10:59Z</time>
      </trkpt>
      <trkpt lat="48.39051" lon="7.27992">
        <ele>947.10645</ele>
        <time>2026-05-28T14:11:03Z</time>
      </trkpt>
      <trkpt lat="48.39054" lon="7.27999">
        <ele>947.10645</ele>
        <time>2026-05-28T14:11:07Z</time>
      </trkpt>
      <trkpt lat="48.39057" lon="7.28007">
        <ele>947.10645</ele>
        <time>2026-05-28T14:11:12Z</time>
      </trkpt>
      <trkpt lat="48.39059" lon="7.28013">
        <ele>947.10645</ele>
        <time>2026-05-28T14:11:16Z</time>
      </trkpt>
      <trkpt lat="48.3906" lon="7.28021">
        <ele>947.10645</ele>
        <time>2026-05-28T14:11:21Z</time>
      </trkpt>
      <trkpt lat="48.39063" lon="7.28028">
        <ele>947.10645</ele>
        <time>2026-05-28T14:11:26Z</time>
      </trkpt>
      <trkpt lat="48.39064" lon="7.28035">
        <ele>947.10645</ele>
        <time>2026-05-28T14:11:32Z</time>
      </trkpt>
      <trkpt lat="48.39067" lon="7.28041">
        <ele>944.9029</ele>
        <time>2026-05-28T14:11:43Z</time>
      </trkpt>
      <trkpt lat="48.39069" lon="7.28047">
        <ele>942.69934</ele>
        <time>2026-05-28T14:11:47Z</time>
      </trkpt>
      <trkpt lat="48.39072" lon="7.28053">
        <ele>940.4957</ele>
        <time>2026-05-28T14:11:51Z</time>
      </trkpt>
      <trkpt lat="48.39075" lon="7.28059">
        <ele>938.2922</ele>
        <time>2026-05-28T14:11:56Z</time>
      </trkpt>
      <trkpt lat="48.39079" lon="7.28064">
        <ele>936.0886</ele>
        <time>2026-05-28T14:12:00Z</time>
      </trkpt>
      <trkpt lat="48.39082" lon="7.2807">
        <ele>936.0886</ele>
        <time>2026-05-28T14:12:05Z</time>
      </trkpt>
      <trkpt lat="48.39085" lon="7.28075">
        <ele>936.0886</ele>
        <time>2026-05-28T14:12:09Z</time>
      </trkpt>
      <trkpt lat="48.39089" lon="7.2808">
        <ele>936.0886</ele>
        <time>2026-05-28T14:12:13Z</time>
      </trkpt>
      <trkpt lat="48.39093" lon="7.28084">
        <ele>936.0886</ele>
        <time>2026-05-28T14:12:17Z</time>
      </trkpt>
      <trkpt lat="48.39097" lon="7.2809">
        <ele>936.0886</ele>
        <time>2026-05-28T14:12:22Z</time>
      </trkpt>
      <trkpt lat="48.39101" lon="7.28094">
        <ele>936.0886</ele>
        <time>2026-05-28T14:12:26Z</time>
      </trkpt>
      <trkpt lat="48.39106" lon="7.28099">
        <ele>936.0886</ele>
        <time>2026-05-28T14:12:31Z</time>
      </trkpt>
      <trkpt lat="48.39109" lon="7.28105">
        <ele>936.0886</ele>
        <time>2026-05-28T14:12:35Z</time>
      </trkpt>
      <trkpt lat="48.39112" lon="7.28109">
        <ele>936.0886</ele>
        <time>2026-05-28T14:12:39Z</time>
      </trkpt>
      <trkpt lat="48.39114" lon="7.28116">
        <ele>936.0886</ele>
        <time>2026-05-28T14:12:44Z</time>
      </trkpt>
      <trkpt lat="48.39116" lon="7.28123">
        <ele>936.0886</ele>
        <time>2026-05-28T14:12:48Z</time>
      </trkpt>
      <trkpt lat="48.39117" lon="7.2813">
        <ele>936.0886</ele>
        <time>2026-05-28T14:12:53Z</time>
      </trkpt>
      <trkpt lat="48.39119" lon="7.28137">
        <ele>936.0886</ele>
        <time>2026-05-28T14:12:57Z</time>
      </trkpt>
      <trkpt lat="48.3912" lon="7.28144">
        <ele>936.0886</ele>
        <time>2026-05-28T14:13:02Z</time>
      </trkpt>
      <trkpt lat="48.3912" lon="7.28151">
        <ele>936.0886</ele>
        <time>2026-05-28T14:13:06Z</time>
      </trkpt>
      <trkpt lat="48.39121" lon="7.28159">
        <ele>936.0886</ele>
        <time>2026-05-28T14:13:11Z</time>
      </trkpt>
      <trkpt lat="48.39122" lon="7.28167">
        <ele>936.0886</ele>
        <time>2026-05-28T14:13:16Z</time>
      </trkpt>
      <trkpt lat="48.39124" lon="7.28173">
        <ele>936.0886</ele>
        <time>2026-05-28T14:13:20Z</time>
      </trkpt>
      <trkpt lat="48.39125" lon="7.28182">
        <ele>936.0886</ele>
        <time>2026-05-28T14:13:25Z</time>
      </trkpt>
      <trkpt lat="48.39127" lon="7.28189">
        <ele>936.0886</ele>
        <time>2026-05-28T14:13:30Z</time>
      </trkpt>
      <trkpt lat="48.39128" lon="7.28195">
        <ele>936.0886</ele>
        <time>2026-05-28T14:13:34Z</time>
      </trkpt>
      <trkpt lat="48.39129" lon="7.28203">
        <ele>936.0886</ele>
        <time>2026-05-28T14:13:39Z</time>
      </trkpt>
      <trkpt lat="48.39132" lon="7.28211">
        <ele>936.0886</ele>
        <time>2026-05-28T14:13:44Z</time>
      </trkpt>
      <trkpt lat="48.39135" lon="7.28216">
        <ele>936.0886</ele>
        <time>2026-05-28T14:13:50Z</time>
      </trkpt>
      <trkpt lat="48.39139" lon="7.28219">
        <ele>936.0886</ele>
        <time>2026-05-28T14:13:55Z</time>
      </trkpt>
      <trkpt lat="48.39144" lon="7.28221">
        <ele>936.0886</ele>
        <time>2026-05-28T14:14:01Z</time>
      </trkpt>
      <trkpt lat="48.39148" lon="7.28226">
        <ele>936.0886</ele>
        <time>2026-05-28T14:14:06Z</time>
      </trkpt>
      <trkpt lat="48.39151" lon="7.28233">
        <ele>936.0886</ele>
        <time>2026-05-28T14:14:11Z</time>
      </trkpt>
      <trkpt lat="48.39154" lon="7.28238">
        <ele>936.0886</ele>
        <time>2026-05-28T14:14:16Z</time>
      </trkpt>
      <trkpt lat="48.39158" lon="7.28243">
        <ele>936.0886</ele>
        <time>2026-05-28T14:14:21Z</time>
      </trkpt>
      <trkpt lat="48.39161" lon="7.28248">
        <ele>936.0886</ele>
        <time>2026-05-28T14:14:26Z</time>
      </trkpt>
      <trkpt lat="48.39165" lon="7.28253">
        <ele>936.0886</ele>
        <time>2026-05-28T14:14:30Z</time>
      </trkpt>
      <trkpt lat="48.39168" lon="7.2826">
        <ele>936.0886</ele>
        <time>2026-05-28T14:14:40Z</time>
      </trkpt>
      <trkpt lat="48.39172" lon="7.28265">
        <ele>936.0886</ele>
        <time>2026-05-28T14:14:46Z</time>
      </trkpt>
      <trkpt lat="48.39175" lon="7.2827">
        <ele>936.0886</ele>
        <time>2026-05-28T14:14:51Z</time>
      </trkpt>
      <trkpt lat="48.39178" lon="7.28275">
        <ele>936.0886</ele>
        <time>2026-05-28T14:14:56Z</time>
      </trkpt>
      <trkpt lat="48.3918" lon="7.28282">
        <ele>936.0886</ele>
        <time>2026-05-28T14:15:01Z</time>
      </trkpt>
      <trkpt lat="48.39183" lon="7.28288">
        <ele>936.0886</ele>
        <time>2026-05-28T14:15:05Z</time>
      </trkpt>
      <trkpt lat="48.39187" lon="7.28294">
        <ele>936.0886</ele>
        <time>2026-05-28T14:15:10Z</time>
      </trkpt>
      <trkpt lat="48.3919" lon="7.283">
        <ele>936.0886</ele>
        <time>2026-05-28T14:15:15Z</time>
      </trkpt>
      <trkpt lat="48.39194" lon="7.28304">
        <ele>936.0886</ele>
        <time>2026-05-28T14:15:20Z</time>
      </trkpt>
      <trkpt lat="48.39199" lon="7.28306">
        <ele>936.0886</ele>
        <time>2026-05-28T14:15:25Z</time>
      </trkpt>
      <trkpt lat="48.39203" lon="7.28303">
        <ele>936.0886</ele>
        <time>2026-05-28T14:15:30Z</time>
      </trkpt>
      <trkpt lat="48.39206" lon="7.28297">
        <ele>936.0886</ele>
        <time>2026-05-28T14:16:16Z</time>
      </trkpt>
      <trkpt lat="48.39208" lon="7.28291">
        <ele>936.0886</ele>
        <time>2026-05-28T14:16:21Z</time>
      </trkpt>
      <trkpt lat="48.39211" lon="7.28285">
        <ele>936.0886</ele>
        <time>2026-05-28T14:16:26Z</time>
      </trkpt>
      <trkpt lat="48.39213" lon="7.28279">
        <ele>936.0886</ele>
        <time>2026-05-28T14:16:31Z</time>
      </trkpt>
      <trkpt lat="48.39216" lon="7.28273">
        <ele>936.0886</ele>
        <time>2026-05-28T14:16:36Z</time>
      </trkpt>
      <trkpt lat="48.39219" lon="7.28268">
        <ele>936.0886</ele>
        <time>2026-05-28T14:16:41Z</time>
      </trkpt>
      <trkpt lat="48.39222" lon="7.28262">
        <ele>936.0886</ele>
        <time>2026-05-28T14:16:57Z</time>
      </trkpt>
      <trkpt lat="48.39226" lon="7.28258">
        <ele>936.0886</ele>
        <time>2026-05-28T14:17:02Z</time>
      </trkpt>
      <trkpt lat="48.3923" lon="7.28253">
        <ele>936.0886</ele>
        <time>2026-05-28T14:17:07Z</time>
      </trkpt>
      <trkpt lat="48.39233" lon="7.28248">
        <ele>938.1356</ele>
        <time>2026-05-28T14:17:12Z</time>
      </trkpt>
      <trkpt lat="48.39238" lon="7.28243">
        <ele>940.1826</ele>
        <time>2026-05-28T14:17:17Z</time>
      </trkpt>
      <trkpt lat="48.39241" lon="7.28238">
        <ele>942.2297</ele>
        <time>2026-05-28T14:17:22Z</time>
      </trkpt>
      <trkpt lat="48.39245" lon="7.28233">
        <ele>944.2767</ele>
        <time>2026-05-28T14:17:27Z</time>
      </trkpt>
      <trkpt lat="48.39248" lon="7.28228">
        <ele>946.32367</ele>
        <time>2026-05-28T14:17:32Z</time>
      </trkpt>
      <trkpt lat="48.39251" lon="7.28222">
        <ele>946.32367</ele>
        <time>2026-05-28T14:17:37Z</time>
      </trkpt>
      <trkpt lat="48.39255" lon="7.28215">
        <ele>946.32367</ele>
        <time>2026-05-28T14:17:42Z</time>
      </trkpt>
      <trkpt lat="48.39257" lon="7.28208">
        <ele>946.32367</ele>
        <time>2026-05-28T14:17:47Z</time>
      </trkpt>
      <trkpt lat="48.39259" lon="7.28201">
        <ele>946.32367</ele>
        <time>2026-05-28T14:17:52Z</time>
      </trkpt>
      <trkpt lat="48.3926" lon="7.28194">
        <ele>946.32367</ele>
        <time>2026-05-28T14:17:57Z</time>
      </trkpt>
      <trkpt lat="48.39261" lon="7.28187">
        <ele>946.32367</ele>
        <time>2026-05-28T14:18:05Z</time>
      </trkpt>
      <trkpt lat="48.39261" lon="7.28179">
        <ele>946.32367</ele>
        <time>2026-05-28T14:18:10Z</time>
      </trkpt>
      <trkpt lat="48.39261" lon="7.28171">
        <ele>946.32367</ele>
        <time>2026-05-28T14:18:16Z</time>
      </trkpt>
      <trkpt lat="48.39261" lon="7.28163">
        <ele>948.57623</ele>
        <time>2026-05-28T14:18:21Z</time>
      </trkpt>
      <trkpt lat="48.3926" lon="7.28156">
        <ele>950.8288</ele>
        <time>2026-05-28T14:18:26Z</time>
      </trkpt>
      <trkpt lat="48.39259" lon="7.28148">
        <ele>953.0813</ele>
        <time>2026-05-28T14:18:32Z</time>
      </trkpt>
      <trkpt lat="48.39258" lon="7.2814">
        <ele>955.33386</ele>
        <time>2026-05-28T14:18:37Z</time>
      </trkpt>
      <trkpt lat="48.39257" lon="7.28132">
        <ele>957.5864</ele>
        <time>2026-05-28T14:18:43Z</time>
      </trkpt>
      <trkpt lat="48.39256" lon="7.28125">
        <ele>957.5864</ele>
        <time>2026-05-28T14:18:49Z</time>
      </trkpt>
      <trkpt lat="48.39254" lon="7.28118">
        <ele>957.5864</ele>
        <time>2026-05-28T14:18:54Z</time>
      </trkpt>
      <trkpt lat="48.39254" lon="7.28111">
        <ele>957.5864</ele>
        <time>2026-05-28T14:18:58Z</time>
      </trkpt>
      <trkpt lat="48.39253" lon="7.28103">
        <ele>957.5864</ele>
        <time>2026-05-28T14:19:03Z</time>
      </trkpt>
      <trkpt lat="48.39258" lon="7.28103">
        <ele>957.5864</ele>
        <time>2026-05-28T14:19:31Z</time>
      </trkpt>
      <trkpt lat="48.39262" lon="7.28101">
        <ele>957.5864</ele>
        <time>2026-05-28T14:19:38Z</time>
      </trkpt>
      <trkpt lat="48.39267" lon="7.28099">
        <ele>957.5864</ele>
        <time>2026-05-28T14:19:41Z</time>
      </trkpt>
      <trkpt lat="48.39274" lon="7.28095">
        <ele>957.5864</ele>
        <time>2026-05-28T14:19:44Z</time>
      </trkpt>
      <trkpt lat="48.39276" lon="7.28089">
        <ele>957.5864</ele>
        <time>2026-05-28T14:19:51Z</time>
      </trkpt>
      <trkpt lat="48.39279" lon="7.28084">
        <ele>957.5864</ele>
        <time>2026-05-28T14:19:57Z</time>
      </trkpt>
      <trkpt lat="48.39283" lon="7.28078">
        <ele>957.5864</ele>
        <time>2026-05-28T14:20:04Z</time>
      </trkpt>
      <trkpt lat="48.39286" lon="7.28073">
        <ele>959.8217</ele>
        <time>2026-05-28T14:20:11Z</time>
      </trkpt>
      <trkpt lat="48.3929" lon="7.28069">
        <ele>962.057</ele>
        <time>2026-05-28T14:20:17Z</time>
      </trkpt>
      <trkpt lat="48.39293" lon="7.28064">
        <ele>964.29224</ele>
        <time>2026-05-28T14:20:31Z</time>
      </trkpt>
      <trkpt lat="48.39298" lon="7.28062">
        <ele>966.5275</ele>
        <time>2026-05-28T14:21:16Z</time>
      </trkpt>
      <trkpt lat="48.39301" lon="7.28057">
        <ele>968.7628</ele>
        <time>2026-05-28T14:21:21Z</time>
      </trkpt>
      <trkpt lat="48.39304" lon="7.28052">
        <ele>968.7628</ele>
        <time>2026-05-28T14:21:26Z</time>
      </trkpt>
      <trkpt lat="48.39307" lon="7.28046">
        <ele>968.7628</ele>
        <time>2026-05-28T14:21:32Z</time>
      </trkpt>
      <trkpt lat="48.39311" lon="7.28041">
        <ele>968.7628</ele>
        <time>2026-05-28T14:21:37Z</time>
      </trkpt>
      <trkpt lat="48.39314" lon="7.28033">
        <ele>970.78796</ele>
        <time>2026-05-28T14:21:43Z</time>
      </trkpt>
      <trkpt lat="48.39317" lon="7.28028">
        <ele>972.81305</ele>
        <time>2026-05-28T14:21:51Z</time>
      </trkpt>
      <trkpt lat="48.3932" lon="7.28022">
        <ele>974.8382</ele>
        <time>2026-05-28T14:21:58Z</time>
      </trkpt>
      <trkpt lat="48.39323" lon="7.28016">
        <ele>976.8633</ele>
        <time>2026-05-28T14:22:06Z</time>
      </trkpt>
      <trkpt lat="48.39327" lon="7.28012">
        <ele>978.8884</ele>
        <time>2026-05-28T14:22:14Z</time>
      </trkpt>
      <trkpt lat="48.39331" lon="7.28009">
        <ele>978.8884</ele>
        <time>2026-05-28T14:22:22Z</time>
      </trkpt>
      <trkpt lat="48.39336" lon="7.28008">
        <ele>978.8884</ele>
        <time>2026-05-28T14:22:28Z</time>
      </trkpt>
      <trkpt lat="48.3934" lon="7.28004">
        <ele>978.8884</ele>
        <time>2026-05-28T14:22:35Z</time>
      </trkpt>
      <trkpt lat="48.39345" lon="7.28007">
        <ele>978.8884</ele>
        <time>2026-05-28T14:22:41Z</time>
      </trkpt>
      <trkpt lat="48.39348" lon="7.28014">
        <ele>978.8884</ele>
        <time>2026-05-28T14:22:48Z</time>
      </trkpt>
      <trkpt lat="48.39349" lon="7.28021">
        <ele>981.3287</ele>
        <time>2026-05-28T14:23:50Z</time>
      </trkpt>
      <trkpt lat="48.39351" lon="7.28029">
        <ele>983.7689</ele>
        <time>2026-05-28T14:23:55Z</time>
      </trkpt>
      <trkpt lat="48.39354" lon="7.28034">
        <ele>986.2092</ele>
        <time>2026-05-28T14:24:00Z</time>
      </trkpt>
      <trkpt lat="48.39357" lon="7.2804">
        <ele>988.6495</ele>
        <time>2026-05-28T14:24:04Z</time>
      </trkpt>
      <trkpt lat="48.3936" lon="7.28045">
        <ele>991.0897</ele>
        <time>2026-05-28T14:24:09Z</time>
      </trkpt>
      <trkpt lat="48.39364" lon="7.28051">
        <ele>991.0897</ele>
        <time>2026-05-28T14:24:14Z</time>
      </trkpt>
      <trkpt lat="48.39366" lon="7.28057">
        <ele>991.0897</ele>
        <time>2026-05-28T14:24:18Z</time>
      </trkpt>
      <trkpt lat="48.3937" lon="7.28063">
        <ele>991.0897</ele>
        <time>2026-05-28T14:24:24Z</time>
      </trkpt>
      <trkpt lat="48.39373" lon="7.28069">
        <ele>991.0897</ele>
        <time>2026-05-28T14:24:28Z</time>
      </trkpt>
      <trkpt lat="48.39376" lon="7.28076">
        <ele>991.0897</ele>
        <time>2026-05-28T14:24:33Z</time>
      </trkpt>
      <trkpt lat="48.3938" lon="7.28082">
        <ele>991.0897</ele>
        <time>2026-05-28T14:24:38Z</time>
      </trkpt>
      <trkpt lat="48.39383" lon="7.28088">
        <ele>991.0897</ele>
        <time>2026-05-28T14:24:42Z</time>
      </trkpt>
      <trkpt lat="48.39386" lon="7.28094">
        <ele>991.0897</ele>
        <time>2026-05-28T14:24:47Z</time>
      </trkpt>
      <trkpt lat="48.39389" lon="7.281">
        <ele>991.0897</ele>
        <time>2026-05-28T14:24:52Z</time>
      </trkpt>
      <trkpt lat="48.39392" lon="7.28106">
        <ele>991.0897</ele>
        <time>2026-05-28T14:24:57Z</time>
      </trkpt>
      <trkpt lat="48.39395" lon="7.28111">
        <ele>991.0897</ele>
        <time>2026-05-28T14:25:00Z</time>
      </trkpt>
      <trkpt lat="48.39398" lon="7.28117">
        <ele>991.0897</ele>
        <time>2026-05-28T14:25:06Z</time>
      </trkpt>
      <trkpt lat="48.39402" lon="7.2812">
        <ele>991.0897</ele>
        <time>2026-05-28T14:25:12Z</time>
      </trkpt>
      <trkpt lat="48.39407" lon="7.28115">
        <ele>991.0897</ele>
        <time>2026-05-28T14:25:25Z</time>
      </trkpt>
      <trkpt lat="48.39407" lon="7.28108">
        <ele>991.0897</ele>
        <time>2026-05-28T14:25:51Z</time>
      </trkpt>
      <trkpt lat="48.39406" lon="7.28101">
        <ele>991.0897</ele>
        <time>2026-05-28T14:25:56Z</time>
      </trkpt>
      <trkpt lat="48.39404" lon="7.28094">
        <ele>991.0897</ele>
        <time>2026-05-28T14:26:02Z</time>
      </trkpt>
      <trkpt lat="48.39402" lon="7.28088">
        <ele>991.0897</ele>
        <time>2026-05-28T14:26:07Z</time>
      </trkpt>
      <trkpt lat="48.39398" lon="7.28083">
        <ele>991.0897</ele>
        <time>2026-05-28T14:26:13Z</time>
      </trkpt>
      <trkpt lat="48.39395" lon="7.28076">
        <ele>991.0897</ele>
        <time>2026-05-28T14:26:19Z</time>
      </trkpt>
      <trkpt lat="48.39392" lon="7.28071">
        <ele>991.0897</ele>
        <time>2026-05-28T14:26:25Z</time>
      </trkpt>
      <trkpt lat="48.39389" lon="7.28064">
        <ele>991.0897</ele>
        <time>2026-05-28T14:26:34Z</time>
      </trkpt>
      <trkpt lat="48.39387" lon="7.28058">
        <ele>991.0897</ele>
        <time>2026-05-28T14:26:39Z</time>
      </trkpt>
      <trkpt lat="48.39386" lon="7.28051">
        <ele>991.0897</ele>
        <time>2026-05-28T14:26:44Z</time>
      </trkpt>
      <trkpt lat="48.39384" lon="7.28044">
        <ele>991.0897</ele>
        <time>2026-05-28T14:26:49Z</time>
      </trkpt>
      <trkpt lat="48.39381" lon="7.28036">
        <ele>991.0897</ele>
        <time>2026-05-28T14:26:54Z</time>
      </trkpt>
      <trkpt lat="48.3938" lon="7.28029">
        <ele>991.0897</ele>
        <time>2026-05-28T14:26:59Z</time>
      </trkpt>
      <trkpt lat="48.39378" lon="7.28022">
        <ele>991.0897</ele>
        <time>2026-05-28T14:27:04Z</time>
      </trkpt>
      <trkpt lat="48.39376" lon="7.28015">
        <ele>991.0897</ele>
        <time>2026-05-28T14:27:09Z</time>
      </trkpt>
      <trkpt lat="48.39375" lon="7.28008">
        <ele>991.0897</ele>
        <time>2026-05-28T14:27:13Z</time>
      </trkpt>
      <trkpt lat="48.39374" lon="7.28001">
        <ele>991.0897</ele>
        <time>2026-05-28T14:27:18Z</time>
      </trkpt>
      <trkpt lat="48.39374" lon="7.27994">
        <ele>991.0897</ele>
        <time>2026-05-28T14:27:22Z</time>
      </trkpt>
      <trkpt lat="48.39374" lon="7.27987">
        <ele>991.0897</ele>
        <time>2026-05-28T14:27:26Z</time>
      </trkpt>
      <trkpt lat="48.39373" lon="7.2798">
        <ele>991.0897</ele>
        <time>2026-05-28T14:27:31Z</time>
      </trkpt>
      <trkpt lat="48.39373" lon="7.27972">
        <ele>991.0897</ele>
        <time>2026-05-28T14:27:35Z</time>
      </trkpt>
      <trkpt lat="48.39372" lon="7.27964">
        <ele>991.0897</ele>
        <time>2026-05-28T14:27:41Z</time>
      </trkpt>
      <trkpt lat="48.39371" lon="7.27956">
        <ele>991.0897</ele>
        <time>2026-05-28T14:27:47Z</time>
      </trkpt>
      <trkpt lat="48.3937" lon="7.27949">
        <ele>991.0897</ele>
        <time>2026-05-28T14:27:52Z</time>
      </trkpt>
      <trkpt lat="48.39369" lon="7.27941">
        <ele>991.0897</ele>
        <time>2026-05-28T14:27:57Z</time>
      </trkpt>
      <trkpt lat="48.39368" lon="7.27933">
        <ele>991.0897</ele>
        <time>2026-05-28T14:28:02Z</time>
      </trkpt>
      <trkpt lat="48.39368" lon="7.27926">
        <ele>991.0897</ele>
        <time>2026-05-28T14:28:07Z</time>
      </trkpt>
      <trkpt lat="48.39369" lon="7.27918">
        <ele>991.0897</ele>
        <time>2026-05-28T14:28:13Z</time>
      </trkpt>
      <trkpt lat="48.39365" lon="7.27913">
        <ele>991.0897</ele>
        <time>2026-05-28T14:28:17Z</time>
      </trkpt>
      <trkpt lat="48.39363" lon="7.27906">
        <ele>991.0897</ele>
        <time>2026-05-28T14:28:22Z</time>
      </trkpt>
      <trkpt lat="48.39361" lon="7.279">
        <ele>991.0897</ele>
        <time>2026-05-28T14:28:27Z</time>
      </trkpt>
      <trkpt lat="48.39357" lon="7.27895">
        <ele>991.0897</ele>
        <time>2026-05-28T14:28:32Z</time>
      </trkpt>
      <trkpt lat="48.39354" lon="7.27889">
        <ele>991.0897</ele>
        <time>2026-05-28T14:28:37Z</time>
      </trkpt>
      <trkpt lat="48.39349" lon="7.27884">
        <ele>991.0897</ele>
        <time>2026-05-28T14:28:48Z</time>
      </trkpt>
      <trkpt lat="48.39346" lon="7.27879">
        <ele>991.0897</ele>
        <time>2026-05-28T14:28:52Z</time>
      </trkpt>
      <trkpt lat="48.39343" lon="7.27873">
        <ele>991.0897</ele>
        <time>2026-05-28T14:28:58Z</time>
      </trkpt>
      <trkpt lat="48.3934" lon="7.27868">
        <ele>991.0897</ele>
        <time>2026-05-28T14:29:04Z</time>
      </trkpt>
      <trkpt lat="48.39337" lon="7.27861">
        <ele>991.0897</ele>
        <time>2026-05-28T14:29:10Z</time>
      </trkpt>
      <trkpt lat="48.39336" lon="7.27854">
        <ele>991.0897</ele>
        <time>2026-05-28T14:29:14Z</time>
      </trkpt>
      <trkpt lat="48.39334" lon="7.27847">
        <ele>991.0897</ele>
        <time>2026-05-28T14:29:18Z</time>
      </trkpt>
      <trkpt lat="48.39331" lon="7.27841">
        <ele>993.119</ele>
        <time>2026-05-28T14:29:23Z</time>
      </trkpt>
      <trkpt lat="48.39328" lon="7.27835">
        <ele>995.14825</ele>
        <time>2026-05-28T14:29:28Z</time>
      </trkpt>
      <trkpt lat="48.39325" lon="7.27831">
        <ele>997.17755</ele>
        <time>2026-05-28T14:29:33Z</time>
      </trkpt>
      <trkpt lat="48.39321" lon="7.27826">
        <ele>999.2068</ele>
        <time>2026-05-28T14:29:38Z</time>
      </trkpt>
      <trkpt lat="48.39319" lon="7.27819">
        <ele>1001.2361</ele>
        <time>2026-05-28T14:29:43Z</time>
      </trkpt>
      <trkpt lat="48.39315" lon="7.27815">
        <ele>1001.2361</ele>
        <time>2026-05-28T14:29:49Z</time>
      </trkpt>
      <trkpt lat="48.39312" lon="7.2781">
        <ele>1001.2361</ele>
        <time>2026-05-28T14:29:54Z</time>
      </trkpt>
      <trkpt lat="48.39308" lon="7.27806">
        <ele>1001.2361</ele>
        <time>2026-05-28T14:29:58Z</time>
      </trkpt>
      <trkpt lat="48.39306" lon="7.278">
        <ele>1001.2361</ele>
        <time>2026-05-28T14:30:02Z</time>
      </trkpt>
      <trkpt lat="48.39302" lon="7.27794">
        <ele>1001.2361</ele>
        <time>2026-05-28T14:30:08Z</time>
      </trkpt>
      <trkpt lat="48.39301" lon="7.27787">
        <ele>1001.2361</ele>
        <time>2026-05-28T14:30:13Z</time>
      </trkpt>
      <trkpt lat="48.39298" lon="7.27781">
        <ele>1001.2361</ele>
        <time>2026-05-28T14:30:18Z</time>
      </trkpt>
      <trkpt lat="48.39297" lon="7.27774">
        <ele>1001.2361</ele>
        <time>2026-05-28T14:30:22Z</time>
      </trkpt>
      <trkpt lat="48.39293" lon="7.27768">
        <ele>1001.2361</ele>
        <time>2026-05-28T14:30:27Z</time>
      </trkpt>
      <trkpt lat="48.39291" lon="7.27762">
        <ele>1001.2361</ele>
        <time>2026-05-28T14:30:32Z</time>
      </trkpt>
      <trkpt lat="48.3929" lon="7.27755">
        <ele>1003.24664</ele>
        <time>2026-05-28T14:30:45Z</time>
      </trkpt>
      <trkpt lat="48.39287" lon="7.27748">
        <ele>1005.25714</ele>
        <time>2026-05-28T14:30:50Z</time>
      </trkpt>
      <trkpt lat="48.39285" lon="7.27742">
        <ele>1007.2677</ele>
        <time>2026-05-28T14:30:54Z</time>
      </trkpt>
      <trkpt lat="48.39283" lon="7.27736">
        <ele>1009.2782</ele>
        <time>2026-05-28T14:30:58Z</time>
      </trkpt>
      <trkpt lat="48.39281" lon="7.2773">
        <ele>1011.28876</ele>
        <time>2026-05-28T14:31:02Z</time>
      </trkpt>
      <trkpt lat="48.39278" lon="7.27722">
        <ele>1011.28876</ele>
        <time>2026-05-28T14:31:07Z</time>
      </trkpt>
      <trkpt lat="48.39276" lon="7.27716">
        <ele>1011.28876</ele>
        <time>2026-05-28T14:31:11Z</time>
      </trkpt>
      <trkpt lat="48.39271" lon="7.27715">
        <ele>1011.28876</ele>
        <time>2026-05-28T14:31:15Z</time>
      </trkpt>
      <trkpt lat="48.39268" lon="7.27709">
        <ele>1011.28876</ele>
        <time>2026-05-28T14:31:20Z</time>
      </trkpt>
      <trkpt lat="48.39266" lon="7.27703">
        <ele>1011.28876</ele>
        <time>2026-05-28T14:31:25Z</time>
      </trkpt>
      <trkpt lat="48.39263" lon="7.27696">
        <ele>1011.28876</ele>
        <time>2026-05-28T14:31:30Z</time>
      </trkpt>
      <trkpt lat="48.39261" lon="7.2769">
        <ele>1011.28876</ele>
        <time>2026-05-28T14:31:34Z</time>
      </trkpt>
      <trkpt lat="48.39257" lon="7.27685">
        <ele>1011.28876</ele>
        <time>2026-05-28T14:31:39Z</time>
      </trkpt>
      <trkpt lat="48.39255" lon="7.27677">
        <ele>1011.28876</ele>
        <time>2026-05-28T14:31:44Z</time>
      </trkpt>
      <trkpt lat="48.39253" lon="7.27671">
        <ele>1011.28876</ele>
        <time>2026-05-28T14:31:49Z</time>
      </trkpt>
      <trkpt lat="48.39249" lon="7.27665">
        <ele>1011.28876</ele>
        <time>2026-05-28T14:31:54Z</time>
      </trkpt>
      <trkpt lat="48.39247" lon="7.27658">
        <ele>1011.28876</ele>
        <time>2026-05-28T14:32:00Z</time>
      </trkpt>
      <trkpt lat="48.39245" lon="7.27651">
        <ele>1011.28876</ele>
        <time>2026-05-28T14:32:05Z</time>
      </trkpt>
      <trkpt lat="48.39241" lon="7.27645">
        <ele>1011.28876</ele>
        <time>2026-05-28T14:32:11Z</time>
      </trkpt>
      <trkpt lat="48.39239" lon="7.27639">
        <ele>1011.28876</ele>
        <time>2026-05-28T14:32:21Z</time>
      </trkpt>
      <trkpt lat="48.39237" lon="7.27633">
        <ele>1011.28876</ele>
        <time>2026-05-28T14:32:27Z</time>
      </trkpt>
      <trkpt lat="48.39235" lon="7.27627">
        <ele>1011.28876</ele>
        <time>2026-05-28T14:32:34Z</time>
      </trkpt>
      <trkpt lat="48.39233" lon="7.27621">
        <ele>1011.28876</ele>
        <time>2026-05-28T14:32:39Z</time>
      </trkpt>
      <trkpt lat="48.3923" lon="7.27615">
        <ele>1011.28876</ele>
        <time>2026-05-28T14:32:44Z</time>
      </trkpt>
      <trkpt lat="48.39227" lon="7.27609">
        <ele>1011.28876</ele>
        <time>2026-05-28T14:32:49Z</time>
      </trkpt>
      <trkpt lat="48.39225" lon="7.27603">
        <ele>1011.28876</ele>
        <time>2026-05-28T14:32:54Z</time>
      </trkpt>
      <trkpt lat="48.39222" lon="7.27596">
        <ele>1011.28876</ele>
        <time>2026-05-28T14:32:59Z</time>
      </trkpt>
      <trkpt lat="48.3922" lon="7.27589">
        <ele>1011.28876</ele>
        <time>2026-05-28T14:33:04Z</time>
      </trkpt>
      <trkpt lat="48.39217" lon="7.27583">
        <ele>1013.35693</ele>
        <time>2026-05-28T14:33:09Z</time>
      </trkpt>
      <trkpt lat="48.39215" lon="7.27577">
        <ele>1015.4251</ele>
        <time>2026-05-28T14:33:14Z</time>
      </trkpt>
      <trkpt lat="48.39213" lon="7.2757">
        <ele>1017.4932</ele>
        <time>2026-05-28T14:33:19Z</time>
      </trkpt>
      <trkpt lat="48.39212" lon="7.27563">
        <ele>1019.5614</ele>
        <time>2026-05-28T14:33:24Z</time>
      </trkpt>
      <trkpt lat="48.39209" lon="7.27556">
        <ele>1021.6296</ele>
        <time>2026-05-28T14:33:30Z</time>
      </trkpt>
      <trkpt lat="48.39208" lon="7.2755">
        <ele>1021.6296</ele>
        <time>2026-05-28T14:33:36Z</time>
      </trkpt>
      <trkpt lat="48.39206" lon="7.27543">
        <ele>1021.6296</ele>
        <time>2026-05-28T14:33:41Z</time>
      </trkpt>
      <trkpt lat="48.39204" lon="7.27536">
        <ele>1021.6296</ele>
        <time>2026-05-28T14:33:46Z</time>
      </trkpt>
      <trkpt lat="48.39202" lon="7.27529">
        <ele>1021.6296</ele>
        <time>2026-05-28T14:33:51Z</time>
      </trkpt>
      <trkpt lat="48.39199" lon="7.27522">
        <ele>1021.6296</ele>
        <time>2026-05-28T14:33:56Z</time>
      </trkpt>
      <trkpt lat="48.39197" lon="7.27516">
        <ele>1021.6296</ele>
        <time>2026-05-28T14:34:02Z</time>
      </trkpt>
      <trkpt lat="48.39194" lon="7.2751">
        <ele>1021.6296</ele>
        <time>2026-05-28T14:34:06Z</time>
      </trkpt>
      <trkpt lat="48.39191" lon="7.27504">
        <ele>1021.6296</ele>
        <time>2026-05-28T14:34:11Z</time>
      </trkpt>
      <trkpt lat="48.39188" lon="7.27499">
        <ele>1021.6296</ele>
        <time>2026-05-28T14:34:16Z</time>
      </trkpt>
      <trkpt lat="48.39184" lon="7.27494">
        <ele>1021.6296</ele>
        <time>2026-05-28T14:34:21Z</time>
      </trkpt>
      <trkpt lat="48.3918" lon="7.27488">
        <ele>1021.6296</ele>
        <time>2026-05-28T14:34:26Z</time>
      </trkpt>
      <trkpt lat="48.39177" lon="7.27484">
        <ele>1021.6296</ele>
        <time>2026-05-28T14:34:30Z</time>
      </trkpt>
      <trkpt lat="48.39172" lon="7.2748">
        <ele>1021.6296</ele>
        <time>2026-05-28T14:34:36Z</time>
      </trkpt>
      <trkpt lat="48.39169" lon="7.27475">
        <ele>1021.6296</ele>
        <time>2026-05-28T14:34:41Z</time>
      </trkpt>
      <trkpt lat="48.39165" lon="7.2747">
        <ele>1021.6296</ele>
        <time>2026-05-28T14:34:46Z</time>
      </trkpt>
      <trkpt lat="48.39162" lon="7.27465">
        <ele>1021.6296</ele>
        <time>2026-05-28T14:34:50Z</time>
      </trkpt>
      <trkpt lat="48.39158" lon="7.27459">
        <ele>1021.6296</ele>
        <time>2026-05-28T14:34:55Z</time>
      </trkpt>
      <trkpt lat="48.39154" lon="7.27454">
        <ele>1021.6296</ele>
        <time>2026-05-28T14:34:59Z</time>
      </trkpt>
      <trkpt lat="48.39151" lon="7.27448">
        <ele>1021.6296</ele>
        <time>2026-05-28T14:35:03Z</time>
      </trkpt>
      <trkpt lat="48.39148" lon="7.27442">
        <ele>1021.6296</ele>
        <time>2026-05-28T14:35:08Z</time>
      </trkpt>
      <trkpt lat="48.39145" lon="7.27437">
        <ele>1021.6296</ele>
        <time>2026-05-28T14:35:13Z</time>
      </trkpt>
      <trkpt lat="48.39141" lon="7.27431">
        <ele>1021.6296</ele>
        <time>2026-05-28T14:35:18Z</time>
      </trkpt>
      <trkpt lat="48.39138" lon="7.27425">
        <ele>1021.6296</ele>
        <time>2026-05-28T14:35:23Z</time>
      </trkpt>
      <trkpt lat="48.39136" lon="7.27419">
        <ele>1021.6296</ele>
        <time>2026-05-28T14:35:28Z</time>
      </trkpt>
      <trkpt lat="48.39133" lon="7.27414">
        <ele>1023.63855</ele>
        <time>2026-05-28T14:35:32Z</time>
      </trkpt>
      <trkpt lat="48.3913" lon="7.27408">
        <ele>1025.6475</ele>
        <time>2026-05-28T14:35:37Z</time>
      </trkpt>
      <trkpt lat="48.39127" lon="7.27402">
        <ele>1027.6564</ele>
        <time>2026-05-28T14:35:42Z</time>
      </trkpt>
      <trkpt lat="48.39124" lon="7.27395">
        <ele>1029.6654</ele>
        <time>2026-05-28T14:35:49Z</time>
      </trkpt>
      <trkpt lat="48.39119" lon="7.27396">
        <ele>1031.6743</ele>
        <time>2026-05-28T14:36:54Z</time>
      </trkpt>
      <trkpt lat="48.39114" lon="7.27392">
        <ele>1031.6743</ele>
        <time>2026-05-28T14:37:03Z</time>
      </trkpt>
      <trkpt lat="48.39109" lon="7.2739">
        <ele>1031.6743</ele>
        <time>2026-05-28T14:37:10Z</time>
      </trkpt>
      <trkpt lat="48.39104" lon="7.27389">
        <ele>1031.6743</ele>
        <time>2026-05-28T14:37:15Z</time>
      </trkpt>
      <trkpt lat="48.391" lon="7.27385">
        <ele>1031.6743</ele>
        <time>2026-05-28T14:37:20Z</time>
      </trkpt>
      <trkpt lat="48.39097" lon="7.27379">
        <ele>1031.6743</ele>
        <time>2026-05-28T14:37:25Z</time>
      </trkpt>
      <trkpt lat="48.39091" lon="7.27375">
        <ele>1031.6743</ele>
        <time>2026-05-28T14:37:30Z</time>
      </trkpt>
      <trkpt lat="48.39087" lon="7.27372">
        <ele>1031.6743</ele>
        <time>2026-05-28T14:37:35Z</time>
      </trkpt>
      <trkpt lat="48.39082" lon="7.27371">
        <ele>1031.6743</ele>
        <time>2026-05-28T14:37:38Z</time>
      </trkpt>
      <trkpt lat="48.39076" lon="7.27369">
        <ele>1031.6743</ele>
        <time>2026-05-28T14:37:44Z</time>
      </trkpt>
      <trkpt lat="48.39071" lon="7.27367">
        <ele>1031.6743</ele>
        <time>2026-05-28T14:37:49Z</time>
      </trkpt>
      <trkpt lat="48.39067" lon="7.27365">
        <ele>1031.6743</ele>
        <time>2026-05-28T14:37:53Z</time>
      </trkpt>
      <trkpt lat="48.39062" lon="7.27363">
        <ele>1031.6743</ele>
        <time>2026-05-28T14:38:00Z</time>
      </trkpt>
      <trkpt lat="48.39058" lon="7.2736">
        <ele>1031.6743</ele>
        <time>2026-05-28T14:38:04Z</time>
      </trkpt>
      <trkpt lat="48.39053" lon="7.27358">
        <ele>1031.6743</ele>
        <time>2026-05-28T14:38:10Z</time>
      </trkpt>
      <trkpt lat="48.39048" lon="7.27355">
        <ele>1031.6743</ele>
        <time>2026-05-28T14:38:16Z</time>
      </trkpt>
      <trkpt lat="48.39043" lon="7.27351">
        <ele>1031.6743</ele>
        <time>2026-05-28T14:38:21Z</time>
      </trkpt>
      <trkpt lat="48.39039" lon="7.27349">
        <ele>1031.6743</ele>
        <time>2026-05-28T14:38:27Z</time>
      </trkpt>
      <trkpt lat="48.39035" lon="7.27345">
        <ele>1031.6743</ele>
        <time>2026-05-28T14:38:32Z</time>
      </trkpt>
      <trkpt lat="48.39031" lon="7.27342">
        <ele>1031.6743</ele>
        <time>2026-05-28T14:38:38Z</time>
      </trkpt>
      <trkpt lat="48.39026" lon="7.27339">
        <ele>1031.6743</ele>
        <time>2026-05-28T14:38:43Z</time>
      </trkpt>
      <trkpt lat="48.39021" lon="7.27336">
        <ele>1031.6743</ele>
        <time>2026-05-28T14:38:47Z</time>
      </trkpt>
      <trkpt lat="48.39018" lon="7.27333">
        <ele>1031.6743</ele>
        <time>2026-05-28T14:38:52Z</time>
      </trkpt>
      <trkpt lat="48.39013" lon="7.27329">
        <ele>1031.6743</ele>
        <time>2026-05-28T14:38:56Z</time>
      </trkpt>
      <trkpt lat="48.39008" lon="7.27325">
        <ele>1031.6743</ele>
        <time>2026-05-28T14:39:01Z</time>
      </trkpt>
      <trkpt lat="48.39004" lon="7.27322">
        <ele>1031.6743</ele>
        <time>2026-05-28T14:39:06Z</time>
      </trkpt>
      <trkpt lat="48.39" lon="7.27319">
        <ele>1031.6743</ele>
        <time>2026-05-28T14:39:10Z</time>
      </trkpt>
      <trkpt lat="48.38996" lon="7.27315">
        <ele>1031.6743</ele>
        <time>2026-05-28T14:39:14Z</time>
      </trkpt>
      <trkpt lat="48.38992" lon="7.27312">
        <ele>1029.5791</ele>
        <time>2026-05-28T14:39:19Z</time>
      </trkpt>
      <trkpt lat="48.38987" lon="7.27307">
        <ele>1027.4839</ele>
        <time>2026-05-28T14:39:26Z</time>
      </trkpt>
      <trkpt lat="48.38983" lon="7.27302">
        <ele>1025.3885</ele>
        <time>2026-05-28T14:39:31Z</time>
      </trkpt>
      <trkpt lat="48.38979" lon="7.27297">
        <ele>1023.29333</ele>
        <time>2026-05-28T14:39:37Z</time>
      </trkpt>
      <trkpt lat="48.38976" lon="7.27292">
        <ele>1021.1981</ele>
        <time>2026-05-28T14:39:44Z</time>
      </trkpt>
      <trkpt lat="48.38972" lon="7.27288">
        <ele>1021.1981</ele>
        <time>2026-05-28T14:39:49Z</time>
      </trkpt>
      <trkpt lat="48.38968" lon="7.27282">
        <ele>1021.1981</ele>
        <time>2026-05-28T14:39:55Z</time>
      </trkpt>
      <trkpt lat="48.38964" lon="7.27279">
        <ele>1021.1981</ele>
        <time>2026-05-28T14:40:00Z</time>
      </trkpt>
      <trkpt lat="48.38959" lon="7.27277">
        <ele>1021.1981</ele>
        <time>2026-05-28T14:40:04Z</time>
      </trkpt>
      <trkpt lat="48.38953" lon="7.27278">
        <ele>1021.1981</ele>
        <time>2026-05-28T14:40:09Z</time>
      </trkpt>
      <trkpt lat="48.38948" lon="7.2728">
        <ele>1021.1981</ele>
        <time>2026-05-28T14:40:28Z</time>
      </trkpt>
      <trkpt lat="48.38944" lon="7.27285">
        <ele>1021.1981</ele>
        <time>2026-05-28T14:40:35Z</time>
      </trkpt>
      <trkpt lat="48.3894" lon="7.2729">
        <ele>1021.1981</ele>
        <time>2026-05-28T14:40:40Z</time>
      </trkpt>
      <trkpt lat="48.38936" lon="7.27295">
        <ele>1021.1981</ele>
        <time>2026-05-28T14:40:45Z</time>
      </trkpt>
      <trkpt lat="48.38932" lon="7.273">
        <ele>1021.1981</ele>
        <time>2026-05-28T14:40:50Z</time>
      </trkpt>
      <trkpt lat="48.38929" lon="7.27305">
        <ele>1021.1981</ele>
        <time>2026-05-28T14:40:55Z</time>
      </trkpt>
      <trkpt lat="48.38925" lon="7.27309">
        <ele>1018.97107</ele>
        <time>2026-05-28T14:41:06Z</time>
      </trkpt>
      <trkpt lat="48.38921" lon="7.27314">
        <ele>1016.74396</ele>
        <time>2026-05-28T14:41:18Z</time>
      </trkpt>
      <trkpt lat="48.38918" lon="7.2732">
        <ele>1014.5169</ele>
        <time>2026-05-28T14:41:25Z</time>
      </trkpt>
      <trkpt lat="48.38915" lon="7.27325">
        <ele>1012.2898</ele>
        <time>2026-05-28T14:41:34Z</time>
      </trkpt>
      <trkpt lat="48.38912" lon="7.27331">
        <ele>1010.06274</ele>
        <time>2026-05-28T14:43:04Z</time>
      </trkpt>
      <trkpt lat="48.38912" lon="7.27338">
        <ele>1010.06274</ele>
        <time>2026-05-28T14:43:10Z</time>
      </trkpt>
      <trkpt lat="48.38912" lon="7.27346">
        <ele>1010.06274</ele>
        <time>2026-05-28T14:43:16Z</time>
      </trkpt>
      <trkpt lat="48.38913" lon="7.27353">
        <ele>1010.06274</ele>
        <time>2026-05-28T14:43:24Z</time>
      </trkpt>
      <trkpt lat="48.38913" lon="7.2736">
        <ele>1010.06274</ele>
        <time>2026-05-28T14:43:29Z</time>
      </trkpt>
      <trkpt lat="48.38913" lon="7.27368">
        <ele>1010.06274</ele>
        <time>2026-05-28T14:43:34Z</time>
      </trkpt>
      <trkpt lat="48.3891" lon="7.27375">
        <ele>1010.06274</ele>
        <time>2026-05-28T14:43:40Z</time>
      </trkpt>
      <trkpt lat="48.38906" lon="7.2738">
        <ele>1010.06274</ele>
        <time>2026-05-28T14:43:45Z</time>
      </trkpt>
      <trkpt lat="48.38903" lon="7.27385">
        <ele>1010.06274</ele>
        <time>2026-05-28T14:43:51Z</time>
      </trkpt>
      <trkpt lat="48.389" lon="7.27393">
        <ele>1007.9961</ele>
        <time>2026-05-28T14:43:54Z</time>
      </trkpt>
      <trkpt lat="48.38897" lon="7.274">
        <ele>1005.9294</ele>
        <time>2026-05-28T14:44:08Z</time>
      </trkpt>
      <trkpt lat="48.38894" lon="7.27407">
        <ele>1003.86273</ele>
        <time>2026-05-28T14:44:13Z</time>
      </trkpt>
      <trkpt lat="48.38891" lon="7.27412">
        <ele>1001.796</ele>
        <time>2026-05-28T14:44:19Z</time>
      </trkpt>
      <trkpt lat="48.38888" lon="7.27419">
        <ele>999.7294</ele>
        <time>2026-05-28T14:44:25Z</time>
      </trkpt>
      <trkpt lat="48.38885" lon="7.27425">
        <ele>999.7294</ele>
        <time>2026-05-28T14:44:30Z</time>
      </trkpt>
      <trkpt lat="48.38882" lon="7.27431">
        <ele>999.7294</ele>
        <time>2026-05-28T14:44:34Z</time>
      </trkpt>
      <trkpt lat="48.38879" lon="7.27436">
        <ele>999.7294</ele>
        <time>2026-05-28T14:44:38Z</time>
      </trkpt>
      <trkpt lat="48.38876" lon="7.27442">
        <ele>999.7294</ele>
        <time>2026-05-28T14:44:43Z</time>
      </trkpt>
      <trkpt lat="48.38873" lon="7.27447">
        <ele>999.7294</ele>
        <time>2026-05-28T14:44:48Z</time>
      </trkpt>
      <trkpt lat="48.3887" lon="7.27453">
        <ele>999.7294</ele>
        <time>2026-05-28T14:44:53Z</time>
      </trkpt>
      <trkpt lat="48.38867" lon="7.27459">
        <ele>999.7294</ele>
        <time>2026-05-28T14:44:57Z</time>
      </trkpt>
      <trkpt lat="48.38864" lon="7.27465">
        <ele>999.7294</ele>
        <time>2026-05-28T14:45:00Z</time>
      </trkpt>
      <trkpt lat="48.38861" lon="7.27471">
        <ele>999.7294</ele>
        <time>2026-05-28T14:45:05Z</time>
      </trkpt>
      <trkpt lat="48.38858" lon="7.27477">
        <ele>999.7294</ele>
        <time>2026-05-28T14:45:10Z</time>
      </trkpt>
      <trkpt lat="48.38855" lon="7.27482">
        <ele>999.7294</ele>
        <time>2026-05-28T14:45:15Z</time>
      </trkpt>
      <trkpt lat="48.38851" lon="7.27487">
        <ele>999.7294</ele>
        <time>2026-05-28T14:45:20Z</time>
      </trkpt>
      <trkpt lat="48.38848" lon="7.27493">
        <ele>999.7294</ele>
        <time>2026-05-28T14:45:25Z</time>
      </trkpt>
      <trkpt lat="48.38845" lon="7.27498">
        <ele>999.7294</ele>
        <time>2026-05-28T14:45:31Z</time>
      </trkpt>
      <trkpt lat="48.38842" lon="7.27503">
        <ele>999.7294</ele>
        <time>2026-05-28T14:45:35Z</time>
      </trkpt>
      <trkpt lat="48.38838" lon="7.27509">
        <ele>999.7294</ele>
        <time>2026-05-28T14:45:40Z</time>
      </trkpt>
      <trkpt lat="48.38835" lon="7.27516">
        <ele>999.7294</ele>
        <time>2026-05-28T14:45:45Z</time>
      </trkpt>
      <trkpt lat="48.38832" lon="7.27521">
        <ele>999.7294</ele>
        <time>2026-05-28T14:45:49Z</time>
      </trkpt>
      <trkpt lat="48.38828" lon="7.27527">
        <ele>997.58966</ele>
        <time>2026-05-28T14:45:57Z</time>
      </trkpt>
      <trkpt lat="48.38825" lon="7.27532">
        <ele>995.44995</ele>
        <time>2026-05-28T14:46:00Z</time>
      </trkpt>
      <trkpt lat="48.38822" lon="7.27538">
        <ele>993.3103</ele>
        <time>2026-05-28T14:46:05Z</time>
      </trkpt>
      <trkpt lat="48.38818" lon="7.27544">
        <ele>991.1706</ele>
        <time>2026-05-28T14:46:09Z</time>
      </trkpt>
      <trkpt lat="48.38815" lon="7.27549">
        <ele>989.0309</ele>
        <time>2026-05-28T14:46:13Z</time>
      </trkpt>
      <trkpt lat="48.38811" lon="7.27554">
        <ele>989.0309</ele>
        <time>2026-05-28T14:46:18Z</time>
      </trkpt>
      <trkpt lat="48.38807" lon="7.27557">
        <ele>989.0309</ele>
        <time>2026-05-28T14:46:29Z</time>
      </trkpt>
      <trkpt lat="48.38802" lon="7.27561">
        <ele>989.0309</ele>
        <time>2026-05-28T14:46:34Z</time>
      </trkpt>
      <trkpt lat="48.38797" lon="7.27566">
        <ele>989.0309</ele>
        <time>2026-05-28T14:46:39Z</time>
      </trkpt>
      <trkpt lat="48.38792" lon="7.2757">
        <ele>989.0309</ele>
        <time>2026-05-28T14:46:45Z</time>
      </trkpt>
      <trkpt lat="48.38788" lon="7.27574">
        <ele>989.0309</ele>
        <time>2026-05-28T14:46:49Z</time>
      </trkpt>
      <trkpt lat="48.38783" lon="7.27575">
        <ele>989.0309</ele>
        <time>2026-05-28T14:46:54Z</time>
      </trkpt>
      <trkpt lat="48.38779" lon="7.2758">
        <ele>989.0309</ele>
        <time>2026-05-28T14:47:01Z</time>
      </trkpt>
      <trkpt lat="48.38774" lon="7.27583">
        <ele>989.0309</ele>
        <time>2026-05-28T14:47:13Z</time>
      </trkpt>
      <trkpt lat="48.3877" lon="7.27586">
        <ele>989.0309</ele>
        <time>2026-05-28T14:47:17Z</time>
      </trkpt>
      <trkpt lat="48.38765" lon="7.27589">
        <ele>989.0309</ele>
        <time>2026-05-28T14:47:23Z</time>
      </trkpt>
      <trkpt lat="48.38761" lon="7.27592">
        <ele>989.0309</ele>
        <time>2026-05-28T14:47:29Z</time>
      </trkpt>
      <trkpt lat="48.38757" lon="7.27595">
        <ele>989.0309</ele>
        <time>2026-05-28T14:47:34Z</time>
      </trkpt>
      <trkpt lat="48.38752" lon="7.27598">
        <ele>989.0309</ele>
        <time>2026-05-28T14:47:39Z</time>
      </trkpt>
      <trkpt lat="48.38748" lon="7.27601">
        <ele>989.0309</ele>
        <time>2026-05-28T14:47:47Z</time>
      </trkpt>
      <trkpt lat="48.38743" lon="7.27604">
        <ele>989.0309</ele>
        <time>2026-05-28T14:47:52Z</time>
      </trkpt>
      <trkpt lat="48.38739" lon="7.27608">
        <ele>989.0309</ele>
        <time>2026-05-28T14:47:57Z</time>
      </trkpt>
      <trkpt lat="48.38734" lon="7.27611">
        <ele>989.0309</ele>
        <time>2026-05-28T14:48:11Z</time>
      </trkpt>
      <trkpt lat="48.38729" lon="7.27615">
        <ele>989.0309</ele>
        <time>2026-05-28T14:48:15Z</time>
      </trkpt>
      <trkpt lat="48.38725" lon="7.27618">
        <ele>989.0309</ele>
        <time>2026-05-28T14:48:19Z</time>
      </trkpt>
      <trkpt lat="48.3872" lon="7.27623">
        <ele>989.0309</ele>
        <time>2026-05-28T14:48:23Z</time>
      </trkpt>
      <trkpt lat="48.38715" lon="7.27627">
        <ele>989.0309</ele>
        <time>2026-05-28T14:48:28Z</time>
      </trkpt>
      <trkpt lat="48.3871" lon="7.27631">
        <ele>989.0309</ele>
        <time>2026-05-28T14:48:33Z</time>
      </trkpt>
      <trkpt lat="48.38706" lon="7.27635">
        <ele>989.0309</ele>
        <time>2026-05-28T14:48:37Z</time>
      </trkpt>
      <trkpt lat="48.38701" lon="7.27638">
        <ele>987.01184</ele>
        <time>2026-05-28T14:48:42Z</time>
      </trkpt>
      <trkpt lat="48.38697" lon="7.27642">
        <ele>984.99286</ele>
        <time>2026-05-28T14:48:47Z</time>
      </trkpt>
      <trkpt lat="48.38693" lon="7.27646">
        <ele>982.9738</ele>
        <time>2026-05-28T14:48:51Z</time>
      </trkpt>
      <trkpt lat="48.38688" lon="7.27651">
        <ele>980.95483</ele>
        <time>2026-05-28T14:48:57Z</time>
      </trkpt>
      <trkpt lat="48.38684" lon="7.27654">
        <ele>978.9358</ele>
        <time>2026-05-28T14:49:03Z</time>
      </trkpt>
      <trkpt lat="48.38679" lon="7.27658">
        <ele>978.9358</ele>
        <time>2026-05-28T14:49:09Z</time>
      </trkpt>
      <trkpt lat="48.38675" lon="7.27663">
        <ele>978.9358</ele>
        <time>2026-05-28T14:49:15Z</time>
      </trkpt>
      <trkpt lat="48.3867" lon="7.27667">
        <ele>978.9358</ele>
        <time>2026-05-28T14:49:22Z</time>
      </trkpt>
      <trkpt lat="48.38667" lon="7.27672">
        <ele>976.71747</ele>
        <time>2026-05-28T14:49:27Z</time>
      </trkpt>
      <trkpt lat="48.38663" lon="7.27676">
        <ele>974.49915</ele>
        <time>2026-05-28T14:49:32Z</time>
      </trkpt>
      <trkpt lat="48.38659" lon="7.27679">
        <ele>972.2808</ele>
        <time>2026-05-28T14:49:37Z</time>
      </trkpt>
      <trkpt lat="48.38654" lon="7.27683">
        <ele>970.0625</ele>
        <time>2026-05-28T14:49:43Z</time>
      </trkpt>
      <trkpt lat="48.38648" lon="7.27684">
        <ele>967.8442</ele>
        <time>2026-05-28T14:49:47Z</time>
      </trkpt>
      <trkpt lat="48.38643" lon="7.27687">
        <ele>967.8442</ele>
        <time>2026-05-28T14:49:53Z</time>
      </trkpt>
      <trkpt lat="48.38638" lon="7.27687">
        <ele>967.8442</ele>
        <time>2026-05-28T14:49:57Z</time>
      </trkpt>
      <trkpt lat="48.38633" lon="7.27688">
        <ele>967.8442</ele>
        <time>2026-05-28T14:50:01Z</time>
      </trkpt>
      <trkpt lat="48.38628" lon="7.27684">
        <ele>967.8442</ele>
        <time>2026-05-28T14:50:07Z</time>
      </trkpt>
      <trkpt lat="48.38625" lon="7.27678">
        <ele>967.8442</ele>
        <time>2026-05-28T14:50:12Z</time>
      </trkpt>
      <trkpt lat="48.38625" lon="7.27686">
        <ele>967.8442</ele>
        <time>2026-05-28T14:50:23Z</time>
      </trkpt>
      <trkpt lat="48.3862" lon="7.27685">
        <ele>967.8442</ele>
        <time>2026-05-28T14:50:39Z</time>
      </trkpt>
      <trkpt lat="48.38618" lon="7.27674">
        <ele>967.8442</ele>
        <time>2026-05-28T14:50:40Z</time>
      </trkpt>
      <trkpt lat="48.38614" lon="7.27671">
        <ele>967.8442</ele>
        <time>2026-05-28T14:50:45Z</time>
      </trkpt>
      <trkpt lat="48.38609" lon="7.27669">
        <ele>967.8442</ele>
        <time>2026-05-28T14:50:49Z</time>
      </trkpt>
      <trkpt lat="48.38605" lon="7.27666">
        <ele>967.8442</ele>
        <time>2026-05-28T14:50:53Z</time>
      </trkpt>
      <trkpt lat="48.386" lon="7.27667">
        <ele>967.8442</ele>
        <time>2026-05-28T14:50:57Z</time>
      </trkpt>
      <trkpt lat="48.38596" lon="7.27662">
        <ele>967.8442</ele>
        <time>2026-05-28T14:51:01Z</time>
      </trkpt>
      <trkpt lat="48.38592" lon="7.27661">
        <ele>967.8442</ele>
        <time>2026-05-28T14:51:06Z</time>
      </trkpt>
      <trkpt lat="48.38587" lon="7.27658">
        <ele>967.8442</ele>
        <time>2026-05-28T14:51:10Z</time>
      </trkpt>
      <trkpt lat="48.38583" lon="7.27655">
        <ele>967.8442</ele>
        <time>2026-05-28T14:51:14Z</time>
      </trkpt>
      <trkpt lat="48.38578" lon="7.27653">
        <ele>967.8442</ele>
        <time>2026-05-28T14:51:20Z</time>
      </trkpt>
      <trkpt lat="48.38572" lon="7.2765">
        <ele>967.8442</ele>
        <time>2026-05-28T14:51:25Z</time>
      </trkpt>
      <trkpt lat="48.38567" lon="7.27646">
        <ele>967.8442</ele>
        <time>2026-05-28T14:51:30Z</time>
      </trkpt>
      <trkpt lat="48.38562" lon="7.27644">
        <ele>967.8442</ele>
        <time>2026-05-28T14:51:34Z</time>
      </trkpt>
      <trkpt lat="48.38558" lon="7.27639">
        <ele>967.8442</ele>
        <time>2026-05-28T14:51:38Z</time>
      </trkpt>
      <trkpt lat="48.38552" lon="7.27636">
        <ele>967.8442</ele>
        <time>2026-05-28T14:51:44Z</time>
      </trkpt>
      <trkpt lat="48.38549" lon="7.27631">
        <ele>967.8442</ele>
        <time>2026-05-28T14:51:49Z</time>
      </trkpt>
      <trkpt lat="48.38545" lon="7.27627">
        <ele>967.8442</ele>
        <time>2026-05-28T14:51:53Z</time>
      </trkpt>
      <trkpt lat="48.3854" lon="7.27623">
        <ele>967.8442</ele>
        <time>2026-05-28T14:51:58Z</time>
      </trkpt>
      <trkpt lat="48.38537" lon="7.27618">
        <ele>967.8442</ele>
        <time>2026-05-28T14:52:03Z</time>
      </trkpt>
      <trkpt lat="48.38533" lon="7.27613">
        <ele>967.8442</ele>
        <time>2026-05-28T14:52:08Z</time>
      </trkpt>
      <trkpt lat="48.3853" lon="7.27607">
        <ele>967.8442</ele>
        <time>2026-05-28T14:52:13Z</time>
      </trkpt>
      <trkpt lat="48.38526" lon="7.27602">
        <ele>967.8442</ele>
        <time>2026-05-28T14:52:17Z</time>
      </trkpt>
      <trkpt lat="48.38523" lon="7.27596">
        <ele>967.8442</ele>
        <time>2026-05-28T14:52:22Z</time>
      </trkpt>
      <trkpt lat="48.38519" lon="7.27591">
        <ele>967.8442</ele>
        <time>2026-05-28T14:52:26Z</time>
      </trkpt>
      <trkpt lat="48.38516" lon="7.27586">
        <ele>967.8442</ele>
        <time>2026-05-28T14:52:31Z</time>
      </trkpt>
      <trkpt lat="48.38512" lon="7.2758">
        <ele>967.8442</ele>
        <time>2026-05-28T14:52:37Z</time>
      </trkpt>
      <trkpt lat="48.38509" lon="7.27573">
        <ele>967.8442</ele>
        <time>2026-05-28T14:52:42Z</time>
      </trkpt>
      <trkpt lat="48.38507" lon="7.27566">
        <ele>967.8442</ele>
        <time>2026-05-28T14:52:47Z</time>
      </trkpt>
      <trkpt lat="48.38504" lon="7.2756">
        <ele>967.8442</ele>
        <time>2026-05-28T14:52:52Z</time>
      </trkpt>
      <trkpt lat="48.38502" lon="7.27553">
        <ele>967.8442</ele>
        <time>2026-05-28T14:52:57Z</time>
      </trkpt>
      <trkpt lat="48.38499" lon="7.27546">
        <ele>967.8442</ele>
        <time>2026-05-28T14:53:02Z</time>
      </trkpt>
      <trkpt lat="48.38498" lon="7.27539">
        <ele>967.8442</ele>
        <time>2026-05-28T14:53:07Z</time>
      </trkpt>
      <trkpt lat="48.38496" lon="7.27532">
        <ele>967.8442</ele>
        <time>2026-05-28T14:53:12Z</time>
      </trkpt>
      <trkpt lat="48.38495" lon="7.27525">
        <ele>967.8442</ele>
        <time>2026-05-28T14:53:17Z</time>
      </trkpt>
      <trkpt lat="48.38496" lon="7.27518">
        <ele>967.8442</ele>
        <time>2026-05-28T14:53:22Z</time>
      </trkpt>
      <trkpt lat="48.38498" lon="7.2751">
        <ele>967.8442</ele>
        <time>2026-05-28T14:53:27Z</time>
      </trkpt>
      <trkpt lat="48.38501" lon="7.27503">
        <ele>967.8442</ele>
        <time>2026-05-28T14:53:31Z</time>
      </trkpt>
      <trkpt lat="48.38503" lon="7.27498">
        <ele>967.8442</ele>
        <time>2026-05-28T14:53:36Z</time>
      </trkpt>
      <trkpt lat="48.38507" lon="7.27493">
        <ele>967.8442</ele>
        <time>2026-05-28T14:53:42Z</time>
      </trkpt>
      <trkpt lat="48.3851" lon="7.27487">
        <ele>967.8442</ele>
        <time>2026-05-28T14:53:50Z</time>
      </trkpt>
      <trkpt lat="48.38513" lon="7.27481">
        <ele>967.8442</ele>
        <time>2026-05-28T14:53:55Z</time>
      </trkpt>
      <trkpt lat="48.38516" lon="7.27475">
        <ele>967.8442</ele>
        <time>2026-05-28T14:54:00Z</time>
      </trkpt>
      <trkpt lat="48.3852" lon="7.27467">
        <ele>967.8442</ele>
        <time>2026-05-28T14:54:05Z</time>
      </trkpt>
      <trkpt lat="48.38523" lon="7.27462">
        <ele>967.8442</ele>
        <time>2026-05-28T14:54:10Z</time>
      </trkpt>
      <trkpt lat="48.38527" lon="7.27457">
        <ele>967.8442</ele>
        <time>2026-05-28T14:54:15Z</time>
      </trkpt>
      <trkpt lat="48.3853" lon="7.27452">
        <ele>967.8442</ele>
        <time>2026-05-28T14:54:21Z</time>
      </trkpt>
      <trkpt lat="48.38534" lon="7.27447">
        <ele>967.8442</ele>
        <time>2026-05-28T14:54:26Z</time>
      </trkpt>
      <trkpt lat="48.38538" lon="7.27443">
        <ele>967.8442</ele>
        <time>2026-05-28T14:54:30Z</time>
      </trkpt>
      <trkpt lat="48.38542" lon="7.27439">
        <ele>967.8442</ele>
        <time>2026-05-28T14:54:35Z</time>
      </trkpt>
      <trkpt lat="48.38546" lon="7.27435">
        <ele>967.8442</ele>
        <time>2026-05-28T14:54:39Z</time>
      </trkpt>
      <trkpt lat="48.3855" lon="7.2743">
        <ele>967.8442</ele>
        <time>2026-05-28T14:54:43Z</time>
      </trkpt>
      <trkpt lat="48.38554" lon="7.27425">
        <ele>967.8442</ele>
        <time>2026-05-28T14:54:48Z</time>
      </trkpt>
      <trkpt lat="48.38558" lon="7.2742">
        <ele>970.0705</ele>
        <time>2026-05-28T14:54:53Z</time>
      </trkpt>
      <trkpt lat="48.38562" lon="7.27417">
        <ele>972.29675</ele>
        <time>2026-05-28T14:54:57Z</time>
      </trkpt>
      <trkpt lat="48.38566" lon="7.27412">
        <ele>974.5231</ele>
        <time>2026-05-28T14:55:02Z</time>
      </trkpt>
      <trkpt lat="48.38569" lon="7.27406">
        <ele>976.7493</ele>
        <time>2026-05-28T14:55:07Z</time>
      </trkpt>
      <trkpt lat="48.38572" lon="7.27401">
        <ele>978.97565</ele>
        <time>2026-05-28T14:55:12Z</time>
      </trkpt>
      <trkpt lat="48.38576" lon="7.27395">
        <ele>978.97565</ele>
        <time>2026-05-28T14:55:18Z</time>
      </trkpt>
      <trkpt lat="48.38578" lon="7.2739">
        <ele>978.97565</ele>
        <time>2026-05-28T14:55:22Z</time>
      </trkpt>
      <trkpt lat="48.38582" lon="7.27383">
        <ele>978.97565</ele>
        <time>2026-05-28T14:55:29Z</time>
      </trkpt>
      <trkpt lat="48.38585" lon="7.27377">
        <ele>978.97565</ele>
        <time>2026-05-28T14:55:36Z</time>
      </trkpt>
      <trkpt lat="48.38588" lon="7.27371">
        <ele>978.97565</ele>
        <time>2026-05-28T14:55:40Z</time>
      </trkpt>
      <trkpt lat="48.3859" lon="7.27364">
        <ele>978.97565</ele>
        <time>2026-05-28T14:55:45Z</time>
      </trkpt>
      <trkpt lat="48.38592" lon="7.27356">
        <ele>981.00684</ele>
        <time>2026-05-28T14:55:50Z</time>
      </trkpt>
      <trkpt lat="48.38594" lon="7.27348">
        <ele>983.03796</ele>
        <time>2026-05-28T14:55:55Z</time>
      </trkpt>
      <trkpt lat="48.38594" lon="7.27341">
        <ele>985.06915</ele>
        <time>2026-05-28T14:56:01Z</time>
      </trkpt>
      <trkpt lat="48.38594" lon="7.27333">
        <ele>987.1003</ele>
        <time>2026-05-28T14:56:06Z</time>
      </trkpt>
      <trkpt lat="48.38594" lon="7.27325">
        <ele>989.1315</ele>
        <time>2026-05-28T14:56:13Z</time>
      </trkpt>
      <trkpt lat="48.38594" lon="7.27318">
        <ele>989.1315</ele>
        <time>2026-05-28T14:56:17Z</time>
      </trkpt>
      <trkpt lat="48.38594" lon="7.2731">
        <ele>989.1315</ele>
        <time>2026-05-28T14:56:23Z</time>
      </trkpt>
      <trkpt lat="48.38594" lon="7.27303">
        <ele>989.1315</ele>
        <time>2026-05-28T14:56:27Z</time>
      </trkpt>
      <trkpt lat="48.38593" lon="7.27295">
        <ele>989.1315</ele>
        <time>2026-05-28T14:56:32Z</time>
      </trkpt>
      <trkpt lat="48.38593" lon="7.27286">
        <ele>989.1315</ele>
        <time>2026-05-28T14:56:38Z</time>
      </trkpt>
      <trkpt lat="48.38592" lon="7.27279">
        <ele>989.1315</ele>
        <time>2026-05-28T14:56:44Z</time>
      </trkpt>
      <trkpt lat="48.38592" lon="7.27272">
        <ele>989.1315</ele>
        <time>2026-05-28T14:56:49Z</time>
      </trkpt>
      <trkpt lat="48.38592" lon="7.27263">
        <ele>989.1315</ele>
        <time>2026-05-28T14:56:54Z</time>
      </trkpt>
      <trkpt lat="48.38591" lon="7.27255">
        <ele>989.1315</ele>
        <time>2026-05-28T14:56:59Z</time>
      </trkpt>
      <trkpt lat="48.38593" lon="7.27248">
        <ele>989.1315</ele>
        <time>2026-05-28T14:57:14Z</time>
      </trkpt>
      <trkpt lat="48.38588" lon="7.27242">
        <ele>989.1315</ele>
        <time>2026-05-28T14:58:29Z</time>
      </trkpt>
      <trkpt lat="48.38585" lon="7.27247">
        <ele>989.1315</ele>
        <time>2026-05-28T14:58:53Z</time>
      </trkpt>
      <trkpt lat="48.3859" lon="7.27245">
        <ele>989.1315</ele>
        <time>2026-05-28T14:59:19Z</time>
      </trkpt>
      <trkpt lat="48.38587" lon="7.27252">
        <ele>989.1315</ele>
        <time>2026-05-28T14:59:29Z</time>
      </trkpt>
      <trkpt lat="48.3859" lon="7.27243">
        <ele>989.1315</ele>
        <time>2026-05-28T14:59:34Z</time>
      </trkpt>
      <trkpt lat="48.38591" lon="7.27237">
        <ele>989.1315</ele>
        <time>2026-05-28T14:59:37Z</time>
      </trkpt>
      <trkpt lat="48.38595" lon="7.2723">
        <ele>989.1315</ele>
        <time>2026-05-28T14:59:43Z</time>
      </trkpt>
      <trkpt lat="48.38595" lon="7.27222">
        <ele>989.1315</ele>
        <time>2026-05-28T14:59:52Z</time>
      </trkpt>
      <trkpt lat="48.38597" lon="7.27216">
        <ele>989.1315</ele>
        <time>2026-05-28T14:59:58Z</time>
      </trkpt>
      <trkpt lat="48.38599" lon="7.27209">
        <ele>989.1315</ele>
        <time>2026-05-28T15:00:03Z</time>
      </trkpt>
      <trkpt lat="48.38599" lon="7.27202">
        <ele>989.1315</ele>
        <time>2026-05-28T15:00:08Z</time>
      </trkpt>
      <trkpt lat="48.38601" lon="7.27194">
        <ele>989.1315</ele>
        <time>2026-05-28T15:00:14Z</time>
      </trkpt>
      <trkpt lat="48.38603" lon="7.27187">
        <ele>989.1315</ele>
        <time>2026-05-28T15:00:19Z</time>
      </trkpt>
      <trkpt lat="48.38604" lon="7.2718">
        <ele>989.1315</ele>
        <time>2026-05-28T15:00:25Z</time>
      </trkpt>
      <trkpt lat="48.38606" lon="7.27172">
        <ele>989.1315</ele>
        <time>2026-05-28T15:00:31Z</time>
      </trkpt>
      <trkpt lat="48.38607" lon="7.27164">
        <ele>989.1315</ele>
        <time>2026-05-28T15:00:37Z</time>
      </trkpt>
      <trkpt lat="48.38608" lon="7.27156">
        <ele>989.1315</ele>
        <time>2026-05-28T15:00:42Z</time>
      </trkpt>
      <trkpt lat="48.38609" lon="7.27148">
        <ele>989.1315</ele>
        <time>2026-05-28T15:00:50Z</time>
      </trkpt>
      <trkpt lat="48.38609" lon="7.2714">
        <ele>991.34607</ele>
        <time>2026-05-28T15:00:56Z</time>
      </trkpt>
      <trkpt lat="48.3861" lon="7.27133">
        <ele>993.56067</ele>
        <time>2026-05-28T15:01:02Z</time>
      </trkpt>
      <trkpt lat="48.3861" lon="7.27126">
        <ele>995.7753</ele>
        <time>2026-05-28T15:01:07Z</time>
      </trkpt>
      <trkpt lat="48.38611" lon="7.27119">
        <ele>997.9899</ele>
        <time>2026-05-28T15:01:12Z</time>
      </trkpt>
      <trkpt lat="48.38611" lon="7.27112">
        <ele>1000.2045</ele>
        <time>2026-05-28T15:01:17Z</time>
      </trkpt>
      <trkpt lat="48.38611" lon="7.27104">
        <ele>1000.2045</ele>
        <time>2026-05-28T15:01:23Z</time>
      </trkpt>
      <trkpt lat="48.38611" lon="7.27095">
        <ele>1000.2045</ele>
        <time>2026-05-28T15:01:28Z</time>
      </trkpt>
      <trkpt lat="48.38611" lon="7.27088">
        <ele>1000.2045</ele>
        <time>2026-05-28T15:01:33Z</time>
      </trkpt>
      <trkpt lat="48.38611" lon="7.27081">
        <ele>1000.2045</ele>
        <time>2026-05-28T15:01:38Z</time>
      </trkpt>
      <trkpt lat="48.38611" lon="7.27073">
        <ele>1000.2045</ele>
        <time>2026-05-28T15:01:42Z</time>
      </trkpt>
      <trkpt lat="48.3861" lon="7.27066">
        <ele>1000.2045</ele>
        <time>2026-05-28T15:01:48Z</time>
      </trkpt>
      <trkpt lat="48.38609" lon="7.27059">
        <ele>1000.2045</ele>
        <time>2026-05-28T15:01:53Z</time>
      </trkpt>
      <trkpt lat="48.38609" lon="7.27051">
        <ele>1000.2045</ele>
        <time>2026-05-28T15:01:59Z</time>
      </trkpt>
      <trkpt lat="48.38609" lon="7.27044">
        <ele>1000.2045</ele>
        <time>2026-05-28T15:02:04Z</time>
      </trkpt>
      <trkpt lat="48.38607" lon="7.27036">
        <ele>1000.2045</ele>
        <time>2026-05-28T15:02:10Z</time>
      </trkpt>
      <trkpt lat="48.38606" lon="7.27029">
        <ele>1002.3819</ele>
        <time>2026-05-28T15:02:16Z</time>
      </trkpt>
      <trkpt lat="48.38606" lon="7.27022">
        <ele>1004.5593</ele>
        <time>2026-05-28T15:02:21Z</time>
      </trkpt>
      <trkpt lat="48.38605" lon="7.27014">
        <ele>1006.7367</ele>
        <time>2026-05-28T15:02:26Z</time>
      </trkpt>
      <trkpt lat="48.38604" lon="7.27006">
        <ele>1008.9141</ele>
        <time>2026-05-28T15:02:33Z</time>
      </trkpt>
      <trkpt lat="48.38604" lon="7.26999">
        <ele>1011.0915</ele>
        <time>2026-05-28T15:02:37Z</time>
      </trkpt>
      <trkpt lat="48.38602" lon="7.26992">
        <ele>1011.0915</ele>
        <time>2026-05-28T15:02:42Z</time>
      </trkpt>
      <trkpt lat="48.386" lon="7.26984">
        <ele>1011.0915</ele>
        <time>2026-05-28T15:02:47Z</time>
      </trkpt>
      <trkpt lat="48.38599" lon="7.26977">
        <ele>1011.0915</ele>
        <time>2026-05-28T15:02:51Z</time>
      </trkpt>
      <trkpt lat="48.38597" lon="7.26971">
        <ele>1011.0915</ele>
        <time>2026-05-28T15:02:56Z</time>
      </trkpt>
      <trkpt lat="48.38596" lon="7.26963">
        <ele>1011.0915</ele>
        <time>2026-05-28T15:03:01Z</time>
      </trkpt>
      <trkpt lat="48.38594" lon="7.26956">
        <ele>1011.0915</ele>
        <time>2026-05-28T15:03:08Z</time>
      </trkpt>
      <trkpt lat="48.38596" lon="7.26948">
        <ele>1011.0915</ele>
        <time>2026-05-28T15:03:13Z</time>
      </trkpt>
      <trkpt lat="48.38599" lon="7.2694">
        <ele>1011.0915</ele>
        <time>2026-05-28T15:03:18Z</time>
      </trkpt>
      <trkpt lat="48.38598" lon="7.26932">
        <ele>1011.0915</ele>
        <time>2026-05-28T15:03:23Z</time>
      </trkpt>
      <trkpt lat="48.38598" lon="7.26924">
        <ele>1011.0915</ele>
        <time>2026-05-28T15:03:29Z</time>
      </trkpt>
      <trkpt lat="48.38598" lon="7.26917">
        <ele>1011.0915</ele>
        <time>2026-05-28T15:03:33Z</time>
      </trkpt>
      <trkpt lat="48.38598" lon="7.26908">
        <ele>1011.0915</ele>
        <time>2026-05-28T15:03:38Z</time>
      </trkpt>
      <trkpt lat="48.38598" lon="7.26901">
        <ele>1011.0915</ele>
        <time>2026-05-28T15:03:43Z</time>
      </trkpt>
      <trkpt lat="48.38598" lon="7.26893">
        <ele>1011.0915</ele>
        <time>2026-05-28T15:03:47Z</time>
      </trkpt>
      <trkpt lat="48.38598" lon="7.26886">
        <ele>1011.0915</ele>
        <time>2026-05-28T15:03:52Z</time>
      </trkpt>
      <trkpt lat="48.38599" lon="7.26878">
        <ele>1011.0915</ele>
        <time>2026-05-28T15:03:57Z</time>
      </trkpt>
      <trkpt lat="48.38601" lon="7.26871">
        <ele>1011.0915</ele>
        <time>2026-05-28T15:04:01Z</time>
      </trkpt>
      <trkpt lat="48.38603" lon="7.26864">
        <ele>1011.0915</ele>
        <time>2026-05-28T15:04:06Z</time>
      </trkpt>
      <trkpt lat="48.38605" lon="7.26856">
        <ele>1011.0915</ele>
        <time>2026-05-28T15:04:12Z</time>
      </trkpt>
      <trkpt lat="48.38607" lon="7.26849">
        <ele>1011.0915</ele>
        <time>2026-05-28T15:04:17Z</time>
      </trkpt>
      <trkpt lat="48.38609" lon="7.26841">
        <ele>1011.0915</ele>
        <time>2026-05-28T15:04:21Z</time>
      </trkpt>
      <trkpt lat="48.38611" lon="7.26834">
        <ele>1008.9779</ele>
        <time>2026-05-28T15:04:26Z</time>
      </trkpt>
      <trkpt lat="48.38614" lon="7.26826">
        <ele>1006.8643</ele>
        <time>2026-05-28T15:04:31Z</time>
      </trkpt>
      <trkpt lat="48.38615" lon="7.2682">
        <ele>1004.75073</ele>
        <time>2026-05-28T15:04:35Z</time>
      </trkpt>
      <trkpt lat="48.38619" lon="7.26812">
        <ele>1002.63715</ele>
        <time>2026-05-28T15:04:41Z</time>
      </trkpt>
      <trkpt lat="48.38619" lon="7.26805">
        <ele>1000.52356</ele>
        <time>2026-05-28T15:04:46Z</time>
      </trkpt>
      <trkpt lat="48.3862" lon="7.26798">
        <ele>1000.52356</ele>
        <time>2026-05-28T15:04:51Z</time>
      </trkpt>
      <trkpt lat="48.38622" lon="7.26791">
        <ele>1000.52356</ele>
        <time>2026-05-28T15:04:56Z</time>
      </trkpt>
      <trkpt lat="48.38625" lon="7.26785">
        <ele>1000.52356</ele>
        <time>2026-05-28T15:04:59Z</time>
      </trkpt>
      <trkpt lat="48.38627" lon="7.26778">
        <ele>1000.52356</ele>
        <time>2026-05-28T15:05:03Z</time>
      </trkpt>
      <trkpt lat="48.38628" lon="7.26772">
        <ele>1000.52356</ele>
        <time>2026-05-28T15:05:08Z</time>
      </trkpt>
      <trkpt lat="48.38631" lon="7.26766">
        <ele>1000.52356</ele>
        <time>2026-05-28T15:05:13Z</time>
      </trkpt>
      <trkpt lat="48.38635" lon="7.2676">
        <ele>1000.52356</ele>
        <time>2026-05-28T15:05:18Z</time>
      </trkpt>
      <trkpt lat="48.38637" lon="7.26754">
        <ele>1000.52356</ele>
        <time>2026-05-28T15:05:23Z</time>
      </trkpt>
      <trkpt lat="48.3864" lon="7.26746">
        <ele>1000.52356</ele>
        <time>2026-05-28T15:05:27Z</time>
      </trkpt>
      <trkpt lat="48.38642" lon="7.26739">
        <ele>1000.52356</ele>
        <time>2026-05-28T15:05:31Z</time>
      </trkpt>
      <trkpt lat="48.38644" lon="7.26733">
        <ele>1000.52356</ele>
        <time>2026-05-28T15:05:37Z</time>
      </trkpt>
      <trkpt lat="48.38646" lon="7.26726">
        <ele>1000.52356</ele>
        <time>2026-05-28T15:05:40Z</time>
      </trkpt>
      <trkpt lat="48.38648" lon="7.2672">
        <ele>1000.52356</ele>
        <time>2026-05-28T15:05:46Z</time>
      </trkpt>
      <trkpt lat="48.38651" lon="7.26714">
        <ele>1000.52356</ele>
        <time>2026-05-28T15:05:51Z</time>
      </trkpt>
      <trkpt lat="48.38652" lon="7.26707">
        <ele>1000.52356</ele>
        <time>2026-05-28T15:05:55Z</time>
      </trkpt>
      <trkpt lat="48.38655" lon="7.26701">
        <ele>1000.52356</ele>
        <time>2026-05-28T15:06:01Z</time>
      </trkpt>
      <trkpt lat="48.38657" lon="7.26695">
        <ele>1000.52356</ele>
        <time>2026-05-28T15:06:06Z</time>
      </trkpt>
      <trkpt lat="48.38659" lon="7.26688">
        <ele>1000.52356</ele>
        <time>2026-05-28T15:06:10Z</time>
      </trkpt>
      <trkpt lat="48.38661" lon="7.26681">
        <ele>1000.52356</ele>
        <time>2026-05-28T15:06:15Z</time>
      </trkpt>
      <trkpt lat="48.38664" lon="7.26674">
        <ele>1000.52356</ele>
        <time>2026-05-28T15:06:20Z</time>
      </trkpt>
      <trkpt lat="48.38665" lon="7.26667">
        <ele>1000.52356</ele>
        <time>2026-05-28T15:06:24Z</time>
      </trkpt>
      <trkpt lat="48.38668" lon="7.2666">
        <ele>1000.52356</ele>
        <time>2026-05-28T15:06:29Z</time>
      </trkpt>
      <trkpt lat="48.3867" lon="7.26653">
        <ele>1000.52356</ele>
        <time>2026-05-28T15:06:34Z</time>
      </trkpt>
      <trkpt lat="48.38672" lon="7.26646">
        <ele>1000.52356</ele>
        <time>2026-05-28T15:06:39Z</time>
      </trkpt>
      <trkpt lat="48.38674" lon="7.26639">
        <ele>1000.52356</ele>
        <time>2026-05-28T15:06:44Z</time>
      </trkpt>
      <trkpt lat="48.38676" lon="7.26632">
        <ele>1000.52356</ele>
        <time>2026-05-28T15:06:49Z</time>
      </trkpt>
      <trkpt lat="48.38678" lon="7.26624">
        <ele>1000.52356</ele>
        <time>2026-05-28T15:06:54Z</time>
      </trkpt>
      <trkpt lat="48.38681" lon="7.26616">
        <ele>1000.52356</ele>
        <time>2026-05-28T15:07:00Z</time>
      </trkpt>
      <trkpt lat="48.38683" lon="7.2661">
        <ele>1000.52356</ele>
        <time>2026-05-28T15:07:04Z</time>
      </trkpt>
      <trkpt lat="48.38685" lon="7.26602">
        <ele>1000.52356</ele>
        <time>2026-05-28T15:07:08Z</time>
      </trkpt>
      <trkpt lat="48.38686" lon="7.26596">
        <ele>1000.52356</ele>
        <time>2026-05-28T15:07:12Z</time>
      </trkpt>
      <trkpt lat="48.38688" lon="7.26588">
        <ele>1000.52356</ele>
        <time>2026-05-28T15:07:17Z</time>
      </trkpt>
      <trkpt lat="48.3869" lon="7.2658">
        <ele>1000.52356</ele>
        <time>2026-05-28T15:07:23Z</time>
      </trkpt>
      <trkpt lat="48.38691" lon="7.26573">
        <ele>1000.52356</ele>
        <time>2026-05-28T15:07:28Z</time>
      </trkpt>
      <trkpt lat="48.38692" lon="7.26565">
        <ele>1000.52356</ele>
        <time>2026-05-28T15:07:33Z</time>
      </trkpt>
      <trkpt lat="48.38693" lon="7.26557">
        <ele>1000.52356</ele>
        <time>2026-05-28T15:07:38Z</time>
      </trkpt>
      <trkpt lat="48.38694" lon="7.26549">
        <ele>1000.52356</ele>
        <time>2026-05-28T15:07:43Z</time>
      </trkpt>
      <trkpt lat="48.38696" lon="7.26541">
        <ele>1000.52356</ele>
        <time>2026-05-28T15:07:48Z</time>
      </trkpt>
      <trkpt lat="48.38691" lon="7.26542">
        <ele>1000.52356</ele>
        <time>2026-05-28T15:08:18Z</time>
      </trkpt>
      <trkpt lat="48.38694" lon="7.26535">
        <ele>1000.52356</ele>
        <time>2026-05-28T15:08:49Z</time>
      </trkpt>
      <trkpt lat="48.38696" lon="7.2653">
        <ele>1000.52356</ele>
        <time>2026-05-28T15:08:55Z</time>
      </trkpt>
      <trkpt lat="48.38698" lon="7.26522">
        <ele>1000.52356</ele>
        <time>2026-05-28T15:09:00Z</time>
      </trkpt>
      <trkpt lat="48.38697" lon="7.26515">
        <ele>1000.52356</ele>
        <time>2026-05-28T15:09:04Z</time>
      </trkpt>
      <trkpt lat="48.38697" lon="7.26507">
        <ele>1000.52356</ele>
        <time>2026-05-28T15:09:08Z</time>
      </trkpt>
      <trkpt lat="48.387" lon="7.26501">
        <ele>1000.52356</ele>
        <time>2026-05-28T15:09:30Z</time>
      </trkpt>
      <trkpt lat="48.38701" lon="7.26494">
        <ele>1000.52356</ele>
        <time>2026-05-28T15:09:34Z</time>
      </trkpt>
      <trkpt lat="48.38701" lon="7.26486">
        <ele>1000.52356</ele>
        <time>2026-05-28T15:09:40Z</time>
      </trkpt>
      <trkpt lat="48.38702" lon="7.26479">
        <ele>1000.52356</ele>
        <time>2026-05-28T15:09:45Z</time>
      </trkpt>
      <trkpt lat="48.38702" lon="7.26471">
        <ele>1000.52356</ele>
        <time>2026-05-28T15:09:50Z</time>
      </trkpt>
      <trkpt lat="48.38703" lon="7.26464">
        <ele>1000.52356</ele>
        <time>2026-05-28T15:09:54Z</time>
      </trkpt>
      <trkpt lat="48.38704" lon="7.26455">
        <ele>1000.52356</ele>
        <time>2026-05-28T15:10:11Z</time>
      </trkpt>
      <trkpt lat="48.38704" lon="7.26448">
        <ele>1000.52356</ele>
        <time>2026-05-28T15:10:16Z</time>
      </trkpt>
      <trkpt lat="48.38704" lon="7.2644">
        <ele>1000.52356</ele>
        <time>2026-05-28T15:10:20Z</time>
      </trkpt>
      <trkpt lat="48.38704" lon="7.26433">
        <ele>1000.52356</ele>
        <time>2026-05-28T15:10:24Z</time>
      </trkpt>
      <trkpt lat="48.38704" lon="7.26425">
        <ele>1000.52356</ele>
        <time>2026-05-28T15:10:28Z</time>
      </trkpt>
      <trkpt lat="48.38704" lon="7.26417">
        <ele>1000.52356</ele>
        <time>2026-05-28T15:10:33Z</time>
      </trkpt>
      <trkpt lat="48.38704" lon="7.2641">
        <ele>1000.52356</ele>
        <time>2026-05-28T15:10:38Z</time>
      </trkpt>
      <trkpt lat="48.38704" lon="7.26402">
        <ele>1000.52356</ele>
        <time>2026-05-28T15:10:42Z</time>
      </trkpt>
      <trkpt lat="48.38703" lon="7.26394">
        <ele>1000.52356</ele>
        <time>2026-05-28T15:10:48Z</time>
      </trkpt>
      <trkpt lat="48.38703" lon="7.26387">
        <ele>1000.52356</ele>
        <time>2026-05-28T15:10:52Z</time>
      </trkpt>
      <trkpt lat="48.38702" lon="7.26379">
        <ele>1000.52356</ele>
        <time>2026-05-28T15:10:57Z</time>
      </trkpt>
      <trkpt lat="48.38702" lon="7.26372">
        <ele>1000.52356</ele>
        <time>2026-05-28T15:11:01Z</time>
      </trkpt>
      <trkpt lat="48.38701" lon="7.26365">
        <ele>1000.52356</ele>
        <time>2026-05-28T15:11:05Z</time>
      </trkpt>
      <trkpt lat="48.387" lon="7.26357">
        <ele>1000.52356</ele>
        <time>2026-05-28T15:11:10Z</time>
      </trkpt>
      <trkpt lat="48.38699" lon="7.2635">
        <ele>1000.52356</ele>
        <time>2026-05-28T15:11:14Z</time>
      </trkpt>
      <trkpt lat="48.38698" lon="7.26342">
        <ele>1000.52356</ele>
        <time>2026-05-28T15:11:18Z</time>
      </trkpt>
      <trkpt lat="48.38696" lon="7.26335">
        <ele>1000.52356</ele>
        <time>2026-05-28T15:11:30Z</time>
      </trkpt>
      <trkpt lat="48.38693" lon="7.26329">
        <ele>1000.52356</ele>
        <time>2026-05-28T15:11:34Z</time>
      </trkpt>
      <trkpt lat="48.38693" lon="7.26321">
        <ele>1000.52356</ele>
        <time>2026-05-28T15:11:39Z</time>
      </trkpt>
      <trkpt lat="48.3869" lon="7.26313">
        <ele>1000.52356</ele>
        <time>2026-05-28T15:11:44Z</time>
      </trkpt>
      <trkpt lat="48.38689" lon="7.26305">
        <ele>1000.52356</ele>
        <time>2026-05-28T15:11:49Z</time>
      </trkpt>
      <trkpt lat="48.38686" lon="7.26298">
        <ele>1000.52356</ele>
        <time>2026-05-28T15:11:54Z</time>
      </trkpt>
      <trkpt lat="48.38685" lon="7.26291">
        <ele>1000.52356</ele>
        <time>2026-05-28T15:11:58Z</time>
      </trkpt>
      <trkpt lat="48.38685" lon="7.26284">
        <ele>1000.52356</ele>
        <time>2026-05-28T15:12:02Z</time>
      </trkpt>
      <trkpt lat="48.38683" lon="7.26277">
        <ele>1000.52356</ele>
        <time>2026-05-28T15:12:08Z</time>
      </trkpt>
      <trkpt lat="48.3868" lon="7.26271">
        <ele>1000.52356</ele>
        <time>2026-05-28T15:12:13Z</time>
      </trkpt>
      <trkpt lat="48.38677" lon="7.26266">
        <ele>1000.52356</ele>
        <time>2026-05-28T15:12:18Z</time>
      </trkpt>
      <trkpt lat="48.38673" lon="7.26259">
        <ele>1000.52356</ele>
        <time>2026-05-28T15:12:23Z</time>
      </trkpt>
      <trkpt lat="48.38673" lon="7.26251">
        <ele>1000.52356</ele>
        <time>2026-05-28T15:12:28Z</time>
      </trkpt>
      <trkpt lat="48.38672" lon="7.26243">
        <ele>1000.52356</ele>
        <time>2026-05-28T15:12:32Z</time>
      </trkpt>
      <trkpt lat="48.3867" lon="7.26235">
        <ele>1000.52356</ele>
        <time>2026-05-28T15:12:37Z</time>
      </trkpt>
      <trkpt lat="48.38668" lon="7.26227">
        <ele>1000.52356</ele>
        <time>2026-05-28T15:12:41Z</time>
      </trkpt>
      <trkpt lat="48.38666" lon="7.26221">
        <ele>1000.52356</ele>
        <time>2026-05-28T15:12:46Z</time>
      </trkpt>
      <trkpt lat="48.38664" lon="7.26215">
        <ele>1000.52356</ele>
        <time>2026-05-28T15:12:51Z</time>
      </trkpt>
      <trkpt lat="48.38661" lon="7.26208">
        <ele>1000.52356</ele>
        <time>2026-05-28T15:12:55Z</time>
      </trkpt>
      <trkpt lat="48.38658" lon="7.26202">
        <ele>1000.52356</ele>
        <time>2026-05-28T15:12:58Z</time>
      </trkpt>
      <trkpt lat="48.38656" lon="7.26196">
        <ele>1000.52356</ele>
        <time>2026-05-28T15:13:03Z</time>
      </trkpt>
      <trkpt lat="48.38652" lon="7.26191">
        <ele>1000.52356</ele>
        <time>2026-05-28T15:13:08Z</time>
      </trkpt>
      <trkpt lat="48.38649" lon="7.26184">
        <ele>998.5138</ele>
        <time>2026-05-28T15:13:12Z</time>
      </trkpt>
      <trkpt lat="48.38646" lon="7.26179">
        <ele>996.50397</ele>
        <time>2026-05-28T15:13:16Z</time>
      </trkpt>
      <trkpt lat="48.38643" lon="7.26173">
        <ele>994.4942</ele>
        <time>2026-05-28T15:13:20Z</time>
      </trkpt>
      <trkpt lat="48.3864" lon="7.26165">
        <ele>992.4844</ele>
        <time>2026-05-28T15:13:26Z</time>
      </trkpt>
      <trkpt lat="48.38637" lon="7.26159">
        <ele>990.4746</ele>
        <time>2026-05-28T15:13:30Z</time>
      </trkpt>
      <trkpt lat="48.38635" lon="7.26153">
        <ele>990.4746</ele>
        <time>2026-05-28T15:13:34Z</time>
      </trkpt>
      <trkpt lat="48.38631" lon="7.26148">
        <ele>990.4746</ele>
        <time>2026-05-28T15:13:38Z</time>
      </trkpt>
      <trkpt lat="48.38627" lon="7.26142">
        <ele>990.4746</ele>
        <time>2026-05-28T15:13:43Z</time>
      </trkpt>
      <trkpt lat="48.38623" lon="7.26137">
        <ele>990.4746</ele>
        <time>2026-05-28T15:13:47Z</time>
      </trkpt>
      <trkpt lat="48.3862" lon="7.26132">
        <ele>990.4746</ele>
        <time>2026-05-28T15:13:51Z</time>
      </trkpt>
      <trkpt lat="48.38616" lon="7.26126">
        <ele>990.4746</ele>
        <time>2026-05-28T15:13:56Z</time>
      </trkpt>
      <trkpt lat="48.38612" lon="7.26121">
        <ele>990.4746</ele>
        <time>2026-05-28T15:14:02Z</time>
      </trkpt>
      <trkpt lat="48.38608" lon="7.26115">
        <ele>990.4746</ele>
        <time>2026-05-28T15:14:07Z</time>
      </trkpt>
      <trkpt lat="48.38604" lon="7.26109">
        <ele>990.4746</ele>
        <time>2026-05-28T15:14:12Z</time>
      </trkpt>
      <trkpt lat="48.38599" lon="7.26105">
        <ele>990.4746</ele>
        <time>2026-05-28T15:14:16Z</time>
      </trkpt>
      <trkpt lat="48.38595" lon="7.261">
        <ele>990.4746</ele>
        <time>2026-05-28T15:14:20Z</time>
      </trkpt>
      <trkpt lat="48.38591" lon="7.26097">
        <ele>990.4746</ele>
        <time>2026-05-28T15:14:24Z</time>
      </trkpt>
      <trkpt lat="48.38586" lon="7.26093">
        <ele>990.4746</ele>
        <time>2026-05-28T15:14:29Z</time>
      </trkpt>
      <trkpt lat="48.38582" lon="7.26089">
        <ele>990.4746</ele>
        <time>2026-05-28T15:14:33Z</time>
      </trkpt>
      <trkpt lat="48.38577" lon="7.26086">
        <ele>990.4746</ele>
        <time>2026-05-28T15:14:38Z</time>
      </trkpt>
      <trkpt lat="48.38573" lon="7.26082">
        <ele>990.4746</ele>
        <time>2026-05-28T15:14:43Z</time>
      </trkpt>
      <trkpt lat="48.38567" lon="7.26078">
        <ele>990.4746</ele>
        <time>2026-05-28T15:14:48Z</time>
      </trkpt>
      <trkpt lat="48.38563" lon="7.26076">
        <ele>990.4746</ele>
        <time>2026-05-28T15:14:54Z</time>
      </trkpt>
      <trkpt lat="48.38559" lon="7.26072">
        <ele>990.4746</ele>
        <time>2026-05-28T15:14:58Z</time>
      </trkpt>
      <trkpt lat="48.38554" lon="7.2607">
        <ele>990.4746</ele>
        <time>2026-05-28T15:15:04Z</time>
      </trkpt>
      <trkpt lat="48.38549" lon="7.26067">
        <ele>990.4746</ele>
        <time>2026-05-28T15:15:09Z</time>
      </trkpt>
      <trkpt lat="48.38544" lon="7.26066">
        <ele>990.4746</ele>
        <time>2026-05-28T15:15:13Z</time>
      </trkpt>
      <trkpt lat="48.3854" lon="7.26063">
        <ele>990.4746</ele>
        <time>2026-05-28T15:15:18Z</time>
      </trkpt>
      <trkpt lat="48.38535" lon="7.26061">
        <ele>990.4746</ele>
        <time>2026-05-28T15:15:22Z</time>
      </trkpt>
      <trkpt lat="48.3853" lon="7.26058">
        <ele>990.4746</ele>
        <time>2026-05-28T15:15:26Z</time>
      </trkpt>
      <trkpt lat="48.38526" lon="7.26056">
        <ele>990.4746</ele>
        <time>2026-05-28T15:15:31Z</time>
      </trkpt>
      <trkpt lat="48.3852" lon="7.26054">
        <ele>990.4746</ele>
        <time>2026-05-28T15:15:36Z</time>
      </trkpt>
      <trkpt lat="48.38516" lon="7.26052">
        <ele>990.4746</ele>
        <time>2026-05-28T15:15:40Z</time>
      </trkpt>
      <trkpt lat="48.38511" lon="7.26049">
        <ele>990.4746</ele>
        <time>2026-05-28T15:15:45Z</time>
      </trkpt>
      <trkpt lat="48.38506" lon="7.26045">
        <ele>990.4746</ele>
        <time>2026-05-28T15:15:50Z</time>
      </trkpt>
      <trkpt lat="48.38501" lon="7.26043">
        <ele>990.4746</ele>
        <time>2026-05-28T15:15:55Z</time>
      </trkpt>
      <trkpt lat="48.38498" lon="7.26039">
        <ele>990.4746</ele>
        <time>2026-05-28T15:16:00Z</time>
      </trkpt>
      <trkpt lat="48.38493" lon="7.26036">
        <ele>990.4746</ele>
        <time>2026-05-28T15:16:04Z</time>
      </trkpt>
      <trkpt lat="48.38489" lon="7.26034">
        <ele>990.4746</ele>
        <time>2026-05-28T15:16:08Z</time>
      </trkpt>
      <trkpt lat="48.38485" lon="7.2603">
        <ele>990.4746</ele>
        <time>2026-05-28T15:16:13Z</time>
      </trkpt>
      <trkpt lat="48.3848" lon="7.26027">
        <ele>990.4746</ele>
        <time>2026-05-28T15:16:18Z</time>
      </trkpt>
      <trkpt lat="48.38475" lon="7.26022">
        <ele>990.4746</ele>
        <time>2026-05-28T15:16:23Z</time>
      </trkpt>
      <trkpt lat="48.38471" lon="7.2602">
        <ele>990.4746</ele>
        <time>2026-05-28T15:16:29Z</time>
      </trkpt>
      <trkpt lat="48.38467" lon="7.26016">
        <ele>990.4746</ele>
        <time>2026-05-28T15:16:34Z</time>
      </trkpt>
      <trkpt lat="48.38462" lon="7.26012">
        <ele>990.4746</ele>
        <time>2026-05-28T15:16:39Z</time>
      </trkpt>
      <trkpt lat="48.38457" lon="7.26008">
        <ele>990.4746</ele>
        <time>2026-05-28T15:16:44Z</time>
      </trkpt>
      <trkpt lat="48.38453" lon="7.26004">
        <ele>990.4746</ele>
        <time>2026-05-28T15:16:49Z</time>
      </trkpt>
      <trkpt lat="48.38449" lon="7.26">
        <ele>990.4746</ele>
        <time>2026-05-28T15:16:52Z</time>
      </trkpt>
      <trkpt lat="48.38444" lon="7.25995">
        <ele>990.4746</ele>
        <time>2026-05-28T15:16:58Z</time>
      </trkpt>
      <trkpt lat="48.3844" lon="7.25991">
        <ele>990.4746</ele>
        <time>2026-05-28T15:17:03Z</time>
      </trkpt>
      <trkpt lat="48.38436" lon="7.25987">
        <ele>990.4746</ele>
        <time>2026-05-28T15:17:08Z</time>
      </trkpt>
      <trkpt lat="48.38432" lon="7.25982">
        <ele>990.4746</ele>
        <time>2026-05-28T15:17:13Z</time>
      </trkpt>
      <trkpt lat="48.38428" lon="7.25978">
        <ele>990.4746</ele>
        <time>2026-05-28T15:17:17Z</time>
      </trkpt>
      <trkpt lat="48.38424" lon="7.25973">
        <ele>990.4746</ele>
        <time>2026-05-28T15:17:22Z</time>
      </trkpt>
      <trkpt lat="48.38421" lon="7.25967">
        <ele>990.4746</ele>
        <time>2026-05-28T15:17:29Z</time>
      </trkpt>
      <trkpt lat="48.38417" lon="7.25962">
        <ele>990.4746</ele>
        <time>2026-05-28T15:17:34Z</time>
      </trkpt>
      <trkpt lat="48.38413" lon="7.25958">
        <ele>988.2457</ele>
        <time>2026-05-28T15:17:39Z</time>
      </trkpt>
      <trkpt lat="48.3841" lon="7.25951">
        <ele>986.01685</ele>
        <time>2026-05-28T15:17:45Z</time>
      </trkpt>
      <trkpt lat="48.38406" lon="7.25947">
        <ele>983.7879</ele>
        <time>2026-05-28T15:17:49Z</time>
      </trkpt>
      <trkpt lat="48.38404" lon="7.25941">
        <ele>981.559</ele>
        <time>2026-05-28T15:17:53Z</time>
      </trkpt>
      <trkpt lat="48.38401" lon="7.25936">
        <ele>979.33014</ele>
        <time>2026-05-28T15:17:58Z</time>
      </trkpt>
      <trkpt lat="48.38397" lon="7.2593">
        <ele>979.33014</ele>
        <time>2026-05-28T15:18:03Z</time>
      </trkpt>
      <trkpt lat="48.38394" lon="7.25924">
        <ele>979.33014</ele>
        <time>2026-05-28T15:18:09Z</time>
      </trkpt>
      <trkpt lat="48.38391" lon="7.25918">
        <ele>979.33014</ele>
        <time>2026-05-28T15:18:13Z</time>
      </trkpt>
      <trkpt lat="48.38387" lon="7.25912">
        <ele>979.33014</ele>
        <time>2026-05-28T15:18:18Z</time>
      </trkpt>
      <trkpt lat="48.38384" lon="7.25907">
        <ele>979.33014</ele>
        <time>2026-05-28T15:18:23Z</time>
      </trkpt>
      <trkpt lat="48.38382" lon="7.259">
        <ele>979.33014</ele>
        <time>2026-05-28T15:18:28Z</time>
      </trkpt>
      <trkpt lat="48.3838" lon="7.25894">
        <ele>979.33014</ele>
        <time>2026-05-28T15:18:32Z</time>
      </trkpt>
      <trkpt lat="48.38378" lon="7.25888">
        <ele>979.33014</ele>
        <time>2026-05-28T15:18:37Z</time>
      </trkpt>
      <trkpt lat="48.38376" lon="7.25881">
        <ele>979.33014</ele>
        <time>2026-05-28T15:18:42Z</time>
      </trkpt>
      <trkpt lat="48.38374" lon="7.25873">
        <ele>979.33014</ele>
        <time>2026-05-28T15:18:48Z</time>
      </trkpt>
      <trkpt lat="48.38372" lon="7.25866">
        <ele>979.33014</ele>
        <time>2026-05-28T15:18:54Z</time>
      </trkpt>
      <trkpt lat="48.38372" lon="7.25859">
        <ele>979.33014</ele>
        <time>2026-05-28T15:18:58Z</time>
      </trkpt>
      <trkpt lat="48.38371" lon="7.2585">
        <ele>979.33014</ele>
        <time>2026-05-28T15:19:03Z</time>
      </trkpt>
      <trkpt lat="48.38371" lon="7.25843">
        <ele>979.33014</ele>
        <time>2026-05-28T15:19:07Z</time>
      </trkpt>
      <trkpt lat="48.38371" lon="7.25835">
        <ele>977.2475</ele>
        <time>2026-05-28T15:19:13Z</time>
      </trkpt>
      <trkpt lat="48.38371" lon="7.25826">
        <ele>975.16486</ele>
        <time>2026-05-28T15:19:16Z</time>
      </trkpt>
      <trkpt lat="48.38371" lon="7.25819">
        <ele>973.08215</ele>
        <time>2026-05-28T15:19:21Z</time>
      </trkpt>
      <trkpt lat="48.38371" lon="7.25812">
        <ele>970.9995</ele>
        <time>2026-05-28T15:19:28Z</time>
      </trkpt>
      <trkpt lat="48.38369" lon="7.25806">
        <ele>968.9169</ele>
        <time>2026-05-28T15:19:34Z</time>
      </trkpt>
      <trkpt lat="48.38366" lon="7.25799">
        <ele>968.9169</ele>
        <time>2026-05-28T15:19:40Z</time>
      </trkpt>
      <trkpt lat="48.38364" lon="7.25792">
        <ele>968.9169</ele>
        <time>2026-05-28T15:19:45Z</time>
      </trkpt>
      <trkpt lat="48.38363" lon="7.25785">
        <ele>968.9169</ele>
        <time>2026-05-28T15:19:53Z</time>
      </trkpt>
      <trkpt lat="48.38358" lon="7.25782">
        <ele>968.9169</ele>
        <time>2026-05-28T15:20:10Z</time>
      </trkpt>
      <trkpt lat="48.38354" lon="7.25781">
        <ele>968.9169</ele>
        <time>2026-05-28T15:20:14Z</time>
      </trkpt>
      <trkpt lat="48.38348" lon="7.25783">
        <ele>968.9169</ele>
        <time>2026-05-28T15:20:23Z</time>
      </trkpt>
    </trkseg>
  </trk>
</gpx>